<?xml version="1.0" encoding="UTF-8" standalone="no" ?>
<gpx xmlns="http://www.topografix.com/GPX/1/1" xmlns:xsi="http://www.w3.org/2001/XMLSchema-instance" xsi:schemaLocation="http://www.topografix.com/GPX/1/1 http://www.topografix.com/GPX/1/1/gpx.xsd" version="1.1" creator="VisuGPX - https://www.visugpx.com">
  <metadata>
    <name>cogny - dh de letra</name>
    <desc><![CDATA[trace de boucle au départ de cogny pour aller jusqu\'à la dh de Letra.]]></desc>
  </metadata>
  <trk>
    <name><![CDATA[ACTIVE LOG105136]]></name>
    <trkseg>
      <trkpt lat="45.98847" lon="4.62571">
        <ele>348.132</ele>
        <time>2012-10-10T08:51:34Z</time>
      </trkpt>
    </trkseg>
  </trk>
  <trk>
    <name><![CDATA[ACTIVE LOG105503]]></name>
    <trkseg>
      <trkpt lat="45.98837" lon="4.6257">
        <ele>339.668</ele>
        <time>2012-10-10T08:55:01Z</time>
      </trkpt>
      <trkpt lat="45.98842" lon="4.62568">
        <ele>340.377</ele>
        <time>2012-10-10T08:55:40Z</time>
      </trkpt>
      <trkpt lat="45.98841" lon="4.62564">
        <ele>339.486</ele>
        <time>2012-10-10T08:55:46Z</time>
      </trkpt>
      <trkpt lat="45.98839" lon="4.62565">
        <ele>339.007</ele>
        <time>2012-10-10T08:55:51Z</time>
      </trkpt>
      <trkpt lat="45.98843" lon="4.62549">
        <ele>337.961</ele>
        <time>2012-10-10T08:55:58Z</time>
      </trkpt>
      <trkpt lat="45.98841" lon="4.62546">
        <ele>337.811</ele>
        <time>2012-10-10T08:55:59Z</time>
      </trkpt>
      <trkpt lat="45.98828" lon="4.62522">
        <ele>337.394</ele>
        <time>2012-10-10T08:56:06Z</time>
      </trkpt>
      <trkpt lat="45.98827" lon="4.62495">
        <ele>335.907</ele>
        <time>2012-10-10T08:56:12Z</time>
      </trkpt>
      <trkpt lat="45.98836" lon="4.6249">
        <ele>335.17</ele>
        <time>2012-10-10T08:56:18Z</time>
      </trkpt>
      <trkpt lat="45.9886" lon="4.62504">
        <ele>338.324</ele>
        <time>2012-10-10T08:56:29Z</time>
      </trkpt>
      <trkpt lat="45.98878" lon="4.62516">
        <ele>339.517</ele>
        <time>2012-10-10T08:56:37Z</time>
      </trkpt>
      <trkpt lat="45.98914" lon="4.62535">
        <ele>345.116</ele>
        <time>2012-10-10T08:56:49Z</time>
      </trkpt>
      <trkpt lat="45.98947" lon="4.62553">
        <ele>351.508</ele>
        <time>2012-10-10T08:57:01Z</time>
      </trkpt>
      <trkpt lat="45.98981" lon="4.62571">
        <ele>352.09</ele>
        <time>2012-10-10T08:57:14Z</time>
      </trkpt>
      <trkpt lat="45.99012" lon="4.62588">
        <ele>355.155</ele>
        <time>2012-10-10T08:57:26Z</time>
      </trkpt>
      <trkpt lat="45.9902" lon="4.62593">
        <ele>356.432</ele>
        <time>2012-10-10T08:57:30Z</time>
      </trkpt>
      <trkpt lat="45.9903" lon="4.62581">
        <ele>357.516</ele>
        <time>2012-10-10T08:57:36Z</time>
      </trkpt>
      <trkpt lat="45.99025" lon="4.62541">
        <ele>360.48</ele>
        <time>2012-10-10T08:57:47Z</time>
      </trkpt>
      <trkpt lat="45.99022" lon="4.62509">
        <ele>361.58</ele>
        <time>2012-10-10T08:57:55Z</time>
      </trkpt>
      <trkpt lat="45.99024" lon="4.62476">
        <ele>363.443</ele>
        <time>2012-10-10T08:58:04Z</time>
      </trkpt>
      <trkpt lat="45.99027" lon="4.62434">
        <ele>367.934</ele>
        <time>2012-10-10T08:58:16Z</time>
      </trkpt>
      <trkpt lat="45.99026" lon="4.62429">
        <ele>368.555</ele>
        <time>2012-10-10T08:58:18Z</time>
      </trkpt>
      <trkpt lat="45.99031" lon="4.62384">
        <ele>370.217</ele>
        <time>2012-10-10T08:58:30Z</time>
      </trkpt>
      <trkpt lat="45.99032" lon="4.62329">
        <ele>370.788</ele>
        <time>2012-10-10T08:58:43Z</time>
      </trkpt>
      <trkpt lat="45.99035" lon="4.62274">
        <ele>372.207</ele>
        <time>2012-10-10T08:58:56Z</time>
      </trkpt>
      <trkpt lat="45.99038" lon="4.6224">
        <ele>372.845</ele>
        <time>2012-10-10T08:59:06Z</time>
      </trkpt>
      <trkpt lat="45.99042" lon="4.622">
        <ele>375.903</ele>
        <time>2012-10-10T08:59:21Z</time>
      </trkpt>
      <trkpt lat="45.99044" lon="4.62172">
        <ele>380.018</ele>
        <time>2012-10-10T08:59:31Z</time>
      </trkpt>
      <trkpt lat="45.99048" lon="4.62138">
        <ele>382.551</ele>
        <time>2012-10-10T08:59:44Z</time>
      </trkpt>
      <trkpt lat="45.99051" lon="4.62116">
        <ele>385.531</ele>
        <time>2012-10-10T08:59:54Z</time>
      </trkpt>
      <trkpt lat="45.99056" lon="4.6209">
        <ele>386.849</ele>
        <time>2012-10-10T09:00:06Z</time>
      </trkpt>
      <trkpt lat="45.99062" lon="4.62061">
        <ele>389.445</ele>
        <time>2012-10-10T09:00:20Z</time>
      </trkpt>
      <trkpt lat="45.99064" lon="4.62051">
        <ele>389.807</ele>
        <time>2012-10-10T09:00:24Z</time>
      </trkpt>
      <trkpt lat="45.99069" lon="4.62036">
        <ele>392.387</ele>
        <time>2012-10-10T09:00:32Z</time>
      </trkpt>
      <trkpt lat="45.99093" lon="4.62028">
        <ele>393.554</ele>
        <time>2012-10-10T09:00:43Z</time>
      </trkpt>
      <trkpt lat="45.99116" lon="4.62011">
        <ele>393.273</ele>
        <time>2012-10-10T09:00:54Z</time>
      </trkpt>
      <trkpt lat="45.99132" lon="4.62005">
        <ele>394.713</ele>
        <time>2012-10-10T09:01:02Z</time>
      </trkpt>
      <trkpt lat="45.99157" lon="4.62003">
        <ele>394.914</ele>
        <time>2012-10-10T09:01:12Z</time>
      </trkpt>
      <trkpt lat="45.99184" lon="4.62006">
        <ele>398.879</ele>
        <time>2012-10-10T09:01:23Z</time>
      </trkpt>
      <trkpt lat="45.99201" lon="4.62003">
        <ele>398.344</ele>
        <time>2012-10-10T09:01:31Z</time>
      </trkpt>
      <trkpt lat="45.99203" lon="4.61994">
        <ele>399.831</ele>
        <time>2012-10-10T09:01:39Z</time>
      </trkpt>
      <trkpt lat="45.99197" lon="4.61985">
        <ele>400.981</ele>
        <time>2012-10-10T09:01:53Z</time>
      </trkpt>
      <trkpt lat="45.99191" lon="4.61973">
        <ele>403.581</ele>
        <time>2012-10-10T09:02:05Z</time>
      </trkpt>
      <trkpt lat="45.99189" lon="4.61969">
        <ele>403.403</ele>
        <time>2012-10-10T09:02:18Z</time>
      </trkpt>
      <trkpt lat="45.99187" lon="4.61959">
        <ele>404.152</ele>
        <time>2012-10-10T09:02:28Z</time>
      </trkpt>
      <trkpt lat="45.99187" lon="4.61951">
        <ele>406.359</ele>
        <time>2012-10-10T09:02:36Z</time>
      </trkpt>
      <trkpt lat="45.99192" lon="4.6194">
        <ele>408.979</ele>
        <time>2012-10-10T09:02:48Z</time>
      </trkpt>
      <trkpt lat="45.99193" lon="4.61936">
        <ele>408.719</ele>
        <time>2012-10-10T09:03:24Z</time>
      </trkpt>
      <trkpt lat="45.992" lon="4.61928">
        <ele>409.942</ele>
        <time>2012-10-10T09:04:22Z</time>
      </trkpt>
      <trkpt lat="45.99216" lon="4.61909">
        <ele>410.182</ele>
        <time>2012-10-10T09:04:33Z</time>
      </trkpt>
      <trkpt lat="45.99217" lon="4.61874">
        <ele>414.095</ele>
        <time>2012-10-10T09:04:43Z</time>
      </trkpt>
      <trkpt lat="45.99216" lon="4.61836">
        <ele>416.008</ele>
        <time>2012-10-10T09:04:54Z</time>
      </trkpt>
      <trkpt lat="45.99215" lon="4.61809">
        <ele>416.851</ele>
        <time>2012-10-10T09:05:04Z</time>
      </trkpt>
      <trkpt lat="45.99216" lon="4.61766">
        <ele>418.612</ele>
        <time>2012-10-10T09:05:17Z</time>
      </trkpt>
      <trkpt lat="45.99227" lon="4.61736">
        <ele>421.434</ele>
        <time>2012-10-10T09:05:29Z</time>
      </trkpt>
      <trkpt lat="45.99242" lon="4.61705">
        <ele>423.557</ele>
        <time>2012-10-10T09:05:41Z</time>
      </trkpt>
      <trkpt lat="45.99257" lon="4.6167">
        <ele>423.354</ele>
        <time>2012-10-10T09:05:51Z</time>
      </trkpt>
      <trkpt lat="45.99279" lon="4.61625">
        <ele>424.119</ele>
        <time>2012-10-10T09:06:03Z</time>
      </trkpt>
      <trkpt lat="45.99288" lon="4.61613">
        <ele>423.584</ele>
        <time>2012-10-10T09:06:07Z</time>
      </trkpt>
      <trkpt lat="45.99309" lon="4.6161">
        <ele>423.253</ele>
        <time>2012-10-10T09:06:14Z</time>
      </trkpt>
      <trkpt lat="45.99312" lon="4.61602">
        <ele>423.222</ele>
        <time>2012-10-10T09:06:16Z</time>
      </trkpt>
      <trkpt lat="45.99326" lon="4.61532">
        <ele>424.553</ele>
        <time>2012-10-10T09:06:31Z</time>
      </trkpt>
      <trkpt lat="45.99337" lon="4.61486">
        <ele>427.883</ele>
        <time>2012-10-10T09:06:43Z</time>
      </trkpt>
      <trkpt lat="45.99344" lon="4.61451">
        <ele>428.982</ele>
        <time>2012-10-10T09:06:53Z</time>
      </trkpt>
      <trkpt lat="45.99346" lon="4.61415">
        <ele>431.057</ele>
        <time>2012-10-10T09:07:04Z</time>
      </trkpt>
      <trkpt lat="45.99352" lon="4.61375">
        <ele>433.105</ele>
        <time>2012-10-10T09:07:16Z</time>
      </trkpt>
      <trkpt lat="45.99361" lon="4.61339">
        <ele>436.628</ele>
        <time>2012-10-10T09:07:28Z</time>
      </trkpt>
      <trkpt lat="45.99374" lon="4.61292">
        <ele>439.354</ele>
        <time>2012-10-10T09:07:43Z</time>
      </trkpt>
      <trkpt lat="45.99382" lon="4.61263">
        <ele>440.965</ele>
        <time>2012-10-10T09:07:53Z</time>
      </trkpt>
      <trkpt lat="45.99394" lon="4.61231">
        <ele>444.486</ele>
        <time>2012-10-10T09:08:05Z</time>
      </trkpt>
      <trkpt lat="45.99401" lon="4.61205">
        <ele>446.701</ele>
        <time>2012-10-10T09:08:18Z</time>
      </trkpt>
      <trkpt lat="45.99405" lon="4.61195">
        <ele>447.511</ele>
        <time>2012-10-10T09:08:33Z</time>
      </trkpt>
      <trkpt lat="45.99409" lon="4.61183">
        <ele>447.5</ele>
        <time>2012-10-10T09:08:53Z</time>
      </trkpt>
      <trkpt lat="45.9941" lon="4.6116">
        <ele>447.725</ele>
        <time>2012-10-10T09:09:00Z</time>
      </trkpt>
      <trkpt lat="45.99412" lon="4.61122">
        <ele>450.308</ele>
        <time>2012-10-10T09:09:13Z</time>
      </trkpt>
      <trkpt lat="45.99416" lon="4.61089">
        <ele>451.545</ele>
        <time>2012-10-10T09:09:25Z</time>
      </trkpt>
      <trkpt lat="45.9942" lon="4.61054">
        <ele>453.936</ele>
        <time>2012-10-10T09:09:37Z</time>
      </trkpt>
      <trkpt lat="45.99417" lon="4.61024">
        <ele>454.269</ele>
        <time>2012-10-10T09:09:48Z</time>
      </trkpt>
      <trkpt lat="45.99414" lon="4.60988">
        <ele>456.757</ele>
        <time>2012-10-10T09:10:01Z</time>
      </trkpt>
      <trkpt lat="45.99411" lon="4.60954">
        <ele>460.68</ele>
        <time>2012-10-10T09:10:14Z</time>
      </trkpt>
      <trkpt lat="45.9941" lon="4.60916">
        <ele>462.498</ele>
        <time>2012-10-10T09:10:25Z</time>
      </trkpt>
      <trkpt lat="45.99401" lon="4.60859">
        <ele>463.541</ele>
        <time>2012-10-10T09:10:36Z</time>
      </trkpt>
      <trkpt lat="45.99395" lon="4.6082">
        <ele>464.62</ele>
        <time>2012-10-10T09:10:46Z</time>
      </trkpt>
      <trkpt lat="45.99392" lon="4.60791">
        <ele>466.444</ele>
        <time>2012-10-10T09:10:58Z</time>
      </trkpt>
      <trkpt lat="45.9939" lon="4.60778">
        <ele>467.078</ele>
        <time>2012-10-10T09:11:03Z</time>
      </trkpt>
      <trkpt lat="45.99387" lon="4.60747">
        <ele>468.94</ele>
        <time>2012-10-10T09:11:15Z</time>
      </trkpt>
      <trkpt lat="45.99387" lon="4.60745">
        <ele>469.29</ele>
        <time>2012-10-10T09:11:16Z</time>
      </trkpt>
      <trkpt lat="45.99381" lon="4.60729">
        <ele>470.263</ele>
        <time>2012-10-10T09:11:23Z</time>
      </trkpt>
      <trkpt lat="45.99379" lon="4.60726">
        <ele>469.788</ele>
        <time>2012-10-10T09:11:25Z</time>
      </trkpt>
      <trkpt lat="45.99386" lon="4.60707">
        <ele>470.7</ele>
        <time>2012-10-10T09:11:30Z</time>
      </trkpt>
      <trkpt lat="45.99398" lon="4.60663">
        <ele>472.033</ele>
        <time>2012-10-10T09:11:42Z</time>
      </trkpt>
      <trkpt lat="45.99409" lon="4.60616">
        <ele>470.75</ele>
        <time>2012-10-10T09:11:52Z</time>
      </trkpt>
      <trkpt lat="45.99416" lon="4.6056">
        <ele>468.892</ele>
        <time>2012-10-10T09:12:01Z</time>
      </trkpt>
      <trkpt lat="45.99422" lon="4.60511">
        <ele>468.335</ele>
        <time>2012-10-10T09:12:10Z</time>
      </trkpt>
      <trkpt lat="45.99429" lon="4.60472">
        <ele>468.427</ele>
        <time>2012-10-10T09:12:21Z</time>
      </trkpt>
      <trkpt lat="45.99431" lon="4.60465">
        <ele>470.204</ele>
        <time>2012-10-10T09:12:32Z</time>
      </trkpt>
      <trkpt lat="45.99432" lon="4.60435">
        <ele>471.223</ele>
        <time>2012-10-10T09:12:37Z</time>
      </trkpt>
      <trkpt lat="45.99434" lon="4.60426">
        <ele>472.36</ele>
        <time>2012-10-10T09:12:41Z</time>
      </trkpt>
      <trkpt lat="45.99438" lon="4.60403">
        <ele>474.507</ele>
        <time>2012-10-10T09:12:52Z</time>
      </trkpt>
      <trkpt lat="45.99442" lon="4.6038">
        <ele>475.815</ele>
        <time>2012-10-10T09:13:03Z</time>
      </trkpt>
      <trkpt lat="45.99447" lon="4.60349">
        <ele>476.717</ele>
        <time>2012-10-10T09:13:15Z</time>
      </trkpt>
      <trkpt lat="45.99451" lon="4.60323">
        <ele>477.416</ele>
        <time>2012-10-10T09:13:25Z</time>
      </trkpt>
      <trkpt lat="45.99456" lon="4.60286">
        <ele>480.454</ele>
        <time>2012-10-10T09:13:38Z</time>
      </trkpt>
      <trkpt lat="45.99464" lon="4.6024">
        <ele>478.866</ele>
        <time>2012-10-10T09:13:52Z</time>
      </trkpt>
      <trkpt lat="45.99465" lon="4.60202">
        <ele>478.209</ele>
        <time>2012-10-10T09:14:04Z</time>
      </trkpt>
      <trkpt lat="45.99465" lon="4.60163">
        <ele>479.228</ele>
        <time>2012-10-10T09:14:15Z</time>
      </trkpt>
      <trkpt lat="45.99465" lon="4.6012">
        <ele>477.122</ele>
        <time>2012-10-10T09:14:28Z</time>
      </trkpt>
      <trkpt lat="45.99465" lon="4.60083">
        <ele>478.211</ele>
        <time>2012-10-10T09:14:38Z</time>
      </trkpt>
      <trkpt lat="45.99465" lon="4.6007">
        <ele>478.403</ele>
        <time>2012-10-10T09:14:42Z</time>
      </trkpt>
      <trkpt lat="45.99465" lon="4.60035">
        <ele>483.769</ele>
        <time>2012-10-10T09:14:54Z</time>
      </trkpt>
      <trkpt lat="45.99468" lon="4.59997">
        <ele>486.618</ele>
        <time>2012-10-10T09:15:06Z</time>
      </trkpt>
      <trkpt lat="45.99468" lon="4.5996">
        <ele>487.477</ele>
        <time>2012-10-10T09:15:18Z</time>
      </trkpt>
      <trkpt lat="45.99467" lon="4.59923">
        <ele>488.821</ele>
        <time>2012-10-10T09:15:31Z</time>
      </trkpt>
      <trkpt lat="45.99463" lon="4.59893">
        <ele>490.345</ele>
        <time>2012-10-10T09:15:42Z</time>
      </trkpt>
      <trkpt lat="45.99458" lon="4.59858">
        <ele>492.592</ele>
        <time>2012-10-10T09:15:54Z</time>
      </trkpt>
      <trkpt lat="45.99451" lon="4.59821">
        <ele>493.923</ele>
        <time>2012-10-10T09:16:07Z</time>
      </trkpt>
      <trkpt lat="45.99443" lon="4.59771">
        <ele>494.035</ele>
        <time>2012-10-10T09:16:22Z</time>
      </trkpt>
      <trkpt lat="45.9944" lon="4.59724">
        <ele>493.288</ele>
        <time>2012-10-10T09:16:35Z</time>
      </trkpt>
      <trkpt lat="45.99438" lon="4.59691">
        <ele>494.139</ele>
        <time>2012-10-10T09:16:45Z</time>
      </trkpt>
      <trkpt lat="45.99437" lon="4.59658">
        <ele>495.331</ele>
        <time>2012-10-10T09:16:55Z</time>
      </trkpt>
      <trkpt lat="45.99435" lon="4.59623">
        <ele>495.998</ele>
        <time>2012-10-10T09:17:05Z</time>
      </trkpt>
      <trkpt lat="45.99433" lon="4.59578">
        <ele>495.799</ele>
        <time>2012-10-10T09:17:18Z</time>
      </trkpt>
      <trkpt lat="45.99432" lon="4.59538">
        <ele>497.119</ele>
        <time>2012-10-10T09:17:29Z</time>
      </trkpt>
      <trkpt lat="45.9943" lon="4.59501">
        <ele>499.519</ele>
        <time>2012-10-10T09:17:41Z</time>
      </trkpt>
      <trkpt lat="45.99426" lon="4.59461">
        <ele>500.475</ele>
        <time>2012-10-10T09:17:54Z</time>
      </trkpt>
      <trkpt lat="45.99423" lon="4.59458">
        <ele>501.385</ele>
        <time>2012-10-10T09:17:57Z</time>
      </trkpt>
      <trkpt lat="45.99418" lon="4.59453">
        <ele>501.357</ele>
        <time>2012-10-10T09:18:01Z</time>
      </trkpt>
      <trkpt lat="45.99401" lon="4.59439">
        <ele>503.635</ele>
        <time>2012-10-10T09:18:13Z</time>
      </trkpt>
      <trkpt lat="45.99397" lon="4.59435">
        <ele>503.463</ele>
        <time>2012-10-10T09:18:16Z</time>
      </trkpt>
      <trkpt lat="45.99396" lon="4.59434">
        <ele>503.545</ele>
        <time>2012-10-10T09:18:18Z</time>
      </trkpt>
      <trkpt lat="45.99388" lon="4.59425">
        <ele>506.353</ele>
        <time>2012-10-10T09:18:25Z</time>
      </trkpt>
      <trkpt lat="45.99385" lon="4.59422">
        <ele>507.501</ele>
        <time>2012-10-10T09:18:38Z</time>
      </trkpt>
      <trkpt lat="45.99385" lon="4.59422">
        <ele>507.783</ele>
        <time>2012-10-10T09:18:47Z</time>
      </trkpt>
      <trkpt lat="45.99385" lon="4.59422">
        <ele>510.115</ele>
        <time>2012-10-10T09:18:56Z</time>
      </trkpt>
      <trkpt lat="45.99385" lon="4.59422">
        <ele>511.694</ele>
        <time>2012-10-10T09:19:06Z</time>
      </trkpt>
      <trkpt lat="45.99385" lon="4.59422">
        <ele>513.005</ele>
        <time>2012-10-10T09:19:16Z</time>
      </trkpt>
      <trkpt lat="45.99346" lon="4.59394">
        <ele>513.582</ele>
        <time>2012-10-10T09:19:28Z</time>
      </trkpt>
      <trkpt lat="45.99344" lon="4.59394">
        <ele>516.576</ele>
        <time>2012-10-10T09:19:38Z</time>
      </trkpt>
      <trkpt lat="45.99317" lon="4.59385">
        <ele>517.749</ele>
        <time>2012-10-10T09:19:50Z</time>
      </trkpt>
      <trkpt lat="45.99299" lon="4.5938">
        <ele>518.693</ele>
        <time>2012-10-10T09:19:59Z</time>
      </trkpt>
      <trkpt lat="45.99277" lon="4.59373">
        <ele>519.482</ele>
        <time>2012-10-10T09:20:10Z</time>
      </trkpt>
      <trkpt lat="45.99251" lon="4.59365">
        <ele>520.403</ele>
        <time>2012-10-10T09:20:21Z</time>
      </trkpt>
      <trkpt lat="45.99214" lon="4.59355">
        <ele>518.127</ele>
        <time>2012-10-10T09:20:32Z</time>
      </trkpt>
      <trkpt lat="45.99165" lon="4.59342">
        <ele>514.849</ele>
        <time>2012-10-10T09:20:44Z</time>
      </trkpt>
      <trkpt lat="45.99147" lon="4.59337">
        <ele>514.632</ele>
        <time>2012-10-10T09:20:49Z</time>
      </trkpt>
      <trkpt lat="45.99149" lon="4.59328">
        <ele>515.141</ele>
        <time>2012-10-10T09:20:53Z</time>
      </trkpt>
      <trkpt lat="45.99168" lon="4.59293">
        <ele>517.537</ele>
        <time>2012-10-10T09:21:03Z</time>
      </trkpt>
      <trkpt lat="45.99182" lon="4.59227">
        <ele>518.698</ele>
        <time>2012-10-10T09:21:17Z</time>
      </trkpt>
      <trkpt lat="45.99188" lon="4.59175">
        <ele>519.366</ele>
        <time>2012-10-10T09:21:28Z</time>
      </trkpt>
      <trkpt lat="45.99191" lon="4.59108">
        <ele>520.723</ele>
        <time>2012-10-10T09:21:41Z</time>
      </trkpt>
      <trkpt lat="45.99195" lon="4.59058">
        <ele>523.083</ele>
        <time>2012-10-10T09:21:54Z</time>
      </trkpt>
      <trkpt lat="45.99205" lon="4.59016">
        <ele>525.93</ele>
        <time>2012-10-10T09:22:07Z</time>
      </trkpt>
      <trkpt lat="45.99217" lon="4.58978">
        <ele>530.15</ele>
        <time>2012-10-10T09:22:21Z</time>
      </trkpt>
      <trkpt lat="45.99227" lon="4.58949">
        <ele>532.01</ele>
        <time>2012-10-10T09:22:33Z</time>
      </trkpt>
      <trkpt lat="45.99235" lon="4.58923">
        <ele>533.821</ele>
        <time>2012-10-10T09:22:43Z</time>
      </trkpt>
      <trkpt lat="45.99246" lon="4.58888">
        <ele>535.994</ele>
        <time>2012-10-10T09:22:56Z</time>
      </trkpt>
      <trkpt lat="45.99265" lon="4.58848">
        <ele>535.7</ele>
        <time>2012-10-10T09:23:08Z</time>
      </trkpt>
      <trkpt lat="45.99288" lon="4.58794">
        <ele>534.563</ele>
        <time>2012-10-10T09:23:20Z</time>
      </trkpt>
      <trkpt lat="45.99295" lon="4.58734">
        <ele>533.997</ele>
        <time>2012-10-10T09:23:31Z</time>
      </trkpt>
      <trkpt lat="45.99291" lon="4.58707">
        <ele>534.12</ele>
        <time>2012-10-10T09:23:36Z</time>
      </trkpt>
      <trkpt lat="45.99293" lon="4.58631">
        <ele>535.498</ele>
        <time>2012-10-10T09:23:49Z</time>
      </trkpt>
      <trkpt lat="45.9927" lon="4.58555">
        <ele>534.946</ele>
        <time>2012-10-10T09:24:04Z</time>
      </trkpt>
      <trkpt lat="45.99278" lon="4.58574">
        <ele>534.301</ele>
        <time>2012-10-10T09:24:14Z</time>
      </trkpt>
      <trkpt lat="45.99265" lon="4.58467">
        <ele>535.145</ele>
        <time>2012-10-10T09:24:26Z</time>
      </trkpt>
      <trkpt lat="45.99262" lon="4.58427">
        <ele>535.972</ele>
        <time>2012-10-10T09:24:37Z</time>
      </trkpt>
      <trkpt lat="45.99259" lon="4.58398">
        <ele>538.013</ele>
        <time>2012-10-10T09:24:47Z</time>
      </trkpt>
      <trkpt lat="45.99253" lon="4.58372">
        <ele>538.567</ele>
        <time>2012-10-10T09:24:58Z</time>
      </trkpt>
      <trkpt lat="45.99245" lon="4.58349">
        <ele>540.685</ele>
        <time>2012-10-10T09:25:09Z</time>
      </trkpt>
      <trkpt lat="45.99233" lon="4.58325">
        <ele>543.414</ele>
        <time>2012-10-10T09:25:22Z</time>
      </trkpt>
      <trkpt lat="45.99218" lon="4.58308">
        <ele>543.852</ele>
        <time>2012-10-10T09:25:33Z</time>
      </trkpt>
      <trkpt lat="45.992" lon="4.58283">
        <ele>544.627</ele>
        <time>2012-10-10T09:25:46Z</time>
      </trkpt>
      <trkpt lat="45.99197" lon="4.58278">
        <ele>544.087</ele>
        <time>2012-10-10T09:25:49Z</time>
      </trkpt>
      <trkpt lat="45.99181" lon="4.58261">
        <ele>542.867</ele>
        <time>2012-10-10T09:26:00Z</time>
      </trkpt>
      <trkpt lat="45.99163" lon="4.58242">
        <ele>545.934</ele>
        <time>2012-10-10T09:26:12Z</time>
      </trkpt>
      <trkpt lat="45.99151" lon="4.58226">
        <ele>548.313</ele>
        <time>2012-10-10T09:26:22Z</time>
      </trkpt>
      <trkpt lat="45.99137" lon="4.58206">
        <ele>550.259</ele>
        <time>2012-10-10T09:26:32Z</time>
      </trkpt>
      <trkpt lat="45.99132" lon="4.5819">
        <ele>551.025</ele>
        <time>2012-10-10T09:26:39Z</time>
      </trkpt>
      <trkpt lat="45.99128" lon="4.5816">
        <ele>554.501</ele>
        <time>2012-10-10T09:26:54Z</time>
      </trkpt>
      <trkpt lat="45.99128" lon="4.5815">
        <ele>555.081</ele>
        <time>2012-10-10T09:27:05Z</time>
      </trkpt>
      <trkpt lat="45.99128" lon="4.5815">
        <ele>555.778</ele>
        <time>2012-10-10T09:27:18Z</time>
      </trkpt>
      <trkpt lat="45.99128" lon="4.5815">
        <ele>558.255</ele>
        <time>2012-10-10T09:27:33Z</time>
      </trkpt>
      <trkpt lat="45.99128" lon="4.5815">
        <ele>560.396</ele>
        <time>2012-10-10T09:27:42Z</time>
      </trkpt>
      <trkpt lat="45.99128" lon="4.5815">
        <ele>563.479</ele>
        <time>2012-10-10T09:27:55Z</time>
      </trkpt>
      <trkpt lat="45.99128" lon="4.5815">
        <ele>565.249</ele>
        <time>2012-10-10T09:28:02Z</time>
      </trkpt>
      <trkpt lat="45.99157" lon="4.58072">
        <ele>566.605</ele>
        <time>2012-10-10T09:28:14Z</time>
      </trkpt>
      <trkpt lat="45.99172" lon="4.58043">
        <ele>567.361</ele>
        <time>2012-10-10T09:28:25Z</time>
      </trkpt>
      <trkpt lat="45.99189" lon="4.58013">
        <ele>569.131</ele>
        <time>2012-10-10T09:28:37Z</time>
      </trkpt>
      <trkpt lat="45.99205" lon="4.57988">
        <ele>570.231</ele>
        <time>2012-10-10T09:28:47Z</time>
      </trkpt>
      <trkpt lat="45.99209" lon="4.57982">
        <ele>570.714</ele>
        <time>2012-10-10T09:28:58Z</time>
      </trkpt>
      <trkpt lat="45.99215" lon="4.57974">
        <ele>570.024</ele>
        <time>2012-10-10T09:29:05Z</time>
      </trkpt>
      <trkpt lat="45.99218" lon="4.5797">
        <ele>570.756</ele>
        <time>2012-10-10T09:29:18Z</time>
      </trkpt>
      <trkpt lat="45.99218" lon="4.5797">
        <ele>572.757</ele>
        <time>2012-10-10T09:29:30Z</time>
      </trkpt>
      <trkpt lat="45.99218" lon="4.5797">
        <ele>576.132</ele>
        <time>2012-10-10T09:29:42Z</time>
      </trkpt>
      <trkpt lat="45.99218" lon="4.5797">
        <ele>578.353</ele>
        <time>2012-10-10T09:29:55Z</time>
      </trkpt>
      <trkpt lat="45.99218" lon="4.5797">
        <ele>581.055</ele>
        <time>2012-10-10T09:30:10Z</time>
      </trkpt>
      <trkpt lat="45.99218" lon="4.5797">
        <ele>581.862</ele>
        <time>2012-10-10T09:30:15Z</time>
      </trkpt>
      <trkpt lat="45.99218" lon="4.5797">
        <ele>584.439</ele>
        <time>2012-10-10T09:30:27Z</time>
      </trkpt>
      <trkpt lat="45.99218" lon="4.5797">
        <ele>588.127</ele>
        <time>2012-10-10T09:30:40Z</time>
      </trkpt>
      <trkpt lat="45.99218" lon="4.5797">
        <ele>589.9</ele>
        <time>2012-10-10T09:30:50Z</time>
      </trkpt>
      <trkpt lat="45.99279" lon="4.5789">
        <ele>590.279</ele>
        <time>2012-10-10T09:30:59Z</time>
      </trkpt>
      <trkpt lat="45.99279" lon="4.5789">
        <ele>592.247</ele>
        <time>2012-10-10T09:31:12Z</time>
      </trkpt>
      <trkpt lat="45.99279" lon="4.5789">
        <ele>593.556</ele>
        <time>2012-10-10T09:31:23Z</time>
      </trkpt>
      <trkpt lat="45.99298" lon="4.57858">
        <ele>593.252</ele>
        <time>2012-10-10T09:31:36Z</time>
      </trkpt>
      <trkpt lat="45.99311" lon="4.57842">
        <ele>594.704</ele>
        <time>2012-10-10T09:31:49Z</time>
      </trkpt>
      <trkpt lat="45.99325" lon="4.57826">
        <ele>596.059</ele>
        <time>2012-10-10T09:32:02Z</time>
      </trkpt>
      <trkpt lat="45.99325" lon="4.57826">
        <ele>596.608</ele>
        <time>2012-10-10T09:32:14Z</time>
      </trkpt>
      <trkpt lat="45.99325" lon="4.57826">
        <ele>596.915</ele>
        <time>2012-10-10T09:32:33Z</time>
      </trkpt>
      <trkpt lat="45.99325" lon="4.57826">
        <ele>597.645</ele>
        <time>2012-10-10T09:32:53Z</time>
      </trkpt>
      <trkpt lat="45.99325" lon="4.57826">
        <ele>599.538</ele>
        <time>2012-10-10T09:33:11Z</time>
      </trkpt>
      <trkpt lat="45.99325" lon="4.57826">
        <ele>600.091</ele>
        <time>2012-10-10T09:33:33Z</time>
      </trkpt>
      <trkpt lat="45.99325" lon="4.57826">
        <ele>601.015</ele>
        <time>2012-10-10T09:33:49Z</time>
      </trkpt>
      <trkpt lat="45.99325" lon="4.57826">
        <ele>603.32</ele>
        <time>2012-10-10T09:34:06Z</time>
      </trkpt>
      <trkpt lat="45.99378" lon="4.5772">
        <ele>605.691</ele>
        <time>2012-10-10T09:34:23Z</time>
      </trkpt>
      <trkpt lat="45.99378" lon="4.5772">
        <ele>608.114</ele>
        <time>2012-10-10T09:34:43Z</time>
      </trkpt>
      <trkpt lat="45.99378" lon="4.5772">
        <ele>613.228</ele>
        <time>2012-10-10T09:34:59Z</time>
      </trkpt>
      <trkpt lat="45.99378" lon="4.5772">
        <ele>617.151</ele>
        <time>2012-10-10T09:35:19Z</time>
      </trkpt>
      <trkpt lat="45.99378" lon="4.5772">
        <ele>630.198</ele>
        <time>2012-10-10T09:36:19Z</time>
      </trkpt>
      <trkpt lat="45.99378" lon="4.5772">
        <ele>630.972</ele>
        <time>2012-10-10T09:36:23Z</time>
      </trkpt>
      <trkpt lat="45.99378" lon="4.5772">
        <ele>633.191</ele>
        <time>2012-10-10T09:36:35Z</time>
      </trkpt>
      <trkpt lat="45.99378" lon="4.5772">
        <ele>634.026</ele>
        <time>2012-10-10T09:36:49Z</time>
      </trkpt>
      <trkpt lat="45.99378" lon="4.5772">
        <ele>633.79</ele>
        <time>2012-10-10T09:37:29Z</time>
      </trkpt>
      <trkpt lat="45.99378" lon="4.5772">
        <ele>633.765</ele>
        <time>2012-10-10T09:37:30Z</time>
      </trkpt>
      <trkpt lat="45.99378" lon="4.5772">
        <ele>633.766</ele>
        <time>2012-10-10T09:37:38Z</time>
      </trkpt>
      <trkpt lat="45.99429" lon="4.57613">
        <ele>634.218</ele>
        <time>2012-10-10T09:37:51Z</time>
      </trkpt>
      <trkpt lat="45.99429" lon="4.57613">
        <ele>635.103</ele>
        <time>2012-10-10T09:38:02Z</time>
      </trkpt>
      <trkpt lat="45.99429" lon="4.57613">
        <ele>636.409</ele>
        <time>2012-10-10T09:38:18Z</time>
      </trkpt>
      <trkpt lat="45.99429" lon="4.57613">
        <ele>637.618</ele>
        <time>2012-10-10T09:38:32Z</time>
      </trkpt>
      <trkpt lat="45.99429" lon="4.57613">
        <ele>638.27</ele>
        <time>2012-10-10T09:38:45Z</time>
      </trkpt>
      <trkpt lat="45.99429" lon="4.57613">
        <ele>638.676</ele>
        <time>2012-10-10T09:38:50Z</time>
      </trkpt>
      <trkpt lat="45.99429" lon="4.57613">
        <ele>639.834</ele>
        <time>2012-10-10T09:39:01Z</time>
      </trkpt>
      <trkpt lat="45.99429" lon="4.57613">
        <ele>640.718</ele>
        <time>2012-10-10T09:39:19Z</time>
      </trkpt>
      <trkpt lat="45.99429" lon="4.57613">
        <ele>641.883</ele>
        <time>2012-10-10T09:39:40Z</time>
      </trkpt>
      <trkpt lat="45.99429" lon="4.57613">
        <ele>642.156</ele>
        <time>2012-10-10T09:39:54Z</time>
      </trkpt>
      <trkpt lat="45.9949" lon="4.57517">
        <ele>643.037</ele>
        <time>2012-10-10T09:40:08Z</time>
      </trkpt>
      <trkpt lat="45.9949" lon="4.57517">
        <ele>644.57</ele>
        <time>2012-10-10T09:40:23Z</time>
      </trkpt>
      <trkpt lat="45.9949" lon="4.57517">
        <ele>645.938</ele>
        <time>2012-10-10T09:40:36Z</time>
      </trkpt>
      <trkpt lat="45.9949" lon="4.57517">
        <ele>645.848</ele>
        <time>2012-10-10T09:40:47Z</time>
      </trkpt>
      <trkpt lat="45.99504" lon="4.57456">
        <ele>645.588</ele>
        <time>2012-10-10T09:40:58Z</time>
      </trkpt>
      <trkpt lat="45.99506" lon="4.57426">
        <ele>642.459</ele>
        <time>2012-10-10T09:41:10Z</time>
      </trkpt>
      <trkpt lat="45.99512" lon="4.57407">
        <ele>644.287</ele>
        <time>2012-10-10T09:41:17Z</time>
      </trkpt>
      <trkpt lat="45.99519" lon="4.57396">
        <ele>643.76</ele>
        <time>2012-10-10T09:41:23Z</time>
      </trkpt>
      <trkpt lat="45.99525" lon="4.57382">
        <ele>641.818</ele>
        <time>2012-10-10T09:41:32Z</time>
      </trkpt>
      <trkpt lat="45.99527" lon="4.57375">
        <ele>640.269</ele>
        <time>2012-10-10T09:41:38Z</time>
      </trkpt>
      <trkpt lat="45.99531" lon="4.57365">
        <ele>638.099</ele>
        <time>2012-10-10T09:41:43Z</time>
      </trkpt>
      <trkpt lat="45.99538" lon="4.57345">
        <ele>633.49</ele>
        <time>2012-10-10T09:41:54Z</time>
      </trkpt>
      <trkpt lat="45.99538" lon="4.57345">
        <ele>630.689</ele>
        <time>2012-10-10T09:42:01Z</time>
      </trkpt>
      <trkpt lat="45.99532" lon="4.57302">
        <ele>626.326</ele>
        <time>2012-10-10T09:42:17Z</time>
      </trkpt>
      <trkpt lat="45.99532" lon="4.57302">
        <ele>621.902</ele>
        <time>2012-10-10T09:42:36Z</time>
      </trkpt>
      <trkpt lat="45.99532" lon="4.57302">
        <ele>621.96</ele>
        <time>2012-10-10T09:42:52Z</time>
      </trkpt>
      <trkpt lat="45.99525" lon="4.57293">
        <ele>622.355</ele>
        <time>2012-10-10T09:42:56Z</time>
      </trkpt>
      <trkpt lat="45.99547" lon="4.57287">
        <ele>623.409</ele>
        <time>2012-10-10T09:43:03Z</time>
      </trkpt>
      <trkpt lat="45.99535" lon="4.57307">
        <ele>624.145</ele>
        <time>2012-10-10T09:43:07Z</time>
      </trkpt>
      <trkpt lat="45.9953" lon="4.57317">
        <ele>625.691</ele>
        <time>2012-10-10T09:43:13Z</time>
      </trkpt>
      <trkpt lat="45.99535" lon="4.57322">
        <ele>627.552</ele>
        <time>2012-10-10T09:43:15Z</time>
      </trkpt>
      <trkpt lat="45.99524" lon="4.57349">
        <ele>631.128</ele>
        <time>2012-10-10T09:43:19Z</time>
      </trkpt>
      <trkpt lat="45.99516" lon="4.57386">
        <ele>637.025</ele>
        <time>2012-10-10T09:43:24Z</time>
      </trkpt>
      <trkpt lat="45.99503" lon="4.57462">
        <ele>644.572</ele>
        <time>2012-10-10T09:43:35Z</time>
      </trkpt>
      <trkpt lat="45.995" lon="4.57485">
        <ele>647.493</ele>
        <time>2012-10-10T09:43:43Z</time>
      </trkpt>
      <trkpt lat="45.995" lon="4.57485">
        <ele>649.863</ele>
        <time>2012-10-10T09:43:55Z</time>
      </trkpt>
      <trkpt lat="45.995" lon="4.57485">
        <ele>651.688</ele>
        <time>2012-10-10T09:45:15Z</time>
      </trkpt>
      <trkpt lat="45.995" lon="4.57485">
        <ele>652.79</ele>
        <time>2012-10-10T09:45:27Z</time>
      </trkpt>
      <trkpt lat="45.995" lon="4.57485">
        <ele>655.57</ele>
        <time>2012-10-10T09:45:39Z</time>
      </trkpt>
      <trkpt lat="45.995" lon="4.57485">
        <ele>658.362</ele>
        <time>2012-10-10T09:45:54Z</time>
      </trkpt>
      <trkpt lat="45.99531" lon="4.57366">
        <ele>660.458</ele>
        <time>2012-10-10T09:46:11Z</time>
      </trkpt>
      <trkpt lat="45.99531" lon="4.57366">
        <ele>663.027</ele>
        <time>2012-10-10T09:46:27Z</time>
      </trkpt>
      <trkpt lat="45.99531" lon="4.57366">
        <ele>664.692</ele>
        <time>2012-10-10T09:46:39Z</time>
      </trkpt>
      <trkpt lat="45.99538" lon="4.57334">
        <ele>665.841</ele>
        <time>2012-10-10T09:46:52Z</time>
      </trkpt>
      <trkpt lat="45.99538" lon="4.57317">
        <ele>668.619</ele>
        <time>2012-10-10T09:47:02Z</time>
      </trkpt>
      <trkpt lat="45.99592" lon="4.57261">
        <ele>670.413</ele>
        <time>2012-10-10T09:47:11Z</time>
      </trkpt>
      <trkpt lat="45.99592" lon="4.57261">
        <ele>672.076</ele>
        <time>2012-10-10T09:47:14Z</time>
      </trkpt>
      <trkpt lat="45.99592" lon="4.57261">
        <ele>676.169</ele>
        <time>2012-10-10T09:47:23Z</time>
      </trkpt>
      <trkpt lat="45.99592" lon="4.57261">
        <ele>681.453</ele>
        <time>2012-10-10T09:47:44Z</time>
      </trkpt>
      <trkpt lat="45.99592" lon="4.57261">
        <ele>683.113</ele>
        <time>2012-10-10T09:48:04Z</time>
      </trkpt>
      <trkpt lat="45.99592" lon="4.57261">
        <ele>684.646</ele>
        <time>2012-10-10T09:48:17Z</time>
      </trkpt>
      <trkpt lat="45.99592" lon="4.57261">
        <ele>687.564</ele>
        <time>2012-10-10T09:48:33Z</time>
      </trkpt>
      <trkpt lat="45.99592" lon="4.57261">
        <ele>691.434</ele>
        <time>2012-10-10T09:48:47Z</time>
      </trkpt>
      <trkpt lat="45.99536" lon="4.57172">
        <ele>694.178</ele>
        <time>2012-10-10T09:48:55Z</time>
      </trkpt>
      <trkpt lat="45.99536" lon="4.57172">
        <ele>695.95</ele>
        <time>2012-10-10T09:49:09Z</time>
      </trkpt>
      <trkpt lat="45.99536" lon="4.57172">
        <ele>696.892</ele>
        <time>2012-10-10T09:49:17Z</time>
      </trkpt>
      <trkpt lat="45.99536" lon="4.57172">
        <ele>701.948</ele>
        <time>2012-10-10T09:49:36Z</time>
      </trkpt>
      <trkpt lat="45.99536" lon="4.57172">
        <ele>704.901</ele>
        <time>2012-10-10T09:50:06Z</time>
      </trkpt>
      <trkpt lat="45.99536" lon="4.57172">
        <ele>705.071</ele>
        <time>2012-10-10T09:50:09Z</time>
      </trkpt>
      <trkpt lat="45.99472" lon="4.57158">
        <ele>708.262</ele>
        <time>2012-10-10T09:50:23Z</time>
      </trkpt>
      <trkpt lat="45.99472" lon="4.57158">
        <ele>712.78</ele>
        <time>2012-10-10T09:50:34Z</time>
      </trkpt>
      <trkpt lat="45.99435" lon="4.57158">
        <ele>714.429</ele>
        <time>2012-10-10T09:50:45Z</time>
      </trkpt>
      <trkpt lat="45.99435" lon="4.57158">
        <ele>715.151</ele>
        <time>2012-10-10T09:51:01Z</time>
      </trkpt>
      <trkpt lat="45.99435" lon="4.57158">
        <ele>716.326</ele>
        <time>2012-10-10T09:51:32Z</time>
      </trkpt>
      <trkpt lat="45.9942" lon="4.57121">
        <ele>717.113</ele>
        <time>2012-10-10T09:51:36Z</time>
      </trkpt>
      <trkpt lat="45.9942" lon="4.57121">
        <ele>717.112</ele>
        <time>2012-10-10T09:51:38Z</time>
      </trkpt>
      <trkpt lat="45.99417" lon="4.57108">
        <ele>718.413</ele>
        <time>2012-10-10T09:51:45Z</time>
      </trkpt>
      <trkpt lat="45.99416" lon="4.57101">
        <ele>721.732</ele>
        <time>2012-10-10T09:51:56Z</time>
      </trkpt>
      <trkpt lat="45.99416" lon="4.57101">
        <ele>720.971</ele>
        <time>2012-10-10T09:52:06Z</time>
      </trkpt>
      <trkpt lat="45.99416" lon="4.57101">
        <ele>721.969</ele>
        <time>2012-10-10T09:52:15Z</time>
      </trkpt>
      <trkpt lat="45.99416" lon="4.57101">
        <ele>723.045</ele>
        <time>2012-10-10T09:52:28Z</time>
      </trkpt>
      <trkpt lat="45.99416" lon="4.57101">
        <ele>724.166</ele>
        <time>2012-10-10T09:52:39Z</time>
      </trkpt>
      <trkpt lat="45.99416" lon="4.57101">
        <ele>727.017</ele>
        <time>2012-10-10T09:52:57Z</time>
      </trkpt>
      <trkpt lat="45.99416" lon="4.57101">
        <ele>730.307</ele>
        <time>2012-10-10T09:53:13Z</time>
      </trkpt>
      <trkpt lat="45.99416" lon="4.57101">
        <ele>735.544</ele>
        <time>2012-10-10T09:53:32Z</time>
      </trkpt>
      <trkpt lat="45.9938" lon="4.56981">
        <ele>739.167</ele>
        <time>2012-10-10T09:53:50Z</time>
      </trkpt>
      <trkpt lat="45.9938" lon="4.56981">
        <ele>741.845</ele>
        <time>2012-10-10T09:54:05Z</time>
      </trkpt>
      <trkpt lat="45.9938" lon="4.56981">
        <ele>742.389</ele>
        <time>2012-10-10T09:54:13Z</time>
      </trkpt>
      <trkpt lat="45.9938" lon="4.56981">
        <ele>744.405</ele>
        <time>2012-10-10T09:54:28Z</time>
      </trkpt>
      <trkpt lat="45.9938" lon="4.56981">
        <ele>747.567</ele>
        <time>2012-10-10T09:54:38Z</time>
      </trkpt>
      <trkpt lat="45.9938" lon="4.56981">
        <ele>750.334</ele>
        <time>2012-10-10T09:54:51Z</time>
      </trkpt>
      <trkpt lat="45.9938" lon="4.56981">
        <ele>751.54</ele>
        <time>2012-10-10T09:55:03Z</time>
      </trkpt>
      <trkpt lat="45.99377" lon="4.56879">
        <ele>752.38</ele>
        <time>2012-10-10T09:55:13Z</time>
      </trkpt>
      <trkpt lat="45.99379" lon="4.56858">
        <ele>756.203</ele>
        <time>2012-10-10T09:55:26Z</time>
      </trkpt>
      <trkpt lat="45.99379" lon="4.56858">
        <ele>757.147</ele>
        <time>2012-10-10T09:55:41Z</time>
      </trkpt>
      <trkpt lat="45.99379" lon="4.56858">
        <ele>757.704</ele>
        <time>2012-10-10T09:55:53Z</time>
      </trkpt>
      <trkpt lat="45.99377" lon="4.56801">
        <ele>760.735</ele>
        <time>2012-10-10T09:56:05Z</time>
      </trkpt>
      <trkpt lat="45.99379" lon="4.56777">
        <ele>760.682</ele>
        <time>2012-10-10T09:56:17Z</time>
      </trkpt>
      <trkpt lat="45.99377" lon="4.56763">
        <ele>760.304</ele>
        <time>2012-10-10T09:56:23Z</time>
      </trkpt>
      <trkpt lat="45.99372" lon="4.56729">
        <ele>760.201</ele>
        <time>2012-10-10T09:56:37Z</time>
      </trkpt>
      <trkpt lat="45.99365" lon="4.56699">
        <ele>761.397</ele>
        <time>2012-10-10T09:56:49Z</time>
      </trkpt>
      <trkpt lat="45.99356" lon="4.56676">
        <ele>762.605</ele>
        <time>2012-10-10T09:56:59Z</time>
      </trkpt>
      <trkpt lat="45.99346" lon="4.5664">
        <ele>761.44</ele>
        <time>2012-10-10T09:57:10Z</time>
      </trkpt>
      <trkpt lat="45.99342" lon="4.56603">
        <ele>760.322</ele>
        <time>2012-10-10T09:57:21Z</time>
      </trkpt>
      <trkpt lat="45.99342" lon="4.56598">
        <ele>760.129</ele>
        <time>2012-10-10T09:57:23Z</time>
      </trkpt>
      <trkpt lat="45.99341" lon="4.56574">
        <ele>761.226</ele>
        <time>2012-10-10T09:57:33Z</time>
      </trkpt>
      <trkpt lat="45.99341" lon="4.56558">
        <ele>761.737</ele>
        <time>2012-10-10T09:57:42Z</time>
      </trkpt>
      <trkpt lat="45.99338" lon="4.56541">
        <ele>761.179</ele>
        <time>2012-10-10T09:57:51Z</time>
      </trkpt>
      <trkpt lat="45.99332" lon="4.56517">
        <ele>762.148</ele>
        <time>2012-10-10T09:58:00Z</time>
      </trkpt>
      <trkpt lat="45.99327" lon="4.5649">
        <ele>761.656</ele>
        <time>2012-10-10T09:58:10Z</time>
      </trkpt>
      <trkpt lat="45.99327" lon="4.56457">
        <ele>763.384</ele>
        <time>2012-10-10T09:58:20Z</time>
      </trkpt>
      <trkpt lat="45.99334" lon="4.56435">
        <ele>763.495</ele>
        <time>2012-10-10T09:58:28Z</time>
      </trkpt>
      <trkpt lat="45.99342" lon="4.56408">
        <ele>766.197</ele>
        <time>2012-10-10T09:58:37Z</time>
      </trkpt>
      <trkpt lat="45.99348" lon="4.56395">
        <ele>768.235</ele>
        <time>2012-10-10T09:58:44Z</time>
      </trkpt>
      <trkpt lat="45.99348" lon="4.56395">
        <ele>770.05</ele>
        <time>2012-10-10T09:58:48Z</time>
      </trkpt>
      <trkpt lat="45.99355" lon="4.56381">
        <ele>770.148</ele>
        <time>2012-10-10T09:58:52Z</time>
      </trkpt>
      <trkpt lat="45.99369" lon="4.56359">
        <ele>770.65</ele>
        <time>2012-10-10T09:58:57Z</time>
      </trkpt>
      <trkpt lat="45.99396" lon="4.56329">
        <ele>768.409</ele>
        <time>2012-10-10T09:59:06Z</time>
      </trkpt>
      <trkpt lat="45.9942" lon="4.56303">
        <ele>769.163</ele>
        <time>2012-10-10T09:59:13Z</time>
      </trkpt>
      <trkpt lat="45.99442" lon="4.56284">
        <ele>770.556</ele>
        <time>2012-10-10T09:59:22Z</time>
      </trkpt>
      <trkpt lat="45.99459" lon="4.56269">
        <ele>771.275</ele>
        <time>2012-10-10T09:59:31Z</time>
      </trkpt>
      <trkpt lat="45.99486" lon="4.56248">
        <ele>771.171</ele>
        <time>2012-10-10T09:59:39Z</time>
      </trkpt>
      <trkpt lat="45.99503" lon="4.56222">
        <ele>770.947</ele>
        <time>2012-10-10T09:59:47Z</time>
      </trkpt>
      <trkpt lat="45.99514" lon="4.56195">
        <ele>770.056</ele>
        <time>2012-10-10T09:59:54Z</time>
      </trkpt>
      <trkpt lat="45.99525" lon="4.56169">
        <ele>769.509</ele>
        <time>2012-10-10T10:00:16Z</time>
      </trkpt>
      <trkpt lat="45.99542" lon="4.56137">
        <ele>769.582</ele>
        <time>2012-10-10T10:00:22Z</time>
      </trkpt>
      <trkpt lat="45.99574" lon="4.56063">
        <ele>766.073</ele>
        <time>2012-10-10T10:00:35Z</time>
      </trkpt>
      <trkpt lat="45.9959" lon="4.56027">
        <ele>764.737</ele>
        <time>2012-10-10T10:00:44Z</time>
      </trkpt>
      <trkpt lat="45.99603" lon="4.55986">
        <ele>763.267</ele>
        <time>2012-10-10T10:00:55Z</time>
      </trkpt>
      <trkpt lat="45.99613" lon="4.55946">
        <ele>762.637</ele>
        <time>2012-10-10T10:01:04Z</time>
      </trkpt>
      <trkpt lat="45.99617" lon="4.55924">
        <ele>762.462</ele>
        <time>2012-10-10T10:01:09Z</time>
      </trkpt>
      <trkpt lat="45.99617" lon="4.5586">
        <ele>761.56</ele>
        <time>2012-10-10T10:01:16Z</time>
      </trkpt>
      <trkpt lat="45.99615" lon="4.55821">
        <ele>759.528</ele>
        <time>2012-10-10T10:01:20Z</time>
      </trkpt>
      <trkpt lat="45.99622" lon="4.55754">
        <ele>756.265</ele>
        <time>2012-10-10T10:01:27Z</time>
      </trkpt>
      <trkpt lat="45.99628" lon="4.5573">
        <ele>753.6</ele>
        <time>2012-10-10T10:01:34Z</time>
      </trkpt>
      <trkpt lat="45.99643" lon="4.55692">
        <ele>752.179</ele>
        <time>2012-10-10T10:01:43Z</time>
      </trkpt>
      <trkpt lat="45.99677" lon="4.55647">
        <ele>750.189</ele>
        <time>2012-10-10T10:01:53Z</time>
      </trkpt>
      <trkpt lat="45.99713" lon="4.556">
        <ele>748.192</ele>
        <time>2012-10-10T10:02:00Z</time>
      </trkpt>
      <trkpt lat="45.99727" lon="4.55577">
        <ele>747.403</ele>
        <time>2012-10-10T10:02:03Z</time>
      </trkpt>
      <trkpt lat="45.99742" lon="4.55549">
        <ele>746.614</ele>
        <time>2012-10-10T10:02:07Z</time>
      </trkpt>
      <trkpt lat="45.99757" lon="4.55515">
        <ele>745.623</ele>
        <time>2012-10-10T10:02:12Z</time>
      </trkpt>
      <trkpt lat="45.99759" lon="4.55499">
        <ele>745.236</ele>
        <time>2012-10-10T10:02:15Z</time>
      </trkpt>
      <trkpt lat="45.99768" lon="4.55468">
        <ele>745.067</ele>
        <time>2012-10-10T10:02:20Z</time>
      </trkpt>
      <trkpt lat="45.99779" lon="4.55431">
        <ele>744.897</ele>
        <time>2012-10-10T10:02:24Z</time>
      </trkpt>
      <trkpt lat="45.99808" lon="4.5538">
        <ele>744.484</ele>
        <time>2012-10-10T10:02:30Z</time>
      </trkpt>
      <trkpt lat="45.99828" lon="4.55343">
        <ele>744.24</ele>
        <time>2012-10-10T10:02:37Z</time>
      </trkpt>
      <trkpt lat="45.99837" lon="4.55327">
        <ele>744.391</ele>
        <time>2012-10-10T10:02:41Z</time>
      </trkpt>
      <trkpt lat="45.99837" lon="4.55327">
        <ele>744.464</ele>
        <time>2012-10-10T10:02:48Z</time>
      </trkpt>
      <trkpt lat="45.99852" lon="4.55301">
        <ele>744.728</ele>
        <time>2012-10-10T10:02:54Z</time>
      </trkpt>
      <trkpt lat="45.99865" lon="4.55273">
        <ele>745.446</ele>
        <time>2012-10-10T10:03:00Z</time>
      </trkpt>
      <trkpt lat="45.99872" lon="4.55242">
        <ele>745.534</ele>
        <time>2012-10-10T10:03:03Z</time>
      </trkpt>
      <trkpt lat="45.99875" lon="4.55224">
        <ele>745.714</ele>
        <time>2012-10-10T10:03:05Z</time>
      </trkpt>
      <trkpt lat="45.99887" lon="4.55131">
        <ele>746.626</ele>
        <time>2012-10-10T10:03:13Z</time>
      </trkpt>
      <trkpt lat="45.99884" lon="4.55106">
        <ele>747.165</ele>
        <time>2012-10-10T10:03:16Z</time>
      </trkpt>
      <trkpt lat="45.99887" lon="4.55069">
        <ele>750.559</ele>
        <time>2012-10-10T10:03:24Z</time>
      </trkpt>
      <trkpt lat="45.99887" lon="4.55042">
        <ele>754.154</ele>
        <time>2012-10-10T10:03:29Z</time>
      </trkpt>
      <trkpt lat="45.99886" lon="4.54985">
        <ele>761.934</ele>
        <time>2012-10-10T10:03:39Z</time>
      </trkpt>
      <trkpt lat="45.99886" lon="4.54953">
        <ele>766.127</ele>
        <time>2012-10-10T10:03:43Z</time>
      </trkpt>
      <trkpt lat="45.99883" lon="4.54876">
        <ele>775.047</ele>
        <time>2012-10-10T10:03:54Z</time>
      </trkpt>
      <trkpt lat="45.99883" lon="4.54868">
        <ele>775.826</ele>
        <time>2012-10-10T10:03:55Z</time>
      </trkpt>
      <trkpt lat="45.9988" lon="4.54831">
        <ele>781.573</ele>
        <time>2012-10-10T10:04:01Z</time>
      </trkpt>
      <trkpt lat="45.99877" lon="4.54818">
        <ele>783.332</ele>
        <time>2012-10-10T10:04:03Z</time>
      </trkpt>
      <trkpt lat="45.99868" lon="4.54798">
        <ele>784.289</ele>
        <time>2012-10-10T10:04:06Z</time>
      </trkpt>
      <trkpt lat="45.99856" lon="4.54762">
        <ele>787.136</ele>
        <time>2012-10-10T10:04:12Z</time>
      </trkpt>
      <trkpt lat="45.9985" lon="4.54738">
        <ele>789.14</ele>
        <time>2012-10-10T10:04:16Z</time>
      </trkpt>
      <trkpt lat="45.99848" lon="4.54725">
        <ele>789.853</ele>
        <time>2012-10-10T10:04:18Z</time>
      </trkpt>
      <trkpt lat="45.99847" lon="4.54707">
        <ele>789.569</ele>
        <time>2012-10-10T10:04:21Z</time>
      </trkpt>
      <trkpt lat="45.99852" lon="4.54627">
        <ele>790.527</ele>
        <time>2012-10-10T10:04:34Z</time>
      </trkpt>
      <trkpt lat="45.99859" lon="4.54594">
        <ele>791.514</ele>
        <time>2012-10-10T10:04:45Z</time>
      </trkpt>
      <trkpt lat="45.99864" lon="4.5459">
        <ele>790.811</ele>
        <time>2012-10-10T10:04:47Z</time>
      </trkpt>
      <trkpt lat="45.99865" lon="4.5459">
        <ele>787.463</ele>
        <time>2012-10-10T10:04:53Z</time>
      </trkpt>
      <trkpt lat="45.99853" lon="4.54587">
        <ele>786.978</ele>
        <time>2012-10-10T10:04:58Z</time>
      </trkpt>
      <trkpt lat="45.99847" lon="4.54574">
        <ele>783.609</ele>
        <time>2012-10-10T10:05:05Z</time>
      </trkpt>
      <trkpt lat="45.99839" lon="4.54562">
        <ele>777.123</ele>
        <time>2012-10-10T10:05:14Z</time>
      </trkpt>
      <trkpt lat="45.99853" lon="4.54587">
        <ele>772.873</ele>
        <time>2012-10-10T10:05:25Z</time>
      </trkpt>
      <trkpt lat="45.99853" lon="4.54587">
        <ele>771.035</ele>
        <time>2012-10-10T10:05:30Z</time>
      </trkpt>
      <trkpt lat="45.99878" lon="4.54552">
        <ele>769.216</ele>
        <time>2012-10-10T10:05:34Z</time>
      </trkpt>
      <trkpt lat="45.99888" lon="4.54541">
        <ele>765.846</ele>
        <time>2012-10-10T10:05:43Z</time>
      </trkpt>
      <trkpt lat="45.99896" lon="4.54534">
        <ele>764.611</ele>
        <time>2012-10-10T10:05:46Z</time>
      </trkpt>
      <trkpt lat="45.99898" lon="4.54531">
        <ele>763.625</ele>
        <time>2012-10-10T10:05:49Z</time>
      </trkpt>
      <trkpt lat="45.99872" lon="4.54419">
        <ele>761.096</ele>
        <time>2012-10-10T10:05:56Z</time>
      </trkpt>
      <trkpt lat="45.99871" lon="4.54413">
        <ele>760.058</ele>
        <time>2012-10-10T10:05:59Z</time>
      </trkpt>
      <trkpt lat="45.99865" lon="4.54398">
        <ele>758.272</ele>
        <time>2012-10-10T10:06:04Z</time>
      </trkpt>
      <trkpt lat="45.99865" lon="4.54389">
        <ele>754.65</ele>
        <time>2012-10-10T10:06:15Z</time>
      </trkpt>
      <trkpt lat="45.99866" lon="4.54389">
        <ele>754.447</ele>
        <time>2012-10-10T10:06:27Z</time>
      </trkpt>
      <trkpt lat="45.99871" lon="4.54418">
        <ele>753.236</ele>
        <time>2012-10-10T10:06:37Z</time>
      </trkpt>
      <trkpt lat="45.99876" lon="4.54443">
        <ele>750.966</ele>
        <time>2012-10-10T10:06:42Z</time>
      </trkpt>
      <trkpt lat="45.99875" lon="4.54457">
        <ele>748.026</ele>
        <time>2012-10-10T10:06:47Z</time>
      </trkpt>
      <trkpt lat="45.99874" lon="4.54463">
        <ele>746.926</ele>
        <time>2012-10-10T10:06:49Z</time>
      </trkpt>
      <trkpt lat="45.99874" lon="4.54467">
        <ele>745.909</ele>
        <time>2012-10-10T10:06:51Z</time>
      </trkpt>
      <trkpt lat="45.99865" lon="4.54491">
        <ele>739.792</ele>
        <time>2012-10-10T10:07:01Z</time>
      </trkpt>
      <trkpt lat="45.99856" lon="4.54508">
        <ele>736.335</ele>
        <time>2012-10-10T10:07:09Z</time>
      </trkpt>
      <trkpt lat="45.99855" lon="4.54513">
        <ele>733.962</ele>
        <time>2012-10-10T10:07:14Z</time>
      </trkpt>
      <trkpt lat="45.99851" lon="4.54524">
        <ele>730.76</ele>
        <time>2012-10-10T10:07:20Z</time>
      </trkpt>
      <trkpt lat="45.9985" lon="4.54549">
        <ele>721.18</ele>
        <time>2012-10-10T10:07:30Z</time>
      </trkpt>
      <trkpt lat="45.99847" lon="4.54554">
        <ele>718.551</ele>
        <time>2012-10-10T10:07:38Z</time>
      </trkpt>
      <trkpt lat="45.99847" lon="4.54554">
        <ele>718.266</ele>
        <time>2012-10-10T10:07:41Z</time>
      </trkpt>
      <trkpt lat="45.99834" lon="4.54559">
        <ele>715.071</ele>
        <time>2012-10-10T10:07:49Z</time>
      </trkpt>
      <trkpt lat="45.99831" lon="4.54556">
        <ele>714.24</ele>
        <time>2012-10-10T10:07:51Z</time>
      </trkpt>
      <trkpt lat="45.99828" lon="4.54551">
        <ele>712.508</ele>
        <time>2012-10-10T10:07:56Z</time>
      </trkpt>
      <trkpt lat="45.99847" lon="4.54575">
        <ele>708.459</ele>
        <time>2012-10-10T10:08:04Z</time>
      </trkpt>
      <trkpt lat="45.99855" lon="4.5459">
        <ele>707.352</ele>
        <time>2012-10-10T10:08:09Z</time>
      </trkpt>
      <trkpt lat="45.99874" lon="4.54581">
        <ele>705.106</ele>
        <time>2012-10-10T10:08:17Z</time>
      </trkpt>
      <trkpt lat="45.99897" lon="4.54574">
        <ele>705.06</ele>
        <time>2012-10-10T10:08:26Z</time>
      </trkpt>
      <trkpt lat="45.99907" lon="4.54571">
        <ele>706.512</ele>
        <time>2012-10-10T10:08:36Z</time>
      </trkpt>
      <trkpt lat="45.99916" lon="4.54563">
        <ele>707.935</ele>
        <time>2012-10-10T10:08:48Z</time>
      </trkpt>
      <trkpt lat="45.99895" lon="4.5457">
        <ele>709.776</ele>
        <time>2012-10-10T10:09:02Z</time>
      </trkpt>
      <trkpt lat="45.99876" lon="4.54573">
        <ele>710.972</ele>
        <time>2012-10-10T10:09:13Z</time>
      </trkpt>
      <trkpt lat="45.99863" lon="4.54583">
        <ele>711.506</ele>
        <time>2012-10-10T10:09:21Z</time>
      </trkpt>
      <trkpt lat="45.9985" lon="4.54577">
        <ele>712.245</ele>
        <time>2012-10-10T10:09:26Z</time>
      </trkpt>
      <trkpt lat="45.99824" lon="4.54546">
        <ele>709.203</ele>
        <time>2012-10-10T10:09:38Z</time>
      </trkpt>
      <trkpt lat="45.99804" lon="4.54539">
        <ele>710.466</ele>
        <time>2012-10-10T10:09:48Z</time>
      </trkpt>
      <trkpt lat="45.99779" lon="4.54537">
        <ele>710.617</ele>
        <time>2012-10-10T10:09:59Z</time>
      </trkpt>
      <trkpt lat="45.99768" lon="4.54533">
        <ele>710.381</ele>
        <time>2012-10-10T10:10:04Z</time>
      </trkpt>
      <trkpt lat="45.99744" lon="4.54526">
        <ele>709.739</ele>
        <time>2012-10-10T10:10:15Z</time>
      </trkpt>
      <trkpt lat="45.9972" lon="4.5452">
        <ele>709.993</ele>
        <time>2012-10-10T10:10:26Z</time>
      </trkpt>
      <trkpt lat="45.99695" lon="4.54514">
        <ele>710.427</ele>
        <time>2012-10-10T10:10:37Z</time>
      </trkpt>
      <trkpt lat="45.99676" lon="4.54508">
        <ele>710.206</ele>
        <time>2012-10-10T10:10:42Z</time>
      </trkpt>
      <trkpt lat="45.99673" lon="4.54495">
        <ele>711.014</ele>
        <time>2012-10-10T10:10:47Z</time>
      </trkpt>
      <trkpt lat="45.99693" lon="4.54477">
        <ele>713.24</ele>
        <time>2012-10-10T10:10:57Z</time>
      </trkpt>
      <trkpt lat="45.99709" lon="4.54464">
        <ele>714.98</ele>
        <time>2012-10-10T10:11:06Z</time>
      </trkpt>
      <trkpt lat="45.99734" lon="4.54447">
        <ele>718.509</ele>
        <time>2012-10-10T10:11:15Z</time>
      </trkpt>
      <trkpt lat="45.99766" lon="4.54434">
        <ele>722.962</ele>
        <time>2012-10-10T10:11:25Z</time>
      </trkpt>
      <trkpt lat="45.99781" lon="4.54422">
        <ele>726.39</ele>
        <time>2012-10-10T10:11:30Z</time>
      </trkpt>
      <trkpt lat="45.99778" lon="4.54411">
        <ele>727.39</ele>
        <time>2012-10-10T10:11:35Z</time>
      </trkpt>
      <trkpt lat="45.99755" lon="4.54395">
        <ele>721.036</ele>
        <time>2012-10-10T10:11:45Z</time>
      </trkpt>
      <trkpt lat="45.9974" lon="4.54375">
        <ele>717.117</ele>
        <time>2012-10-10T10:11:54Z</time>
      </trkpt>
      <trkpt lat="45.99719" lon="4.54354">
        <ele>713.641</ele>
        <time>2012-10-10T10:12:03Z</time>
      </trkpt>
      <trkpt lat="45.99692" lon="4.54341">
        <ele>709.057</ele>
        <time>2012-10-10T10:12:12Z</time>
      </trkpt>
      <trkpt lat="45.99666" lon="4.5433">
        <ele>704.553</ele>
        <time>2012-10-10T10:12:20Z</time>
      </trkpt>
      <trkpt lat="45.99652" lon="4.54321">
        <ele>697.435</ele>
        <time>2012-10-10T10:12:27Z</time>
      </trkpt>
      <trkpt lat="45.99644" lon="4.54315">
        <ele>694.112</ele>
        <time>2012-10-10T10:12:31Z</time>
      </trkpt>
      <trkpt lat="45.99641" lon="4.54311">
        <ele>691.472</ele>
        <time>2012-10-10T10:12:34Z</time>
      </trkpt>
      <trkpt lat="45.99656" lon="4.54301">
        <ele>686.666</ele>
        <time>2012-10-10T10:12:43Z</time>
      </trkpt>
      <trkpt lat="45.99675" lon="4.54289">
        <ele>682.173</ele>
        <time>2012-10-10T10:12:52Z</time>
      </trkpt>
      <trkpt lat="45.99683" lon="4.54284">
        <ele>680.83</ele>
        <time>2012-10-10T10:13:00Z</time>
      </trkpt>
      <trkpt lat="45.99684" lon="4.54284">
        <ele>680.752</ele>
        <time>2012-10-10T10:13:11Z</time>
      </trkpt>
      <trkpt lat="45.99701" lon="4.54259">
        <ele>678.499</ele>
        <time>2012-10-10T10:13:21Z</time>
      </trkpt>
      <trkpt lat="45.99718" lon="4.54226">
        <ele>674.548</ele>
        <time>2012-10-10T10:13:32Z</time>
      </trkpt>
      <trkpt lat="45.99726" lon="4.54194">
        <ele>672.461</ele>
        <time>2012-10-10T10:13:39Z</time>
      </trkpt>
      <trkpt lat="45.99729" lon="4.5418">
        <ele>672.428</ele>
        <time>2012-10-10T10:13:42Z</time>
      </trkpt>
      <trkpt lat="45.99736" lon="4.54163">
        <ele>672.926</ele>
        <time>2012-10-10T10:13:49Z</time>
      </trkpt>
      <trkpt lat="45.9974" lon="4.54159">
        <ele>673.367</ele>
        <time>2012-10-10T10:13:52Z</time>
      </trkpt>
      <trkpt lat="45.99749" lon="4.54153">
        <ele>673.78</ele>
        <time>2012-10-10T10:13:56Z</time>
      </trkpt>
      <trkpt lat="45.99778" lon="4.54138">
        <ele>674.319</ele>
        <time>2012-10-10T10:14:06Z</time>
      </trkpt>
      <trkpt lat="45.99796" lon="4.54122">
        <ele>675.134</ele>
        <time>2012-10-10T10:14:16Z</time>
      </trkpt>
      <trkpt lat="45.99791" lon="4.54117">
        <ele>671.633</ele>
        <time>2012-10-10T10:14:38Z</time>
      </trkpt>
      <trkpt lat="45.99788" lon="4.54116">
        <ele>670.405</ele>
        <time>2012-10-10T10:14:44Z</time>
      </trkpt>
      <trkpt lat="45.99771" lon="4.54115">
        <ele>666.378</ele>
        <time>2012-10-10T10:14:52Z</time>
      </trkpt>
      <trkpt lat="45.99755" lon="4.54104">
        <ele>659.687</ele>
        <time>2012-10-10T10:15:03Z</time>
      </trkpt>
      <trkpt lat="45.99734" lon="4.5409">
        <ele>654.953</ele>
        <time>2012-10-10T10:15:11Z</time>
      </trkpt>
      <trkpt lat="45.99707" lon="4.54078">
        <ele>648.816</ele>
        <time>2012-10-10T10:15:22Z</time>
      </trkpt>
      <trkpt lat="45.99697" lon="4.54074">
        <ele>645.272</ele>
        <time>2012-10-10T10:15:31Z</time>
      </trkpt>
      <trkpt lat="45.99676" lon="4.54077">
        <ele>641.878</ele>
        <time>2012-10-10T10:15:42Z</time>
      </trkpt>
      <trkpt lat="45.99664" lon="4.54083">
        <ele>639.134</ele>
        <time>2012-10-10T10:15:52Z</time>
      </trkpt>
      <trkpt lat="45.99632" lon="4.54077">
        <ele>634.247</ele>
        <time>2012-10-10T10:16:06Z</time>
      </trkpt>
      <trkpt lat="45.99628" lon="4.54074">
        <ele>633.148</ele>
        <time>2012-10-10T10:16:08Z</time>
      </trkpt>
      <trkpt lat="45.99609" lon="4.54079">
        <ele>626.482</ele>
        <time>2012-10-10T10:16:22Z</time>
      </trkpt>
      <trkpt lat="45.99598" lon="4.54092">
        <ele>620.304</ele>
        <time>2012-10-10T10:16:35Z</time>
      </trkpt>
      <trkpt lat="45.99584" lon="4.54111">
        <ele>611.218</ele>
        <time>2012-10-10T10:16:49Z</time>
      </trkpt>
      <trkpt lat="45.99571" lon="4.54101">
        <ele>604.752</ele>
        <time>2012-10-10T10:17:03Z</time>
      </trkpt>
      <trkpt lat="45.99562" lon="4.54071">
        <ele>601.359</ele>
        <time>2012-10-10T10:17:21Z</time>
      </trkpt>
      <trkpt lat="45.99547" lon="4.54034">
        <ele>600.026</ele>
        <time>2012-10-10T10:17:34Z</time>
      </trkpt>
      <trkpt lat="45.99545" lon="4.54019">
        <ele>599.267</ele>
        <time>2012-10-10T10:17:42Z</time>
      </trkpt>
      <trkpt lat="45.99544" lon="4.54015">
        <ele>599.569</ele>
        <time>2012-10-10T10:17:44Z</time>
      </trkpt>
      <trkpt lat="45.99544" lon="4.54009">
        <ele>599.553</ele>
        <time>2012-10-10T10:17:47Z</time>
      </trkpt>
      <trkpt lat="45.99535" lon="4.53983">
        <ele>602.461</ele>
        <time>2012-10-10T10:17:58Z</time>
      </trkpt>
      <trkpt lat="45.99533" lon="4.53979">
        <ele>602.978</ele>
        <time>2012-10-10T10:18:00Z</time>
      </trkpt>
      <trkpt lat="45.99521" lon="4.53957">
        <ele>607.084</ele>
        <time>2012-10-10T10:18:12Z</time>
      </trkpt>
      <trkpt lat="45.99504" lon="4.53943">
        <ele>610.136</ele>
        <time>2012-10-10T10:18:21Z</time>
      </trkpt>
      <trkpt lat="45.99487" lon="4.53959">
        <ele>611.792</ele>
        <time>2012-10-10T10:18:27Z</time>
      </trkpt>
      <trkpt lat="45.99454" lon="4.53993">
        <ele>613.825</ele>
        <time>2012-10-10T10:18:34Z</time>
      </trkpt>
      <trkpt lat="45.99434" lon="4.5402">
        <ele>616.096</ele>
        <time>2012-10-10T10:18:43Z</time>
      </trkpt>
      <trkpt lat="45.99417" lon="4.54043">
        <ele>616.708</ele>
        <time>2012-10-10T10:18:50Z</time>
      </trkpt>
      <trkpt lat="45.99411" lon="4.54051">
        <ele>616.685</ele>
        <time>2012-10-10T10:18:55Z</time>
      </trkpt>
      <trkpt lat="45.99384" lon="4.5408">
        <ele>616.464</ele>
        <time>2012-10-10T10:19:05Z</time>
      </trkpt>
      <trkpt lat="45.9934" lon="4.54085">
        <ele>613.721</ele>
        <time>2012-10-10T10:19:13Z</time>
      </trkpt>
      <trkpt lat="45.99302" lon="4.54054">
        <ele>609.109</ele>
        <time>2012-10-10T10:19:20Z</time>
      </trkpt>
      <trkpt lat="45.99269" lon="4.5404">
        <ele>601.106</ele>
        <time>2012-10-10T10:19:29Z</time>
      </trkpt>
      <trkpt lat="45.99231" lon="4.5402">
        <ele>595.038</ele>
        <time>2012-10-10T10:19:40Z</time>
      </trkpt>
      <trkpt lat="45.99201" lon="4.54">
        <ele>594.241</ele>
        <time>2012-10-10T10:19:49Z</time>
      </trkpt>
      <trkpt lat="45.99165" lon="4.53974">
        <ele>594.264</ele>
        <time>2012-10-10T10:19:59Z</time>
      </trkpt>
      <trkpt lat="45.99159" lon="4.5397">
        <ele>595.04</ele>
        <time>2012-10-10T10:20:01Z</time>
      </trkpt>
      <trkpt lat="45.99149" lon="4.53963">
        <ele>594.847</ele>
        <time>2012-10-10T10:20:03Z</time>
      </trkpt>
      <trkpt lat="45.99129" lon="4.53949">
        <ele>595.005</ele>
        <time>2012-10-10T10:20:07Z</time>
      </trkpt>
      <trkpt lat="45.99102" lon="4.53929">
        <ele>590.35</ele>
        <time>2012-10-10T10:20:11Z</time>
      </trkpt>
      <trkpt lat="45.99076" lon="4.5391">
        <ele>582.729</ele>
        <time>2012-10-10T10:20:17Z</time>
      </trkpt>
      <trkpt lat="45.99044" lon="4.53911">
        <ele>576.191</ele>
        <time>2012-10-10T10:20:25Z</time>
      </trkpt>
      <trkpt lat="45.99027" lon="4.53922">
        <ele>570.5</ele>
        <time>2012-10-10T10:20:34Z</time>
      </trkpt>
      <trkpt lat="45.99026" lon="4.53928">
        <ele>570.227</ele>
        <time>2012-10-10T10:20:37Z</time>
      </trkpt>
      <trkpt lat="45.9902" lon="4.53961">
        <ele>566.616</ele>
        <time>2012-10-10T10:20:45Z</time>
      </trkpt>
      <trkpt lat="45.99017" lon="4.53974">
        <ele>565.563</ele>
        <time>2012-10-10T10:20:47Z</time>
      </trkpt>
      <trkpt lat="45.98992" lon="4.54014">
        <ele>560.136</ele>
        <time>2012-10-10T10:20:54Z</time>
      </trkpt>
      <trkpt lat="45.9897" lon="4.54037">
        <ele>557.042</ele>
        <time>2012-10-10T10:20:59Z</time>
      </trkpt>
      <trkpt lat="45.98949" lon="4.54024">
        <ele>560.429</ele>
        <time>2012-10-10T10:21:09Z</time>
      </trkpt>
      <trkpt lat="45.98929" lon="4.54009">
        <ele>563.136</ele>
        <time>2012-10-10T10:21:19Z</time>
      </trkpt>
      <trkpt lat="45.98903" lon="4.53995">
        <ele>568.165</ele>
        <time>2012-10-10T10:21:30Z</time>
      </trkpt>
      <trkpt lat="45.98869" lon="4.53984">
        <ele>571.932</ele>
        <time>2012-10-10T10:21:42Z</time>
      </trkpt>
      <trkpt lat="45.98844" lon="4.53988">
        <ele>569.969</ele>
        <time>2012-10-10T10:21:51Z</time>
      </trkpt>
      <trkpt lat="45.98821" lon="4.53999">
        <ele>567.426</ele>
        <time>2012-10-10T10:22:03Z</time>
      </trkpt>
      <trkpt lat="45.98806" lon="4.54009">
        <ele>564.221</ele>
        <time>2012-10-10T10:22:15Z</time>
      </trkpt>
      <trkpt lat="45.98794" lon="4.54016">
        <ele>561.407</ele>
        <time>2012-10-10T10:22:25Z</time>
      </trkpt>
      <trkpt lat="45.98786" lon="4.54021">
        <ele>561.212</ele>
        <time>2012-10-10T10:22:26Z</time>
      </trkpt>
      <trkpt lat="45.98782" lon="4.54024">
        <ele>560.256</ele>
        <time>2012-10-10T10:22:29Z</time>
      </trkpt>
      <trkpt lat="45.98766" lon="4.5403">
        <ele>559.312</ele>
        <time>2012-10-10T10:22:40Z</time>
      </trkpt>
      <trkpt lat="45.98745" lon="4.54026">
        <ele>560.968</ele>
        <time>2012-10-10T10:22:52Z</time>
      </trkpt>
      <trkpt lat="45.98737" lon="4.54022">
        <ele>562.483</ele>
        <time>2012-10-10T10:22:56Z</time>
      </trkpt>
      <trkpt lat="45.98728" lon="4.54018">
        <ele>565.654</ele>
        <time>2012-10-10T10:23:02Z</time>
      </trkpt>
      <trkpt lat="45.98696" lon="4.54003">
        <ele>569.421</ele>
        <time>2012-10-10T10:23:13Z</time>
      </trkpt>
      <trkpt lat="45.98661" lon="4.53997">
        <ele>565.788</ele>
        <time>2012-10-10T10:23:23Z</time>
      </trkpt>
      <trkpt lat="45.9863" lon="4.53994">
        <ele>560.249</ele>
        <time>2012-10-10T10:23:34Z</time>
      </trkpt>
      <trkpt lat="45.98623" lon="4.53993">
        <ele>557.631</ele>
        <time>2012-10-10T10:23:39Z</time>
      </trkpt>
      <trkpt lat="45.98623" lon="4.53993">
        <ele>554.987</ele>
        <time>2012-10-10T10:23:50Z</time>
      </trkpt>
      <trkpt lat="45.98631" lon="4.53995">
        <ele>555.758</ele>
        <time>2012-10-10T10:24:25Z</time>
      </trkpt>
      <trkpt lat="45.98631" lon="4.53995">
        <ele>557.279</ele>
        <time>2012-10-10T10:24:43Z</time>
      </trkpt>
      <trkpt lat="45.98667" lon="4.54027">
        <ele>558.647</ele>
        <time>2012-10-10T10:24:54Z</time>
      </trkpt>
      <trkpt lat="45.98675" lon="4.54032">
        <ele>561.104</ele>
        <time>2012-10-10T10:25:02Z</time>
      </trkpt>
      <trkpt lat="45.98691" lon="4.54043">
        <ele>570.28</ele>
        <time>2012-10-10T10:25:13Z</time>
      </trkpt>
      <trkpt lat="45.98702" lon="4.54051">
        <ele>580.532</ele>
        <time>2012-10-10T10:25:24Z</time>
      </trkpt>
      <trkpt lat="45.98709" lon="4.54056">
        <ele>585.932</ele>
        <time>2012-10-10T10:25:26Z</time>
      </trkpt>
      <trkpt lat="45.98715" lon="4.54061">
        <ele>594.054</ele>
        <time>2012-10-10T10:25:31Z</time>
      </trkpt>
      <trkpt lat="45.98724" lon="4.54069">
        <ele>604.53</ele>
        <time>2012-10-10T10:25:42Z</time>
      </trkpt>
      <trkpt lat="45.98734" lon="4.5408">
        <ele>608.053</ele>
        <time>2012-10-10T10:25:52Z</time>
      </trkpt>
      <trkpt lat="45.98737" lon="4.54082">
        <ele>612.165</ele>
        <time>2012-10-10T10:26:02Z</time>
      </trkpt>
      <trkpt lat="45.98737" lon="4.54082">
        <ele>613.432</ele>
        <time>2012-10-10T10:26:16Z</time>
      </trkpt>
      <trkpt lat="45.98737" lon="4.54082">
        <ele>614.416</ele>
        <time>2012-10-10T10:26:31Z</time>
      </trkpt>
      <trkpt lat="45.98737" lon="4.54082">
        <ele>616.942</ele>
        <time>2012-10-10T10:26:45Z</time>
      </trkpt>
      <trkpt lat="45.98737" lon="4.54082">
        <ele>619.188</ele>
        <time>2012-10-10T10:26:56Z</time>
      </trkpt>
      <trkpt lat="45.98777" lon="4.54117">
        <ele>624.165</ele>
        <time>2012-10-10T10:27:08Z</time>
      </trkpt>
      <trkpt lat="45.98777" lon="4.54117">
        <ele>627.53</ele>
        <time>2012-10-10T10:27:21Z</time>
      </trkpt>
      <trkpt lat="45.98805" lon="4.54128">
        <ele>631.017</ele>
        <time>2012-10-10T10:27:32Z</time>
      </trkpt>
      <trkpt lat="45.98805" lon="4.54128">
        <ele>631.365</ele>
        <time>2012-10-10T10:27:34Z</time>
      </trkpt>
      <trkpt lat="45.98815" lon="4.54128">
        <ele>631.712</ele>
        <time>2012-10-10T10:27:44Z</time>
      </trkpt>
      <trkpt lat="45.98841" lon="4.5413">
        <ele>629.255</ele>
        <time>2012-10-10T10:27:57Z</time>
      </trkpt>
      <trkpt lat="45.98868" lon="4.54136">
        <ele>626.61</ele>
        <time>2012-10-10T10:28:10Z</time>
      </trkpt>
      <trkpt lat="45.98889" lon="4.54151">
        <ele>622.506</ele>
        <time>2012-10-10T10:28:22Z</time>
      </trkpt>
      <trkpt lat="45.98904" lon="4.54171">
        <ele>624.293</ele>
        <time>2012-10-10T10:28:35Z</time>
      </trkpt>
      <trkpt lat="45.98906" lon="4.54175">
        <ele>624.175</ele>
        <time>2012-10-10T10:28:38Z</time>
      </trkpt>
      <trkpt lat="45.98916" lon="4.54192">
        <ele>630.731</ele>
        <time>2012-10-10T10:28:51Z</time>
      </trkpt>
      <trkpt lat="45.98925" lon="4.54211">
        <ele>633.424</ele>
        <time>2012-10-10T10:29:00Z</time>
      </trkpt>
      <trkpt lat="45.98927" lon="4.54215">
        <ele>634.483</ele>
        <time>2012-10-10T10:29:04Z</time>
      </trkpt>
      <trkpt lat="45.9893" lon="4.54227">
        <ele>635.37</ele>
        <time>2012-10-10T10:29:09Z</time>
      </trkpt>
      <trkpt lat="45.98937" lon="4.5424">
        <ele>636.287</ele>
        <time>2012-10-10T10:29:17Z</time>
      </trkpt>
      <trkpt lat="45.98945" lon="4.54251">
        <ele>638.809</ele>
        <time>2012-10-10T10:29:24Z</time>
      </trkpt>
      <trkpt lat="45.98958" lon="4.54261">
        <ele>642.819</ele>
        <time>2012-10-10T10:29:34Z</time>
      </trkpt>
      <trkpt lat="45.9896" lon="4.54261">
        <ele>647.01</ele>
        <time>2012-10-10T10:29:43Z</time>
      </trkpt>
      <trkpt lat="45.9896" lon="4.54261">
        <ele>647.636</ele>
        <time>2012-10-10T10:29:45Z</time>
      </trkpt>
      <trkpt lat="45.98968" lon="4.54261">
        <ele>652.55</ele>
        <time>2012-10-10T10:29:56Z</time>
      </trkpt>
      <trkpt lat="45.98968" lon="4.54261">
        <ele>655.377</ele>
        <time>2012-10-10T10:30:06Z</time>
      </trkpt>
      <trkpt lat="45.98983" lon="4.54261">
        <ele>655.726</ele>
        <time>2012-10-10T10:30:17Z</time>
      </trkpt>
      <trkpt lat="45.98983" lon="4.54261">
        <ele>655.178</ele>
        <time>2012-10-10T10:30:36Z</time>
      </trkpt>
      <trkpt lat="45.98983" lon="4.54261">
        <ele>655.952</ele>
        <time>2012-10-10T10:30:43Z</time>
      </trkpt>
      <trkpt lat="45.98983" lon="4.54261">
        <ele>659.494</ele>
        <time>2012-10-10T10:30:55Z</time>
      </trkpt>
      <trkpt lat="45.98983" lon="4.54261">
        <ele>664.154</ele>
        <time>2012-10-10T10:31:06Z</time>
      </trkpt>
      <trkpt lat="45.99014" lon="4.54264">
        <ele>667.123</ele>
        <time>2012-10-10T10:31:18Z</time>
      </trkpt>
      <trkpt lat="45.99014" lon="4.54264">
        <ele>667.688</ele>
        <time>2012-10-10T10:31:30Z</time>
      </trkpt>
      <trkpt lat="45.99032" lon="4.5427">
        <ele>666.259</ele>
        <time>2012-10-10T10:31:37Z</time>
      </trkpt>
      <trkpt lat="45.99032" lon="4.5427">
        <ele>663.795</ele>
        <time>2012-10-10T10:31:50Z</time>
      </trkpt>
      <trkpt lat="45.99033" lon="4.54295">
        <ele>663.028</ele>
        <time>2012-10-10T10:32:02Z</time>
      </trkpt>
      <trkpt lat="45.99028" lon="4.54313">
        <ele>664.079</ele>
        <time>2012-10-10T10:32:13Z</time>
      </trkpt>
      <trkpt lat="45.99022" lon="4.54333">
        <ele>667.475</ele>
        <time>2012-10-10T10:32:25Z</time>
      </trkpt>
      <trkpt lat="45.99022" lon="4.54333">
        <ele>667.311</ele>
        <time>2012-10-10T10:32:36Z</time>
      </trkpt>
      <trkpt lat="45.99022" lon="4.54333">
        <ele>667.288</ele>
        <time>2012-10-10T10:32:37Z</time>
      </trkpt>
      <trkpt lat="45.99019" lon="4.54353">
        <ele>669.248</ele>
        <time>2012-10-10T10:32:45Z</time>
      </trkpt>
      <trkpt lat="45.98999" lon="4.54405">
        <ele>668.913</ele>
        <time>2012-10-10T10:32:58Z</time>
      </trkpt>
      <trkpt lat="45.98969" lon="4.54448">
        <ele>666.501</ele>
        <time>2012-10-10T10:33:07Z</time>
      </trkpt>
      <trkpt lat="45.98964" lon="4.54453">
        <ele>665.765</ele>
        <time>2012-10-10T10:33:08Z</time>
      </trkpt>
      <trkpt lat="45.98909" lon="4.54494">
        <ele>662.772</ele>
        <time>2012-10-10T10:33:18Z</time>
      </trkpt>
      <trkpt lat="45.98889" lon="4.54509">
        <ele>661.518</ele>
        <time>2012-10-10T10:33:22Z</time>
      </trkpt>
      <trkpt lat="45.98834" lon="4.54538">
        <ele>659.409</ele>
        <time>2012-10-10T10:33:29Z</time>
      </trkpt>
      <trkpt lat="45.98811" lon="4.54543">
        <ele>659.44</ele>
        <time>2012-10-10T10:33:31Z</time>
      </trkpt>
      <trkpt lat="45.98794" lon="4.54552">
        <ele>659.109</ele>
        <time>2012-10-10T10:33:33Z</time>
      </trkpt>
      <trkpt lat="45.98773" lon="4.54564">
        <ele>658.307</ele>
        <time>2012-10-10T10:33:36Z</time>
      </trkpt>
      <trkpt lat="45.98724" lon="4.54583">
        <ele>655.688</ele>
        <time>2012-10-10T10:33:43Z</time>
      </trkpt>
      <trkpt lat="45.98702" lon="4.54585">
        <ele>654.506</ele>
        <time>2012-10-10T10:33:45Z</time>
      </trkpt>
      <trkpt lat="45.98688" lon="4.5459">
        <ele>653.874</ele>
        <time>2012-10-10T10:33:47Z</time>
      </trkpt>
      <trkpt lat="45.9867" lon="4.54598">
        <ele>652.743</ele>
        <time>2012-10-10T10:33:51Z</time>
      </trkpt>
      <trkpt lat="45.98599" lon="4.54684">
        <ele>646.97</ele>
        <time>2012-10-10T10:34:01Z</time>
      </trkpt>
      <trkpt lat="45.98574" lon="4.54718">
        <ele>644.078</ele>
        <time>2012-10-10T10:34:05Z</time>
      </trkpt>
      <trkpt lat="45.98554" lon="4.54735">
        <ele>636.913</ele>
        <time>2012-10-10T10:34:08Z</time>
      </trkpt>
      <trkpt lat="45.98524" lon="4.5475">
        <ele>631.247</ele>
        <time>2012-10-10T10:34:12Z</time>
      </trkpt>
      <trkpt lat="45.98493" lon="4.54753">
        <ele>624.085</ele>
        <time>2012-10-10T10:34:16Z</time>
      </trkpt>
      <trkpt lat="45.98459" lon="4.54727">
        <ele>616.902</ele>
        <time>2012-10-10T10:34:21Z</time>
      </trkpt>
      <trkpt lat="45.98435" lon="4.54693">
        <ele>610.033</ele>
        <time>2012-10-10T10:34:28Z</time>
      </trkpt>
      <trkpt lat="45.98434" lon="4.54691">
        <ele>604.921</ele>
        <time>2012-10-10T10:34:36Z</time>
      </trkpt>
      <trkpt lat="45.98434" lon="4.54691">
        <ele>603.062</ele>
        <time>2012-10-10T10:34:46Z</time>
      </trkpt>
      <trkpt lat="45.98434" lon="4.54691">
        <ele>604.213</ele>
        <time>2012-10-10T10:41:20Z</time>
      </trkpt>
      <trkpt lat="45.98434" lon="4.54691">
        <ele>604.191</ele>
        <time>2012-10-10T10:41:22Z</time>
      </trkpt>
      <trkpt lat="45.98406" lon="4.54661">
        <ele>602.263</ele>
        <time>2012-10-10T10:41:31Z</time>
      </trkpt>
      <trkpt lat="45.98393" lon="4.54637">
        <ele>601.524</ele>
        <time>2012-10-10T10:41:37Z</time>
      </trkpt>
      <trkpt lat="45.98392" lon="4.54635">
        <ele>601.626</ele>
        <time>2012-10-10T10:41:41Z</time>
      </trkpt>
      <trkpt lat="45.98411" lon="4.54668">
        <ele>601.843</ele>
        <time>2012-10-10T10:41:49Z</time>
      </trkpt>
      <trkpt lat="45.98426" lon="4.54682">
        <ele>601.408</ele>
        <time>2012-10-10T10:41:52Z</time>
      </trkpt>
      <trkpt lat="45.98444" lon="4.5471">
        <ele>600.51</ele>
        <time>2012-10-10T10:41:56Z</time>
      </trkpt>
      <trkpt lat="45.98463" lon="4.54733">
        <ele>601.758</ele>
        <time>2012-10-10T10:42:00Z</time>
      </trkpt>
      <trkpt lat="45.98469" lon="4.54739">
        <ele>601.409</ele>
        <time>2012-10-10T10:42:02Z</time>
      </trkpt>
      <trkpt lat="45.98497" lon="4.54755">
        <ele>601.873</ele>
        <time>2012-10-10T10:42:10Z</time>
      </trkpt>
      <trkpt lat="45.98526" lon="4.54783">
        <ele>600.32</ele>
        <time>2012-10-10T10:42:16Z</time>
      </trkpt>
      <trkpt lat="45.98541" lon="4.54787">
        <ele>600.022</ele>
        <time>2012-10-10T10:42:19Z</time>
      </trkpt>
      <trkpt lat="45.98571" lon="4.54789">
        <ele>594.876</ele>
        <time>2012-10-10T10:42:23Z</time>
      </trkpt>
      <trkpt lat="45.98611" lon="4.54772">
        <ele>589.753</ele>
        <time>2012-10-10T10:42:31Z</time>
      </trkpt>
      <trkpt lat="45.98657" lon="4.54756">
        <ele>587.659</ele>
        <time>2012-10-10T10:42:39Z</time>
      </trkpt>
      <trkpt lat="45.98669" lon="4.54749">
        <ele>585.767</ele>
        <time>2012-10-10T10:42:43Z</time>
      </trkpt>
      <trkpt lat="45.98676" lon="4.54743">
        <ele>583.495</ele>
        <time>2012-10-10T10:42:47Z</time>
      </trkpt>
      <trkpt lat="45.98697" lon="4.54788">
        <ele>583.664</ele>
        <time>2012-10-10T10:42:55Z</time>
      </trkpt>
      <trkpt lat="45.98698" lon="4.548">
        <ele>581.651</ele>
        <time>2012-10-10T10:42:57Z</time>
      </trkpt>
      <trkpt lat="45.98719" lon="4.54832">
        <ele>577.144</ele>
        <time>2012-10-10T10:43:03Z</time>
      </trkpt>
      <trkpt lat="45.98726" lon="4.54869">
        <ele>574.191</ele>
        <time>2012-10-10T10:43:08Z</time>
      </trkpt>
      <trkpt lat="45.98741" lon="4.54918">
        <ele>569.525</ele>
        <time>2012-10-10T10:43:16Z</time>
      </trkpt>
      <trkpt lat="45.98746" lon="4.54939">
        <ele>566.376</ele>
        <time>2012-10-10T10:43:20Z</time>
      </trkpt>
      <trkpt lat="45.98766" lon="4.54945">
        <ele>567.073</ele>
        <time>2012-10-10T10:43:25Z</time>
      </trkpt>
      <trkpt lat="45.98764" lon="4.54945">
        <ele>567.517</ele>
        <time>2012-10-10T10:43:27Z</time>
      </trkpt>
      <trkpt lat="45.98746" lon="4.54943">
        <ele>567.505</ele>
        <time>2012-10-10T10:43:34Z</time>
      </trkpt>
      <trkpt lat="45.98739" lon="4.54952">
        <ele>564.088</ele>
        <time>2012-10-10T10:43:39Z</time>
      </trkpt>
      <trkpt lat="45.98742" lon="4.54961">
        <ele>562.699</ele>
        <time>2012-10-10T10:43:41Z</time>
      </trkpt>
      <trkpt lat="45.98753" lon="4.54982">
        <ele>558.643</ele>
        <time>2012-10-10T10:43:46Z</time>
      </trkpt>
      <trkpt lat="45.98776" lon="4.54991">
        <ele>551.523</ele>
        <time>2012-10-10T10:43:53Z</time>
      </trkpt>
      <trkpt lat="45.98806" lon="4.54984">
        <ele>539.377</ele>
        <time>2012-10-10T10:44:02Z</time>
      </trkpt>
      <trkpt lat="45.98838" lon="4.54986">
        <ele>533.393</ele>
        <time>2012-10-10T10:44:11Z</time>
      </trkpt>
      <trkpt lat="45.98844" lon="4.54985">
        <ele>531.739</ele>
        <time>2012-10-10T10:44:13Z</time>
      </trkpt>
      <trkpt lat="45.98881" lon="4.55001">
        <ele>536.234</ele>
        <time>2012-10-10T10:44:19Z</time>
      </trkpt>
      <trkpt lat="45.98913" lon="4.54997">
        <ele>527.811</ele>
        <time>2012-10-10T10:44:29Z</time>
      </trkpt>
      <trkpt lat="45.98913" lon="4.54997">
        <ele>526.693</ele>
        <time>2012-10-10T10:44:30Z</time>
      </trkpt>
      <trkpt lat="45.98918" lon="4.54995">
        <ele>527.798</ele>
        <time>2012-10-10T10:44:35Z</time>
      </trkpt>
      <trkpt lat="45.98906" lon="4.55045">
        <ele>525.003</ele>
        <time>2012-10-10T10:44:45Z</time>
      </trkpt>
      <trkpt lat="45.98887" lon="4.55059">
        <ele>525.448</ele>
        <time>2012-10-10T10:44:51Z</time>
      </trkpt>
      <trkpt lat="45.98862" lon="4.55068">
        <ele>528.791</ele>
        <time>2012-10-10T10:44:56Z</time>
      </trkpt>
      <trkpt lat="45.98839" lon="4.55075">
        <ele>531.468</ele>
        <time>2012-10-10T10:45:01Z</time>
      </trkpt>
      <trkpt lat="45.98829" lon="4.5508">
        <ele>532.034</ele>
        <time>2012-10-10T10:45:03Z</time>
      </trkpt>
      <trkpt lat="45.9878" lon="4.5511">
        <ele>528.219</ele>
        <time>2012-10-10T10:45:10Z</time>
      </trkpt>
      <trkpt lat="45.98774" lon="4.55113">
        <ele>528.176</ele>
        <time>2012-10-10T10:45:11Z</time>
      </trkpt>
      <trkpt lat="45.98759" lon="4.55122">
        <ele>529.771</ele>
        <time>2012-10-10T10:45:14Z</time>
      </trkpt>
      <trkpt lat="45.98747" lon="4.55129">
        <ele>531.376</ele>
        <time>2012-10-10T10:45:17Z</time>
      </trkpt>
      <trkpt lat="45.98718" lon="4.55148">
        <ele>530.34</ele>
        <time>2012-10-10T10:45:23Z</time>
      </trkpt>
      <trkpt lat="45.98706" lon="4.55156">
        <ele>530.429</ele>
        <time>2012-10-10T10:45:27Z</time>
      </trkpt>
      <trkpt lat="45.98688" lon="4.55174">
        <ele>537.414</ele>
        <time>2012-10-10T10:45:33Z</time>
      </trkpt>
      <trkpt lat="45.98675" lon="4.55182">
        <ele>538.32</ele>
        <time>2012-10-10T10:45:36Z</time>
      </trkpt>
      <trkpt lat="45.98634" lon="4.55209">
        <ele>542.878</ele>
        <time>2012-10-10T10:45:42Z</time>
      </trkpt>
      <trkpt lat="45.98586" lon="4.55208">
        <ele>544.374</ele>
        <time>2012-10-10T10:45:48Z</time>
      </trkpt>
      <trkpt lat="45.98577" lon="4.55202">
        <ele>544.571</ele>
        <time>2012-10-10T10:45:49Z</time>
      </trkpt>
      <trkpt lat="45.98529" lon="4.55175">
        <ele>533.615</ele>
        <time>2012-10-10T10:45:53Z</time>
      </trkpt>
      <trkpt lat="45.98512" lon="4.55154">
        <ele>530.872</ele>
        <time>2012-10-10T10:45:56Z</time>
      </trkpt>
      <trkpt lat="45.9848" lon="4.55142">
        <ele>528.192</ele>
        <time>2012-10-10T10:46:00Z</time>
      </trkpt>
      <trkpt lat="45.98447" lon="4.55135">
        <ele>513.424</ele>
        <time>2012-10-10T10:46:07Z</time>
      </trkpt>
      <trkpt lat="45.98427" lon="4.55132">
        <ele>509.149</ele>
        <time>2012-10-10T10:46:11Z</time>
      </trkpt>
      <trkpt lat="45.98372" lon="4.55147">
        <ele>499.615</ele>
        <time>2012-10-10T10:46:20Z</time>
      </trkpt>
      <trkpt lat="45.98337" lon="4.55166">
        <ele>494.198</ele>
        <time>2012-10-10T10:46:28Z</time>
      </trkpt>
      <trkpt lat="45.98331" lon="4.55173">
        <ele>493.845</ele>
        <time>2012-10-10T10:46:30Z</time>
      </trkpt>
      <trkpt lat="45.98313" lon="4.55187">
        <ele>492.263</ele>
        <time>2012-10-10T10:46:34Z</time>
      </trkpt>
      <trkpt lat="45.98289" lon="4.55203">
        <ele>489.779</ele>
        <time>2012-10-10T10:46:39Z</time>
      </trkpt>
      <trkpt lat="45.98261" lon="4.55224">
        <ele>487.156</ele>
        <time>2012-10-10T10:46:47Z</time>
      </trkpt>
      <trkpt lat="45.98234" lon="4.55246">
        <ele>486.241</ele>
        <time>2012-10-10T10:46:53Z</time>
      </trkpt>
      <trkpt lat="45.98215" lon="4.55264">
        <ele>485.188</ele>
        <time>2012-10-10T10:46:56Z</time>
      </trkpt>
      <trkpt lat="45.98217" lon="4.55301">
        <ele>484.925</ele>
        <time>2012-10-10T10:46:58Z</time>
      </trkpt>
      <trkpt lat="45.98201" lon="4.5532">
        <ele>483.491</ele>
        <time>2012-10-10T10:47:02Z</time>
      </trkpt>
      <trkpt lat="45.98172" lon="4.5535">
        <ele>486.537</ele>
        <time>2012-10-10T10:47:08Z</time>
      </trkpt>
      <trkpt lat="45.98143" lon="4.55379">
        <ele>485.778</ele>
        <time>2012-10-10T10:47:12Z</time>
      </trkpt>
      <trkpt lat="45.98109" lon="4.554">
        <ele>484.568</ele>
        <time>2012-10-10T10:47:21Z</time>
      </trkpt>
      <trkpt lat="45.98083" lon="4.55407">
        <ele>484.368</ele>
        <time>2012-10-10T10:47:30Z</time>
      </trkpt>
      <trkpt lat="45.98078" lon="4.55407">
        <ele>484.43</ele>
        <time>2012-10-10T10:47:31Z</time>
      </trkpt>
      <trkpt lat="45.9806" lon="4.55407">
        <ele>487.09</ele>
        <time>2012-10-10T10:47:34Z</time>
      </trkpt>
      <trkpt lat="45.98033" lon="4.55405">
        <ele>487.772</ele>
        <time>2012-10-10T10:47:38Z</time>
      </trkpt>
      <trkpt lat="45.98003" lon="4.55413">
        <ele>489.076</ele>
        <time>2012-10-10T10:47:42Z</time>
      </trkpt>
      <trkpt lat="45.97971" lon="4.5544">
        <ele>489.7</ele>
        <time>2012-10-10T10:47:49Z</time>
      </trkpt>
      <trkpt lat="45.97965" lon="4.55445">
        <ele>489.926</ele>
        <time>2012-10-10T10:47:50Z</time>
      </trkpt>
      <trkpt lat="45.97929" lon="4.55458">
        <ele>489.6</ele>
        <time>2012-10-10T10:47:58Z</time>
      </trkpt>
      <trkpt lat="45.97926" lon="4.55459">
        <ele>489.65</ele>
        <time>2012-10-10T10:47:59Z</time>
      </trkpt>
      <trkpt lat="45.9788" lon="4.55467">
        <ele>489.794</ele>
        <time>2012-10-10T10:48:09Z</time>
      </trkpt>
      <trkpt lat="45.97855" lon="4.55462">
        <ele>489.233</ele>
        <time>2012-10-10T10:48:18Z</time>
      </trkpt>
      <trkpt lat="45.9785" lon="4.55459">
        <ele>489.013</ele>
        <time>2012-10-10T10:48:19Z</time>
      </trkpt>
      <trkpt lat="45.97823" lon="4.55444">
        <ele>487.647</ele>
        <time>2012-10-10T10:48:24Z</time>
      </trkpt>
      <trkpt lat="45.97811" lon="4.55434">
        <ele>486.286</ele>
        <time>2012-10-10T10:48:27Z</time>
      </trkpt>
      <trkpt lat="45.97797" lon="4.55423">
        <ele>482.356</ele>
        <time>2012-10-10T10:48:35Z</time>
      </trkpt>
      <trkpt lat="45.97784" lon="4.55409">
        <ele>477.128</ele>
        <time>2012-10-10T10:48:42Z</time>
      </trkpt>
      <trkpt lat="45.97767" lon="4.55391">
        <ele>473.094</ele>
        <time>2012-10-10T10:48:51Z</time>
      </trkpt>
      <trkpt lat="45.97735" lon="4.55374">
        <ele>470.38</ele>
        <time>2012-10-10T10:48:56Z</time>
      </trkpt>
      <trkpt lat="45.97693" lon="4.55377">
        <ele>467.325</ele>
        <time>2012-10-10T10:49:01Z</time>
      </trkpt>
      <trkpt lat="45.97668" lon="4.55384">
        <ele>465.845</ele>
        <time>2012-10-10T10:49:06Z</time>
      </trkpt>
      <trkpt lat="45.9763" lon="4.55406">
        <ele>463.176</ele>
        <time>2012-10-10T10:49:12Z</time>
      </trkpt>
      <trkpt lat="45.976" lon="4.55432">
        <ele>463.227</ele>
        <time>2012-10-10T10:49:16Z</time>
      </trkpt>
      <trkpt lat="45.97577" lon="4.55453">
        <ele>461.625</ele>
        <time>2012-10-10T10:49:20Z</time>
      </trkpt>
      <trkpt lat="45.97554" lon="4.5547">
        <ele>459.551</ele>
        <time>2012-10-10T10:49:24Z</time>
      </trkpt>
      <trkpt lat="45.97527" lon="4.5548">
        <ele>455.472</ele>
        <time>2012-10-10T10:49:28Z</time>
      </trkpt>
      <trkpt lat="45.97492" lon="4.55456">
        <ele>449.779</ele>
        <time>2012-10-10T10:49:34Z</time>
      </trkpt>
      <trkpt lat="45.97473" lon="4.55433">
        <ele>446.308</ele>
        <time>2012-10-10T10:49:40Z</time>
      </trkpt>
      <trkpt lat="45.9745" lon="4.55395">
        <ele>440.732</ele>
        <time>2012-10-10T10:49:47Z</time>
      </trkpt>
      <trkpt lat="45.97433" lon="4.55372">
        <ele>435.514</ele>
        <time>2012-10-10T10:49:52Z</time>
      </trkpt>
      <trkpt lat="45.97418" lon="4.5531">
        <ele>428.691</ele>
        <time>2012-10-10T10:50:02Z</time>
      </trkpt>
      <trkpt lat="45.97403" lon="4.55286">
        <ele>427.743</ele>
        <time>2012-10-10T10:50:06Z</time>
      </trkpt>
      <trkpt lat="45.97365" lon="4.5525">
        <ele>429.765</ele>
        <time>2012-10-10T10:50:13Z</time>
      </trkpt>
      <trkpt lat="45.97358" lon="4.55244">
        <ele>429.995</ele>
        <time>2012-10-10T10:50:14Z</time>
      </trkpt>
      <trkpt lat="45.97317" lon="4.55204">
        <ele>432.509</ele>
        <time>2012-10-10T10:50:23Z</time>
      </trkpt>
      <trkpt lat="45.97296" lon="4.55169">
        <ele>434.949</ele>
        <time>2012-10-10T10:50:31Z</time>
      </trkpt>
      <trkpt lat="45.9727" lon="4.55122">
        <ele>436.379</ele>
        <time>2012-10-10T10:50:37Z</time>
      </trkpt>
      <trkpt lat="45.97239" lon="4.55088">
        <ele>437.015</ele>
        <time>2012-10-10T10:50:42Z</time>
      </trkpt>
      <trkpt lat="45.97206" lon="4.55071">
        <ele>436.997</ele>
        <time>2012-10-10T10:50:50Z</time>
      </trkpt>
      <trkpt lat="45.97181" lon="4.55056">
        <ele>435.64</ele>
        <time>2012-10-10T10:50:56Z</time>
      </trkpt>
      <trkpt lat="45.9716" lon="4.55039">
        <ele>433.028</ele>
        <time>2012-10-10T10:51:04Z</time>
      </trkpt>
      <trkpt lat="45.9713" lon="4.55029">
        <ele>430.744</ele>
        <time>2012-10-10T10:51:12Z</time>
      </trkpt>
      <trkpt lat="45.97121" lon="4.55024">
        <ele>429.854</ele>
        <time>2012-10-10T10:51:21Z</time>
      </trkpt>
      <trkpt lat="45.97121" lon="4.55024">
        <ele>429.857</ele>
        <time>2012-10-10T10:51:23Z</time>
      </trkpt>
      <trkpt lat="45.9708" lon="4.55032">
        <ele>425.236</ele>
        <time>2012-10-10T10:51:34Z</time>
      </trkpt>
      <trkpt lat="45.97082" lon="4.55029">
        <ele>423.247</ele>
        <time>2012-10-10T10:51:40Z</time>
      </trkpt>
      <trkpt lat="45.9706" lon="4.55023">
        <ele>422.069</ele>
        <time>2012-10-10T10:51:45Z</time>
      </trkpt>
      <trkpt lat="45.97036" lon="4.55026">
        <ele>417.897</ele>
        <time>2012-10-10T10:51:52Z</time>
      </trkpt>
      <trkpt lat="45.97005" lon="4.55025">
        <ele>416.099</ele>
        <time>2012-10-10T10:51:58Z</time>
      </trkpt>
      <trkpt lat="45.96991" lon="4.55024">
        <ele>414.281</ele>
        <time>2012-10-10T10:52:00Z</time>
      </trkpt>
      <trkpt lat="45.96954" lon="4.55033">
        <ele>414.026</ele>
        <time>2012-10-10T10:52:05Z</time>
      </trkpt>
      <trkpt lat="45.96942" lon="4.55043">
        <ele>410.959</ele>
        <time>2012-10-10T10:52:07Z</time>
      </trkpt>
      <trkpt lat="45.9693" lon="4.55017">
        <ele>406.037</ele>
        <time>2012-10-10T10:52:13Z</time>
      </trkpt>
      <trkpt lat="45.96934" lon="4.5499">
        <ele>401.625</ele>
        <time>2012-10-10T10:52:19Z</time>
      </trkpt>
      <trkpt lat="45.96914" lon="4.54969">
        <ele>396.883</ele>
        <time>2012-10-10T10:52:24Z</time>
      </trkpt>
      <trkpt lat="45.9688" lon="4.54954">
        <ele>390.181</ele>
        <time>2012-10-10T10:52:29Z</time>
      </trkpt>
      <trkpt lat="45.96864" lon="4.54945">
        <ele>387.784</ele>
        <time>2012-10-10T10:52:33Z</time>
      </trkpt>
      <trkpt lat="45.96846" lon="4.54926">
        <ele>384.793</ele>
        <time>2012-10-10T10:52:39Z</time>
      </trkpt>
      <trkpt lat="45.96801" lon="4.54881">
        <ele>378.812</ele>
        <time>2012-10-10T10:52:48Z</time>
      </trkpt>
      <trkpt lat="45.9678" lon="4.5486">
        <ele>375.155</ele>
        <time>2012-10-10T10:52:55Z</time>
      </trkpt>
      <trkpt lat="45.9676" lon="4.5484">
        <ele>369.925</ele>
        <time>2012-10-10T10:53:06Z</time>
      </trkpt>
      <trkpt lat="45.96716" lon="4.54822">
        <ele>363.858</ele>
        <time>2012-10-10T10:53:16Z</time>
      </trkpt>
      <trkpt lat="45.96705" lon="4.54823">
        <ele>362.602</ele>
        <time>2012-10-10T10:53:18Z</time>
      </trkpt>
      <trkpt lat="45.96637" lon="4.54825">
        <ele>356.159</ele>
        <time>2012-10-10T10:53:28Z</time>
      </trkpt>
      <trkpt lat="45.9663" lon="4.54825">
        <ele>355.467</ele>
        <time>2012-10-10T10:53:29Z</time>
      </trkpt>
      <trkpt lat="45.96605" lon="4.54824">
        <ele>352.406</ele>
        <time>2012-10-10T10:53:34Z</time>
      </trkpt>
      <trkpt lat="45.96577" lon="4.5481">
        <ele>350.743</ele>
        <time>2012-10-10T10:53:38Z</time>
      </trkpt>
      <trkpt lat="45.96553" lon="4.54779">
        <ele>347.311</ele>
        <time>2012-10-10T10:53:43Z</time>
      </trkpt>
      <trkpt lat="45.96537" lon="4.54757">
        <ele>344.807</ele>
        <time>2012-10-10T10:53:47Z</time>
      </trkpt>
      <trkpt lat="45.9653" lon="4.54749">
        <ele>343.578</ele>
        <time>2012-10-10T10:53:49Z</time>
      </trkpt>
      <trkpt lat="45.96499" lon="4.54733">
        <ele>340.296</ele>
        <time>2012-10-10T10:53:55Z</time>
      </trkpt>
      <trkpt lat="45.96468" lon="4.54717">
        <ele>336.095</ele>
        <time>2012-10-10T10:54:02Z</time>
      </trkpt>
      <trkpt lat="45.96461" lon="4.54715">
        <ele>334.51</ele>
        <time>2012-10-10T10:54:05Z</time>
      </trkpt>
      <trkpt lat="45.96433" lon="4.54693">
        <ele>330.331</ele>
        <time>2012-10-10T10:54:13Z</time>
      </trkpt>
      <trkpt lat="45.9641" lon="4.54679">
        <ele>327.49</ele>
        <time>2012-10-10T10:54:18Z</time>
      </trkpt>
      <trkpt lat="45.96402" lon="4.54674">
        <ele>326.428</ele>
        <time>2012-10-10T10:54:20Z</time>
      </trkpt>
      <trkpt lat="45.96391" lon="4.54666">
        <ele>325.307</ele>
        <time>2012-10-10T10:54:22Z</time>
      </trkpt>
      <trkpt lat="45.96372" lon="4.54646">
        <ele>323.277</ele>
        <time>2012-10-10T10:54:26Z</time>
      </trkpt>
      <trkpt lat="45.96347" lon="4.54633">
        <ele>320.995</ele>
        <time>2012-10-10T10:54:30Z</time>
      </trkpt>
      <trkpt lat="45.96323" lon="4.54627">
        <ele>319.04</ele>
        <time>2012-10-10T10:54:34Z</time>
      </trkpt>
      <trkpt lat="45.96313" lon="4.54622">
        <ele>317.513</ele>
        <time>2012-10-10T10:54:37Z</time>
      </trkpt>
      <trkpt lat="45.96276" lon="4.54607">
        <ele>314.572</ele>
        <time>2012-10-10T10:54:43Z</time>
      </trkpt>
      <trkpt lat="45.96253" lon="4.54529">
        <ele>312.678</ele>
        <time>2012-10-10T10:54:47Z</time>
      </trkpt>
      <trkpt lat="45.96255" lon="4.54539">
        <ele>309.609</ele>
        <time>2012-10-10T10:54:55Z</time>
      </trkpt>
      <trkpt lat="45.96235" lon="4.54511">
        <ele>307.591</ele>
        <time>2012-10-10T10:55:04Z</time>
      </trkpt>
      <trkpt lat="45.96213" lon="4.54492">
        <ele>304.462</ele>
        <time>2012-10-10T10:55:12Z</time>
      </trkpt>
      <trkpt lat="45.96189" lon="4.54464">
        <ele>301.39</ele>
        <time>2012-10-10T10:55:20Z</time>
      </trkpt>
      <trkpt lat="45.96187" lon="4.54462">
        <ele>300.703</ele>
        <time>2012-10-10T10:55:21Z</time>
      </trkpt>
      <trkpt lat="45.96175" lon="4.54452">
        <ele>298.341</ele>
        <time>2012-10-10T10:55:26Z</time>
      </trkpt>
      <trkpt lat="45.96158" lon="4.54433">
        <ele>292.629</ele>
        <time>2012-10-10T10:55:34Z</time>
      </trkpt>
      <trkpt lat="45.96146" lon="4.54416">
        <ele>288.314</ele>
        <time>2012-10-10T10:55:39Z</time>
      </trkpt>
      <trkpt lat="45.96113" lon="4.54387">
        <ele>280.244</ele>
        <time>2012-10-10T10:55:49Z</time>
      </trkpt>
      <trkpt lat="45.96094" lon="4.54363">
        <ele>280.351</ele>
        <time>2012-10-10T10:55:54Z</time>
      </trkpt>
      <trkpt lat="45.96084" lon="4.54351">
        <ele>280.776</ele>
        <time>2012-10-10T10:55:56Z</time>
      </trkpt>
      <trkpt lat="45.96071" lon="4.54308">
        <ele>280.661</ele>
        <time>2012-10-10T10:56:03Z</time>
      </trkpt>
      <trkpt lat="45.96051" lon="4.54244">
        <ele>285.507</ele>
        <time>2012-10-10T10:56:13Z</time>
      </trkpt>
      <trkpt lat="45.96046" lon="4.54232">
        <ele>287.273</ele>
        <time>2012-10-10T10:56:15Z</time>
      </trkpt>
      <trkpt lat="45.96029" lon="4.54201">
        <ele>289.492</ele>
        <time>2012-10-10T10:56:19Z</time>
      </trkpt>
      <trkpt lat="45.95983" lon="4.54146">
        <ele>302.792</ele>
        <time>2012-10-10T10:56:26Z</time>
      </trkpt>
      <trkpt lat="45.95967" lon="4.54108">
        <ele>309.177</ele>
        <time>2012-10-10T10:56:31Z</time>
      </trkpt>
      <trkpt lat="45.95964" lon="4.54085">
        <ele>314.722</ele>
        <time>2012-10-10T10:56:37Z</time>
      </trkpt>
      <trkpt lat="45.95932" lon="4.54076">
        <ele>320.343</ele>
        <time>2012-10-10T10:56:45Z</time>
      </trkpt>
      <trkpt lat="45.95928" lon="4.54073">
        <ele>320.611</ele>
        <time>2012-10-10T10:56:46Z</time>
      </trkpt>
      <trkpt lat="45.95878" lon="4.54074">
        <ele>320.27</ele>
        <time>2012-10-10T10:56:55Z</time>
      </trkpt>
      <trkpt lat="45.95875" lon="4.54068">
        <ele>319.552</ele>
        <time>2012-10-10T10:56:57Z</time>
      </trkpt>
      <trkpt lat="45.95852" lon="4.54">
        <ele>317.205</ele>
        <time>2012-10-10T10:57:06Z</time>
      </trkpt>
      <trkpt lat="45.95847" lon="4.5399">
        <ele>316.031</ele>
        <time>2012-10-10T10:57:11Z</time>
      </trkpt>
      <trkpt lat="45.95847" lon="4.5399">
        <ele>315.246</ele>
        <time>2012-10-10T10:57:15Z</time>
      </trkpt>
      <trkpt lat="45.95808" lon="4.53959">
        <ele>313.888</ele>
        <time>2012-10-10T10:57:21Z</time>
      </trkpt>
      <trkpt lat="45.95763" lon="4.53938">
        <ele>318.929</ele>
        <time>2012-10-10T10:57:28Z</time>
      </trkpt>
      <trkpt lat="45.95731" lon="4.5393">
        <ele>316.207</ele>
        <time>2012-10-10T10:57:35Z</time>
      </trkpt>
      <trkpt lat="45.95701" lon="4.53898">
        <ele>313.182</ele>
        <time>2012-10-10T10:57:42Z</time>
      </trkpt>
      <trkpt lat="45.9568" lon="4.53851">
        <ele>310.873</ele>
        <time>2012-10-10T10:57:49Z</time>
      </trkpt>
      <trkpt lat="45.95663" lon="4.53801">
        <ele>304.813</ele>
        <time>2012-10-10T10:57:56Z</time>
      </trkpt>
      <trkpt lat="45.95651" lon="4.53765">
        <ele>304.075</ele>
        <time>2012-10-10T10:58:02Z</time>
      </trkpt>
      <trkpt lat="45.95643" lon="4.53728">
        <ele>302.172</ele>
        <time>2012-10-10T10:58:09Z</time>
      </trkpt>
      <trkpt lat="45.95642" lon="4.53719">
        <ele>302.061</ele>
        <time>2012-10-10T10:58:18Z</time>
      </trkpt>
      <trkpt lat="45.95645" lon="4.53703">
        <ele>303.37</ele>
        <time>2012-10-10T10:58:37Z</time>
      </trkpt>
      <trkpt lat="45.95665" lon="4.53664">
        <ele>314.147</ele>
        <time>2012-10-10T10:58:47Z</time>
      </trkpt>
      <trkpt lat="45.95667" lon="4.53661">
        <ele>320.69</ele>
        <time>2012-10-10T10:58:57Z</time>
      </trkpt>
      <trkpt lat="45.95685" lon="4.53645">
        <ele>324.3</ele>
        <time>2012-10-10T10:59:08Z</time>
      </trkpt>
      <trkpt lat="45.95685" lon="4.53645">
        <ele>324.393</ele>
        <time>2012-10-10T10:59:12Z</time>
      </trkpt>
      <trkpt lat="45.95709" lon="4.53626">
        <ele>327.573</ele>
        <time>2012-10-10T10:59:20Z</time>
      </trkpt>
      <trkpt lat="45.95719" lon="4.53603">
        <ele>325.801</ele>
        <time>2012-10-10T10:59:25Z</time>
      </trkpt>
      <trkpt lat="45.9572" lon="4.53593">
        <ele>325.65</ele>
        <time>2012-10-10T10:59:27Z</time>
      </trkpt>
      <trkpt lat="45.95726" lon="4.53563">
        <ele>327.918</ele>
        <time>2012-10-10T10:59:36Z</time>
      </trkpt>
      <trkpt lat="45.95731" lon="4.53537">
        <ele>332.384</ele>
        <time>2012-10-10T10:59:46Z</time>
      </trkpt>
      <trkpt lat="45.95731" lon="4.53535">
        <ele>332.548</ele>
        <time>2012-10-10T10:59:47Z</time>
      </trkpt>
      <trkpt lat="45.95732" lon="4.53529">
        <ele>334.463</ele>
        <time>2012-10-10T10:59:55Z</time>
      </trkpt>
      <trkpt lat="45.95735" lon="4.53502">
        <ele>336.954</ele>
        <time>2012-10-10T11:00:10Z</time>
      </trkpt>
      <trkpt lat="45.95735" lon="4.53502">
        <ele>343.326</ele>
        <time>2012-10-10T11:00:21Z</time>
      </trkpt>
      <trkpt lat="45.95735" lon="4.53502">
        <ele>345.808</ele>
        <time>2012-10-10T11:00:37Z</time>
      </trkpt>
      <trkpt lat="45.95735" lon="4.53502">
        <ele>347.604</ele>
        <time>2012-10-10T11:00:41Z</time>
      </trkpt>
      <trkpt lat="45.95742" lon="4.53425">
        <ele>347.211</ele>
        <time>2012-10-10T11:00:53Z</time>
      </trkpt>
      <trkpt lat="45.95742" lon="4.53404">
        <ele>347.012</ele>
        <time>2012-10-10T11:01:03Z</time>
      </trkpt>
      <trkpt lat="45.95742" lon="4.53401">
        <ele>348.889</ele>
        <time>2012-10-10T11:01:13Z</time>
      </trkpt>
      <trkpt lat="45.95727" lon="4.53388">
        <ele>348.922</ele>
        <time>2012-10-10T11:01:20Z</time>
      </trkpt>
      <trkpt lat="45.95708" lon="4.53399">
        <ele>347.769</ele>
        <time>2012-10-10T11:01:25Z</time>
      </trkpt>
      <trkpt lat="45.95669" lon="4.53423">
        <ele>344.532</ele>
        <time>2012-10-10T11:01:36Z</time>
      </trkpt>
      <trkpt lat="45.95643" lon="4.53422">
        <ele>347.056</ele>
        <time>2012-10-10T11:01:45Z</time>
      </trkpt>
      <trkpt lat="45.95616" lon="4.53402">
        <ele>347.208</ele>
        <time>2012-10-10T11:01:55Z</time>
      </trkpt>
      <trkpt lat="45.95582" lon="4.53365">
        <ele>347.903</ele>
        <time>2012-10-10T11:02:07Z</time>
      </trkpt>
      <trkpt lat="45.95553" lon="4.5333">
        <ele>345.314</ele>
        <time>2012-10-10T11:02:17Z</time>
      </trkpt>
      <trkpt lat="45.95553" lon="4.5333">
        <ele>343.498</ele>
        <time>2012-10-10T11:02:25Z</time>
      </trkpt>
      <trkpt lat="45.95547" lon="4.53322">
        <ele>341.261</ele>
        <time>2012-10-10T11:08:03Z</time>
      </trkpt>
      <trkpt lat="45.95529" lon="4.53302">
        <ele>340.235</ele>
        <time>2012-10-10T11:08:13Z</time>
      </trkpt>
      <trkpt lat="45.95516" lon="4.53291">
        <ele>340.721</ele>
        <time>2012-10-10T11:08:37Z</time>
      </trkpt>
      <trkpt lat="45.95486" lon="4.53268">
        <ele>337.326</ele>
        <time>2012-10-10T11:08:46Z</time>
      </trkpt>
      <trkpt lat="45.95483" lon="4.53265">
        <ele>337.189</ele>
        <time>2012-10-10T11:08:47Z</time>
      </trkpt>
      <trkpt lat="45.95468" lon="4.53251">
        <ele>335.949</ele>
        <time>2012-10-10T11:08:51Z</time>
      </trkpt>
      <trkpt lat="45.95426" lon="4.5322">
        <ele>334.882</ele>
        <time>2012-10-10T11:09:00Z</time>
      </trkpt>
      <trkpt lat="45.95378" lon="4.53193">
        <ele>333.443</ele>
        <time>2012-10-10T11:09:10Z</time>
      </trkpt>
      <trkpt lat="45.95361" lon="4.53178">
        <ele>330.441</ele>
        <time>2012-10-10T11:09:14Z</time>
      </trkpt>
      <trkpt lat="45.95331" lon="4.53163">
        <ele>327.746</ele>
        <time>2012-10-10T11:09:21Z</time>
      </trkpt>
      <trkpt lat="45.95301" lon="4.53148">
        <ele>325.239</ele>
        <time>2012-10-10T11:09:29Z</time>
      </trkpt>
      <trkpt lat="45.95268" lon="4.53119">
        <ele>322.135</ele>
        <time>2012-10-10T11:09:40Z</time>
      </trkpt>
      <trkpt lat="45.95242" lon="4.53089">
        <ele>318.657</ele>
        <time>2012-10-10T11:09:49Z</time>
      </trkpt>
      <trkpt lat="45.9522" lon="4.53068">
        <ele>317.339</ele>
        <time>2012-10-10T11:09:57Z</time>
      </trkpt>
      <trkpt lat="45.9519" lon="4.53041">
        <ele>316.154</ele>
        <time>2012-10-10T11:10:06Z</time>
      </trkpt>
      <trkpt lat="45.95157" lon="4.53007">
        <ele>313.491</ele>
        <time>2012-10-10T11:10:16Z</time>
      </trkpt>
      <trkpt lat="45.95147" lon="4.52994">
        <ele>311.427</ele>
        <time>2012-10-10T11:10:23Z</time>
      </trkpt>
      <trkpt lat="45.95146" lon="4.52992">
        <ele>312.733</ele>
        <time>2012-10-10T11:10:26Z</time>
      </trkpt>
      <trkpt lat="45.95146" lon="4.52992">
        <ele>311.84</ele>
        <time>2012-10-10T11:10:28Z</time>
      </trkpt>
      <trkpt lat="45.95147" lon="4.52984">
        <ele>311.388</ele>
        <time>2012-10-10T11:10:39Z</time>
      </trkpt>
      <trkpt lat="45.95154" lon="4.52976">
        <ele>311.675</ele>
        <time>2012-10-10T11:10:49Z</time>
      </trkpt>
      <trkpt lat="45.95154" lon="4.52976">
        <ele>310.454</ele>
        <time>2012-10-10T11:11:05Z</time>
      </trkpt>
      <trkpt lat="45.95165" lon="4.52961">
        <ele>310.77</ele>
        <time>2012-10-10T11:11:18Z</time>
      </trkpt>
      <trkpt lat="45.95171" lon="4.52955">
        <ele>310.4</ele>
        <time>2012-10-10T11:11:22Z</time>
      </trkpt>
      <trkpt lat="45.9517" lon="4.52927">
        <ele>308.885</ele>
        <time>2012-10-10T11:11:33Z</time>
      </trkpt>
      <trkpt lat="45.95164" lon="4.52909">
        <ele>305.953</ele>
        <time>2012-10-10T11:11:38Z</time>
      </trkpt>
      <trkpt lat="45.95141" lon="4.52912">
        <ele>306.448</ele>
        <time>2012-10-10T11:11:46Z</time>
      </trkpt>
      <trkpt lat="45.95115" lon="4.52929">
        <ele>306.034</ele>
        <time>2012-10-10T11:11:57Z</time>
      </trkpt>
      <trkpt lat="45.95105" lon="4.52934">
        <ele>305.528</ele>
        <time>2012-10-10T11:12:01Z</time>
      </trkpt>
      <trkpt lat="45.95104" lon="4.52931">
        <ele>305.094</ele>
        <time>2012-10-10T11:12:04Z</time>
      </trkpt>
      <trkpt lat="45.95105" lon="4.5291">
        <ele>302.06</ele>
        <time>2012-10-10T11:12:11Z</time>
      </trkpt>
      <trkpt lat="45.95095" lon="4.52905">
        <ele>299.97</ele>
        <time>2012-10-10T11:12:16Z</time>
      </trkpt>
      <trkpt lat="45.95072" lon="4.5293">
        <ele>294.748</ele>
        <time>2012-10-10T11:12:24Z</time>
      </trkpt>
      <trkpt lat="45.95062" lon="4.52963">
        <ele>289.23</ele>
        <time>2012-10-10T11:12:31Z</time>
      </trkpt>
      <trkpt lat="45.95057" lon="4.52985">
        <ele>286.392</ele>
        <time>2012-10-10T11:12:37Z</time>
      </trkpt>
      <trkpt lat="45.95058" lon="4.53005">
        <ele>283.514</ele>
        <time>2012-10-10T11:12:46Z</time>
      </trkpt>
      <trkpt lat="45.95057" lon="4.53005">
        <ele>283.102</ele>
        <time>2012-10-10T11:12:51Z</time>
      </trkpt>
      <trkpt lat="45.95039" lon="4.52998">
        <ele>281.254</ele>
        <time>2012-10-10T11:12:56Z</time>
      </trkpt>
      <trkpt lat="45.95013" lon="4.5298">
        <ele>279.832</ele>
        <time>2012-10-10T11:13:04Z</time>
      </trkpt>
      <trkpt lat="45.95004" lon="4.52976">
        <ele>281.292</ele>
        <time>2012-10-10T11:13:12Z</time>
      </trkpt>
      <trkpt lat="45.94964" lon="4.53036">
        <ele>276.04</ele>
        <time>2012-10-10T11:13:24Z</time>
      </trkpt>
      <trkpt lat="45.9492" lon="4.53084">
        <ele>278.289</ele>
        <time>2012-10-10T11:13:36Z</time>
      </trkpt>
      <trkpt lat="45.94867" lon="4.53139">
        <ele>281.572</ele>
        <time>2012-10-10T11:13:51Z</time>
      </trkpt>
      <trkpt lat="45.94805" lon="4.53204">
        <ele>283.356</ele>
        <time>2012-10-10T11:14:08Z</time>
      </trkpt>
      <trkpt lat="45.94775" lon="4.53239">
        <ele>284.847</ele>
        <time>2012-10-10T11:14:17Z</time>
      </trkpt>
      <trkpt lat="45.9474" lon="4.53286">
        <ele>284.577</ele>
        <time>2012-10-10T11:14:31Z</time>
      </trkpt>
      <trkpt lat="45.94717" lon="4.53328">
        <ele>284.831</ele>
        <time>2012-10-10T11:14:43Z</time>
      </trkpt>
      <trkpt lat="45.947" lon="4.53371">
        <ele>287.635</ele>
        <time>2012-10-10T11:14:54Z</time>
      </trkpt>
      <trkpt lat="45.9468" lon="4.53431">
        <ele>290.075</ele>
        <time>2012-10-10T11:15:07Z</time>
      </trkpt>
      <trkpt lat="45.94677" lon="4.53443">
        <ele>289.308</ele>
        <time>2012-10-10T11:15:10Z</time>
      </trkpt>
      <trkpt lat="45.94673" lon="4.53462">
        <ele>289.78</ele>
        <time>2012-10-10T11:15:13Z</time>
      </trkpt>
      <trkpt lat="45.94655" lon="4.53539">
        <ele>284.346</ele>
        <time>2012-10-10T11:15:24Z</time>
      </trkpt>
      <trkpt lat="45.94653" lon="4.53547">
        <ele>283.875</ele>
        <time>2012-10-10T11:15:25Z</time>
      </trkpt>
      <trkpt lat="45.94614" lon="4.53647">
        <ele>283.597</ele>
        <time>2012-10-10T11:15:37Z</time>
      </trkpt>
      <trkpt lat="45.94579" lon="4.53709">
        <ele>285.365</ele>
        <time>2012-10-10T11:15:47Z</time>
      </trkpt>
      <trkpt lat="45.94569" lon="4.53726">
        <ele>285.165</ele>
        <time>2012-10-10T11:15:50Z</time>
      </trkpt>
      <trkpt lat="45.94551" lon="4.53741">
        <ele>285.598</ele>
        <time>2012-10-10T11:15:55Z</time>
      </trkpt>
      <trkpt lat="45.94559" lon="4.5375">
        <ele>286.029</ele>
        <time>2012-10-10T11:16:02Z</time>
      </trkpt>
      <trkpt lat="45.94563" lon="4.53755">
        <ele>286.012</ele>
        <time>2012-10-10T11:16:08Z</time>
      </trkpt>
      <trkpt lat="45.94573" lon="4.53772">
        <ele>286.274</ele>
        <time>2012-10-10T11:16:16Z</time>
      </trkpt>
      <trkpt lat="45.94574" lon="4.53774">
        <ele>287.776</ele>
        <time>2012-10-10T11:16:25Z</time>
      </trkpt>
      <trkpt lat="45.94574" lon="4.53774">
        <ele>287.276</ele>
        <time>2012-10-10T11:16:34Z</time>
      </trkpt>
      <trkpt lat="45.94574" lon="4.53774">
        <ele>288.984</ele>
        <time>2012-10-10T11:16:54Z</time>
      </trkpt>
      <trkpt lat="45.94582" lon="4.53832">
        <ele>290.048</ele>
        <time>2012-10-10T11:18:01Z</time>
      </trkpt>
      <trkpt lat="45.94585" lon="4.53858">
        <ele>290.135</ele>
        <time>2012-10-10T11:18:13Z</time>
      </trkpt>
      <trkpt lat="45.94584" lon="4.53883">
        <ele>291.098</ele>
        <time>2012-10-10T11:18:24Z</time>
      </trkpt>
      <trkpt lat="45.94584" lon="4.53883">
        <ele>294.256</ele>
        <time>2012-10-10T11:18:36Z</time>
      </trkpt>
      <trkpt lat="45.94584" lon="4.53883">
        <ele>294.822</ele>
        <time>2012-10-10T11:19:03Z</time>
      </trkpt>
      <trkpt lat="45.94585" lon="4.53858">
        <ele>293.076</ele>
        <time>2012-10-10T11:19:11Z</time>
      </trkpt>
      <trkpt lat="45.94579" lon="4.53807">
        <ele>287.95</ele>
        <time>2012-10-10T11:19:21Z</time>
      </trkpt>
      <trkpt lat="45.94575" lon="4.53781">
        <ele>284.209</ele>
        <time>2012-10-10T11:19:29Z</time>
      </trkpt>
      <trkpt lat="45.94574" lon="4.53775">
        <ele>282.462</ele>
        <time>2012-10-10T11:19:32Z</time>
      </trkpt>
      <trkpt lat="45.94564" lon="4.53757">
        <ele>281.539</ele>
        <time>2012-10-10T11:19:39Z</time>
      </trkpt>
      <trkpt lat="45.94556" lon="4.53748">
        <ele>280.965</ele>
        <time>2012-10-10T11:19:44Z</time>
      </trkpt>
      <trkpt lat="45.9456" lon="4.53734">
        <ele>279.936</ele>
        <time>2012-10-10T11:19:51Z</time>
      </trkpt>
      <trkpt lat="45.94579" lon="4.5371">
        <ele>277.595</ele>
        <time>2012-10-10T11:20:02Z</time>
      </trkpt>
      <trkpt lat="45.94579" lon="4.5371">
        <ele>277.195</ele>
        <time>2012-10-10T11:20:36Z</time>
      </trkpt>
      <trkpt lat="45.94593" lon="4.53717">
        <ele>277.485</ele>
        <time>2012-10-10T11:20:40Z</time>
      </trkpt>
      <trkpt lat="45.94593" lon="4.53717">
        <ele>281.481</ele>
        <time>2012-10-10T11:20:51Z</time>
      </trkpt>
      <trkpt lat="45.94611" lon="4.53736">
        <ele>287.396</ele>
        <time>2012-10-10T11:21:05Z</time>
      </trkpt>
      <trkpt lat="45.94611" lon="4.53736">
        <ele>289.275</ele>
        <time>2012-10-10T11:21:10Z</time>
      </trkpt>
      <trkpt lat="45.94611" lon="4.53736">
        <ele>291.876</ele>
        <time>2012-10-10T11:21:22Z</time>
      </trkpt>
      <trkpt lat="45.94629" lon="4.53755">
        <ele>294.141</ele>
        <time>2012-10-10T11:21:32Z</time>
      </trkpt>
      <trkpt lat="45.94638" lon="4.53764">
        <ele>296.978</ele>
        <time>2012-10-10T11:21:44Z</time>
      </trkpt>
      <trkpt lat="45.94638" lon="4.53764">
        <ele>300.369</ele>
        <time>2012-10-10T11:21:57Z</time>
      </trkpt>
      <trkpt lat="45.94658" lon="4.53785">
        <ele>302.952</ele>
        <time>2012-10-10T11:22:10Z</time>
      </trkpt>
      <trkpt lat="45.94666" lon="4.53793">
        <ele>304.6</ele>
        <time>2012-10-10T11:22:23Z</time>
      </trkpt>
      <trkpt lat="45.94676" lon="4.53804">
        <ele>306.458</ele>
        <time>2012-10-10T11:22:33Z</time>
      </trkpt>
      <trkpt lat="45.94686" lon="4.53814">
        <ele>307.541</ele>
        <time>2012-10-10T11:22:44Z</time>
      </trkpt>
      <trkpt lat="45.94699" lon="4.53828">
        <ele>308.899</ele>
        <time>2012-10-10T11:22:58Z</time>
      </trkpt>
      <trkpt lat="45.94703" lon="4.53833">
        <ele>311.895</ele>
        <time>2012-10-10T11:23:11Z</time>
      </trkpt>
      <trkpt lat="45.94703" lon="4.53833">
        <ele>312.367</ele>
        <time>2012-10-10T11:23:22Z</time>
      </trkpt>
      <trkpt lat="45.94715" lon="4.53845">
        <ele>312.874</ele>
        <time>2012-10-10T11:23:27Z</time>
      </trkpt>
      <trkpt lat="45.94721" lon="4.53851">
        <ele>315.392</ele>
        <time>2012-10-10T11:23:38Z</time>
      </trkpt>
      <trkpt lat="45.94721" lon="4.53851">
        <ele>317.639</ele>
        <time>2012-10-10T11:23:48Z</time>
      </trkpt>
      <trkpt lat="45.94721" lon="4.53851">
        <ele>319.128</ele>
        <time>2012-10-10T11:23:59Z</time>
      </trkpt>
      <trkpt lat="45.94721" lon="4.53851">
        <ele>318.615</ele>
        <time>2012-10-10T11:24:13Z</time>
      </trkpt>
      <trkpt lat="45.94741" lon="4.53888">
        <ele>319.971</ele>
        <time>2012-10-10T11:24:26Z</time>
      </trkpt>
      <trkpt lat="45.94741" lon="4.53888">
        <ele>321.227</ele>
        <time>2012-10-10T11:24:38Z</time>
      </trkpt>
      <trkpt lat="45.94741" lon="4.53888">
        <ele>321.946</ele>
        <time>2012-10-10T11:24:48Z</time>
      </trkpt>
      <trkpt lat="45.94741" lon="4.53888">
        <ele>323.325</ele>
        <time>2012-10-10T11:25:04Z</time>
      </trkpt>
      <trkpt lat="45.94741" lon="4.53888">
        <ele>324.569</ele>
        <time>2012-10-10T11:25:13Z</time>
      </trkpt>
      <trkpt lat="45.94741" lon="4.53888">
        <ele>325.199</ele>
        <time>2012-10-10T11:25:23Z</time>
      </trkpt>
      <trkpt lat="45.94741" lon="4.53888">
        <ele>326.766</ele>
        <time>2012-10-10T11:25:34Z</time>
      </trkpt>
      <trkpt lat="45.94741" lon="4.53888">
        <ele>328.258</ele>
        <time>2012-10-10T11:25:45Z</time>
      </trkpt>
      <trkpt lat="45.94741" lon="4.53888">
        <ele>330.973</ele>
        <time>2012-10-10T11:25:59Z</time>
      </trkpt>
      <trkpt lat="45.94741" lon="4.53888">
        <ele>333.885</ele>
        <time>2012-10-10T11:26:08Z</time>
      </trkpt>
      <trkpt lat="45.94741" lon="4.53888">
        <ele>336.024</ele>
        <time>2012-10-10T11:26:21Z</time>
      </trkpt>
      <trkpt lat="45.94741" lon="4.53888">
        <ele>335.062</ele>
        <time>2012-10-10T11:26:33Z</time>
      </trkpt>
      <trkpt lat="45.94741" lon="4.53888">
        <ele>337.309</ele>
        <time>2012-10-10T11:26:47Z</time>
      </trkpt>
      <trkpt lat="45.94741" lon="4.53888">
        <ele>338.685</ele>
        <time>2012-10-10T11:26:53Z</time>
      </trkpt>
      <trkpt lat="45.94741" lon="4.53888">
        <ele>341.117</ele>
        <time>2012-10-10T11:27:07Z</time>
      </trkpt>
      <trkpt lat="45.94798" lon="4.53984">
        <ele>342.345</ele>
        <time>2012-10-10T11:28:01Z</time>
      </trkpt>
      <trkpt lat="45.94798" lon="4.53984">
        <ele>343.146</ele>
        <time>2012-10-10T11:28:05Z</time>
      </trkpt>
      <trkpt lat="45.94798" lon="4.53984">
        <ele>345.752</ele>
        <time>2012-10-10T11:28:18Z</time>
      </trkpt>
      <trkpt lat="45.94798" lon="4.53984">
        <ele>349.322</ele>
        <time>2012-10-10T11:28:30Z</time>
      </trkpt>
      <trkpt lat="45.94798" lon="4.53984">
        <ele>348.775</ele>
        <time>2012-10-10T11:28:37Z</time>
      </trkpt>
      <trkpt lat="45.94829" lon="4.54">
        <ele>350.403</ele>
        <time>2012-10-10T11:28:47Z</time>
      </trkpt>
      <trkpt lat="45.94829" lon="4.54">
        <ele>350.965</ele>
        <time>2012-10-10T11:28:57Z</time>
      </trkpt>
      <trkpt lat="45.94829" lon="4.54">
        <ele>353.745</ele>
        <time>2012-10-10T11:29:09Z</time>
      </trkpt>
      <trkpt lat="45.94829" lon="4.54">
        <ele>356.119</ele>
        <time>2012-10-10T11:29:25Z</time>
      </trkpt>
      <trkpt lat="45.94829" lon="4.54">
        <ele>358.129</ele>
        <time>2012-10-10T11:29:37Z</time>
      </trkpt>
      <trkpt lat="45.94829" lon="4.54">
        <ele>360.325</ele>
        <time>2012-10-10T11:29:48Z</time>
      </trkpt>
      <trkpt lat="45.94829" lon="4.54">
        <ele>362.044</ele>
        <time>2012-10-10T11:30:03Z</time>
      </trkpt>
      <trkpt lat="45.94829" lon="4.54">
        <ele>362.641</ele>
        <time>2012-10-10T11:31:05Z</time>
      </trkpt>
      <trkpt lat="45.94829" lon="4.54">
        <ele>363.84</ele>
        <time>2012-10-10T11:31:18Z</time>
      </trkpt>
      <trkpt lat="45.94829" lon="4.54">
        <ele>365.566</ele>
        <time>2012-10-10T11:31:28Z</time>
      </trkpt>
      <trkpt lat="45.94829" lon="4.54">
        <ele>365.665</ele>
        <time>2012-10-10T11:31:38Z</time>
      </trkpt>
      <trkpt lat="45.94829" lon="4.54">
        <ele>367.455</ele>
        <time>2012-10-10T11:31:48Z</time>
      </trkpt>
      <trkpt lat="45.94829" lon="4.54">
        <ele>369.394</ele>
        <time>2012-10-10T11:32:00Z</time>
      </trkpt>
      <trkpt lat="45.94914" lon="4.54042">
        <ele>369.945</ele>
        <time>2012-10-10T11:32:13Z</time>
      </trkpt>
      <trkpt lat="45.94914" lon="4.54042">
        <ele>370.224</ele>
        <time>2012-10-10T11:32:35Z</time>
      </trkpt>
      <trkpt lat="45.94936" lon="4.5406">
        <ele>375.066</ele>
        <time>2012-10-10T11:32:49Z</time>
      </trkpt>
      <trkpt lat="45.94936" lon="4.5406">
        <ele>377.287</ele>
        <time>2012-10-10T11:33:02Z</time>
      </trkpt>
      <trkpt lat="45.9496" lon="4.54085">
        <ele>378.605</ele>
        <time>2012-10-10T11:33:13Z</time>
      </trkpt>
      <trkpt lat="45.94961" lon="4.54087">
        <ele>378.89</ele>
        <time>2012-10-10T11:33:16Z</time>
      </trkpt>
      <trkpt lat="45.94961" lon="4.54087">
        <ele>379.619</ele>
        <time>2012-10-10T11:33:20Z</time>
      </trkpt>
      <trkpt lat="45.94976" lon="4.54103">
        <ele>381.902</ele>
        <time>2012-10-10T11:33:34Z</time>
      </trkpt>
      <trkpt lat="45.94989" lon="4.54117">
        <ele>386.354</ele>
        <time>2012-10-10T11:33:45Z</time>
      </trkpt>
      <trkpt lat="45.94989" lon="4.54117">
        <ele>385.822</ele>
        <time>2012-10-10T11:33:47Z</time>
      </trkpt>
      <trkpt lat="45.95019" lon="4.54146">
        <ele>387.127</ele>
        <time>2012-10-10T11:34:00Z</time>
      </trkpt>
      <trkpt lat="45.95051" lon="4.5418">
        <ele>388.008</ele>
        <time>2012-10-10T11:34:14Z</time>
      </trkpt>
      <trkpt lat="45.95078" lon="4.5418">
        <ele>386.52</ele>
        <time>2012-10-10T11:34:25Z</time>
      </trkpt>
      <trkpt lat="45.95106" lon="4.54173">
        <ele>385.2</ele>
        <time>2012-10-10T11:34:34Z</time>
      </trkpt>
      <trkpt lat="45.9512" lon="4.54175">
        <ele>385.938</ele>
        <time>2012-10-10T11:34:37Z</time>
      </trkpt>
      <trkpt lat="45.95178" lon="4.54202">
        <ele>387.238</ele>
        <time>2012-10-10T11:34:49Z</time>
      </trkpt>
      <trkpt lat="45.95202" lon="4.54227">
        <ele>387.729</ele>
        <time>2012-10-10T11:34:57Z</time>
      </trkpt>
      <trkpt lat="45.95219" lon="4.54268">
        <ele>391.974</ele>
        <time>2012-10-10T11:35:07Z</time>
      </trkpt>
      <trkpt lat="45.95235" lon="4.54306">
        <ele>392.717</ele>
        <time>2012-10-10T11:35:17Z</time>
      </trkpt>
      <trkpt lat="45.95257" lon="4.54359">
        <ele>391.076</ele>
        <time>2012-10-10T11:35:31Z</time>
      </trkpt>
      <trkpt lat="45.95279" lon="4.54411">
        <ele>390.18</ele>
        <time>2012-10-10T11:35:44Z</time>
      </trkpt>
      <trkpt lat="45.95299" lon="4.54455">
        <ele>390.118</ele>
        <time>2012-10-10T11:35:55Z</time>
      </trkpt>
      <trkpt lat="45.95303" lon="4.54485">
        <ele>388.188</ele>
        <time>2012-10-10T11:35:59Z</time>
      </trkpt>
      <trkpt lat="45.95302" lon="4.54499">
        <ele>387.917</ele>
        <time>2012-10-10T11:36:03Z</time>
      </trkpt>
      <trkpt lat="45.95302" lon="4.54563">
        <ele>387.693</ele>
        <time>2012-10-10T11:36:12Z</time>
      </trkpt>
      <trkpt lat="45.95301" lon="4.54591">
        <ele>390.492</ele>
        <time>2012-10-10T11:36:22Z</time>
      </trkpt>
      <trkpt lat="45.95298" lon="4.54617">
        <ele>392.253</ele>
        <time>2012-10-10T11:36:34Z</time>
      </trkpt>
      <trkpt lat="45.95294" lon="4.54638">
        <ele>393.74</ele>
        <time>2012-10-10T11:36:43Z</time>
      </trkpt>
      <trkpt lat="45.95287" lon="4.54667">
        <ele>395.403</ele>
        <time>2012-10-10T11:36:55Z</time>
      </trkpt>
      <trkpt lat="45.95283" lon="4.54711">
        <ele>396.941</ele>
        <time>2012-10-10T11:37:08Z</time>
      </trkpt>
      <trkpt lat="45.95289" lon="4.54731">
        <ele>398.939</ele>
        <time>2012-10-10T11:37:19Z</time>
      </trkpt>
      <trkpt lat="45.95315" lon="4.54755">
        <ele>403.292</ele>
        <time>2012-10-10T11:37:32Z</time>
      </trkpt>
      <trkpt lat="45.95326" lon="4.54763">
        <ele>403.801</ele>
        <time>2012-10-10T11:37:39Z</time>
      </trkpt>
      <trkpt lat="45.95347" lon="4.54781">
        <ele>405.759</ele>
        <time>2012-10-10T11:37:52Z</time>
      </trkpt>
      <trkpt lat="45.95365" lon="4.54792">
        <ele>406.149</ele>
        <time>2012-10-10T11:38:02Z</time>
      </trkpt>
      <trkpt lat="45.95378" lon="4.54813">
        <ele>406.921</ele>
        <time>2012-10-10T11:38:13Z</time>
      </trkpt>
      <trkpt lat="45.95391" lon="4.54835">
        <ele>408.135</ele>
        <time>2012-10-10T11:38:25Z</time>
      </trkpt>
      <trkpt lat="45.95398" lon="4.54854">
        <ele>411.188</ele>
        <time>2012-10-10T11:38:35Z</time>
      </trkpt>
      <trkpt lat="45.95399" lon="4.54858">
        <ele>412.145</ele>
        <time>2012-10-10T11:38:47Z</time>
      </trkpt>
      <trkpt lat="45.95399" lon="4.54858">
        <ele>412.009</ele>
        <time>2012-10-10T11:39:56Z</time>
      </trkpt>
      <trkpt lat="45.95403" lon="4.54874">
        <ele>411.157</ele>
        <time>2012-10-10T11:40:07Z</time>
      </trkpt>
      <trkpt lat="45.95408" lon="4.54897">
        <ele>410.701</ele>
        <time>2012-10-10T11:40:19Z</time>
      </trkpt>
      <trkpt lat="45.95411" lon="4.5495">
        <ele>408.335</ele>
        <time>2012-10-10T11:40:30Z</time>
      </trkpt>
      <trkpt lat="45.95429" lon="4.55003">
        <ele>407.161</ele>
        <time>2012-10-10T11:40:42Z</time>
      </trkpt>
      <trkpt lat="45.95452" lon="4.55026">
        <ele>409.8</ele>
        <time>2012-10-10T11:40:52Z</time>
      </trkpt>
      <trkpt lat="45.9548" lon="4.55046">
        <ele>413.555</ele>
        <time>2012-10-10T11:41:05Z</time>
      </trkpt>
      <trkpt lat="45.95507" lon="4.55067">
        <ele>413.261</ele>
        <time>2012-10-10T11:41:18Z</time>
      </trkpt>
      <trkpt lat="45.95522" lon="4.5508">
        <ele>412.022</ele>
        <time>2012-10-10T11:41:25Z</time>
      </trkpt>
      <trkpt lat="45.9555" lon="4.55106">
        <ele>408.517</ele>
        <time>2012-10-10T11:41:36Z</time>
      </trkpt>
      <trkpt lat="45.95576" lon="4.55123">
        <ele>408.44</ele>
        <time>2012-10-10T11:41:47Z</time>
      </trkpt>
      <trkpt lat="45.95593" lon="4.55133">
        <ele>408.978</ele>
        <time>2012-10-10T11:41:56Z</time>
      </trkpt>
      <trkpt lat="45.956" lon="4.55136">
        <ele>408.723</ele>
        <time>2012-10-10T11:41:59Z</time>
      </trkpt>
      <trkpt lat="45.956" lon="4.55136">
        <ele>409.008</ele>
        <time>2012-10-10T11:42:01Z</time>
      </trkpt>
      <trkpt lat="45.95612" lon="4.55142">
        <ele>409.615</ele>
        <time>2012-10-10T11:42:11Z</time>
      </trkpt>
      <trkpt lat="45.95639" lon="4.55152">
        <ele>410.547</ele>
        <time>2012-10-10T11:42:21Z</time>
      </trkpt>
      <trkpt lat="45.95656" lon="4.55162">
        <ele>415.586</ele>
        <time>2012-10-10T11:42:33Z</time>
      </trkpt>
      <trkpt lat="45.95672" lon="4.55175">
        <ele>415.116</ele>
        <time>2012-10-10T11:42:45Z</time>
      </trkpt>
      <trkpt lat="45.95685" lon="4.55187">
        <ele>419.015</ele>
        <time>2012-10-10T11:42:56Z</time>
      </trkpt>
      <trkpt lat="45.95698" lon="4.55205">
        <ele>424.106</ele>
        <time>2012-10-10T11:43:08Z</time>
      </trkpt>
      <trkpt lat="45.95709" lon="4.55222">
        <ele>426.478</ele>
        <time>2012-10-10T11:43:20Z</time>
      </trkpt>
      <trkpt lat="45.95717" lon="4.5523">
        <ele>428.383</ele>
        <time>2012-10-10T11:43:32Z</time>
      </trkpt>
      <trkpt lat="45.95721" lon="4.55234">
        <ele>430.204</ele>
        <time>2012-10-10T11:43:42Z</time>
      </trkpt>
      <trkpt lat="45.95721" lon="4.55234">
        <ele>430.379</ele>
        <time>2012-10-10T11:43:43Z</time>
      </trkpt>
      <trkpt lat="45.95721" lon="4.55234">
        <ele>432.143</ele>
        <time>2012-10-10T11:43:56Z</time>
      </trkpt>
      <trkpt lat="45.95721" lon="4.55234">
        <ele>434.656</ele>
        <time>2012-10-10T11:44:15Z</time>
      </trkpt>
      <trkpt lat="45.95721" lon="4.55234">
        <ele>436.092</ele>
        <time>2012-10-10T11:44:27Z</time>
      </trkpt>
      <trkpt lat="45.95721" lon="4.55234">
        <ele>437.263</ele>
        <time>2012-10-10T11:44:37Z</time>
      </trkpt>
      <trkpt lat="45.95721" lon="4.55234">
        <ele>438.183</ele>
        <time>2012-10-10T11:44:48Z</time>
      </trkpt>
      <trkpt lat="45.95721" lon="4.55234">
        <ele>440.154</ele>
        <time>2012-10-10T11:45:04Z</time>
      </trkpt>
      <trkpt lat="45.95721" lon="4.55234">
        <ele>439.074</ele>
        <time>2012-10-10T11:45:14Z</time>
      </trkpt>
      <trkpt lat="45.95773" lon="4.55283">
        <ele>441.2</ele>
        <time>2012-10-10T11:46:12Z</time>
      </trkpt>
      <trkpt lat="45.95784" lon="4.55298">
        <ele>443.22</ele>
        <time>2012-10-10T11:46:26Z</time>
      </trkpt>
      <trkpt lat="45.95784" lon="4.55298">
        <ele>444.545</ele>
        <time>2012-10-10T11:46:37Z</time>
      </trkpt>
      <trkpt lat="45.95796" lon="4.55316">
        <ele>446.19</ele>
        <time>2012-10-10T11:46:46Z</time>
      </trkpt>
      <trkpt lat="45.95807" lon="4.55328">
        <ele>447.739</ele>
        <time>2012-10-10T11:46:57Z</time>
      </trkpt>
      <trkpt lat="45.95819" lon="4.55335">
        <ele>449.049</ele>
        <time>2012-10-10T11:47:10Z</time>
      </trkpt>
      <trkpt lat="45.95834" lon="4.5534">
        <ele>450.137</ele>
        <time>2012-10-10T11:47:20Z</time>
      </trkpt>
      <trkpt lat="45.95844" lon="4.55342">
        <ele>453.198</ele>
        <time>2012-10-10T11:47:31Z</time>
      </trkpt>
      <trkpt lat="45.95853" lon="4.5534">
        <ele>455.563</ele>
        <time>2012-10-10T11:47:42Z</time>
      </trkpt>
      <trkpt lat="45.95853" lon="4.5534">
        <ele>458.026</ele>
        <time>2012-10-10T11:47:54Z</time>
      </trkpt>
      <trkpt lat="45.95853" lon="4.5534">
        <ele>458.983</ele>
        <time>2012-10-10T11:48:11Z</time>
      </trkpt>
      <trkpt lat="45.95853" lon="4.5534">
        <ele>459.639</ele>
        <time>2012-10-10T11:49:17Z</time>
      </trkpt>
      <trkpt lat="45.95853" lon="4.5534">
        <ele>462.243</ele>
        <time>2012-10-10T11:49:29Z</time>
      </trkpt>
      <trkpt lat="45.95853" lon="4.5534">
        <ele>463.882</ele>
        <time>2012-10-10T11:49:42Z</time>
      </trkpt>
      <trkpt lat="45.95853" lon="4.5534">
        <ele>463.731</ele>
        <time>2012-10-10T11:49:53Z</time>
      </trkpt>
      <trkpt lat="45.95853" lon="4.5534">
        <ele>465.799</ele>
        <time>2012-10-10T11:50:04Z</time>
      </trkpt>
      <trkpt lat="45.95912" lon="4.55326">
        <ele>467.122</ele>
        <time>2012-10-10T11:50:14Z</time>
      </trkpt>
      <trkpt lat="45.95912" lon="4.55326">
        <ele>467.647</ele>
        <time>2012-10-10T11:50:24Z</time>
      </trkpt>
      <trkpt lat="45.95923" lon="4.55326">
        <ele>467.866</ele>
        <time>2012-10-10T11:50:32Z</time>
      </trkpt>
      <trkpt lat="45.9594" lon="4.55328">
        <ele>470.368</ele>
        <time>2012-10-10T11:50:44Z</time>
      </trkpt>
      <trkpt lat="45.95958" lon="4.55328">
        <ele>472.705</ele>
        <time>2012-10-10T11:50:55Z</time>
      </trkpt>
      <trkpt lat="45.95983" lon="4.55328">
        <ele>472.812</ele>
        <time>2012-10-10T11:51:07Z</time>
      </trkpt>
      <trkpt lat="45.96016" lon="4.55335">
        <ele>475.014</ele>
        <time>2012-10-10T11:51:21Z</time>
      </trkpt>
      <trkpt lat="45.96045" lon="4.5534">
        <ele>475.547</ele>
        <time>2012-10-10T11:51:32Z</time>
      </trkpt>
      <trkpt lat="45.9607" lon="4.55336">
        <ele>475.224</ele>
        <time>2012-10-10T11:51:42Z</time>
      </trkpt>
      <trkpt lat="45.96108" lon="4.55321">
        <ele>474.105</ele>
        <time>2012-10-10T11:51:54Z</time>
      </trkpt>
      <trkpt lat="45.96138" lon="4.5531">
        <ele>474.257</ele>
        <time>2012-10-10T11:52:05Z</time>
      </trkpt>
      <trkpt lat="45.96166" lon="4.55317">
        <ele>473.978</ele>
        <time>2012-10-10T11:52:17Z</time>
      </trkpt>
      <trkpt lat="45.96182" lon="4.55328">
        <ele>474.808</ele>
        <time>2012-10-10T11:52:30Z</time>
      </trkpt>
      <trkpt lat="45.96197" lon="4.55338">
        <ele>475.909</ele>
        <time>2012-10-10T11:52:42Z</time>
      </trkpt>
      <trkpt lat="45.96214" lon="4.5535">
        <ele>478.162</ele>
        <time>2012-10-10T11:52:54Z</time>
      </trkpt>
      <trkpt lat="45.96228" lon="4.5536">
        <ele>479.107</ele>
        <time>2012-10-10T11:53:05Z</time>
      </trkpt>
      <trkpt lat="45.96245" lon="4.55373">
        <ele>478.435</ele>
        <time>2012-10-10T11:53:16Z</time>
      </trkpt>
      <trkpt lat="45.96262" lon="4.55385">
        <ele>480.747</ele>
        <time>2012-10-10T11:53:27Z</time>
      </trkpt>
      <trkpt lat="45.96284" lon="4.55404">
        <ele>481.722</ele>
        <time>2012-10-10T11:53:41Z</time>
      </trkpt>
      <trkpt lat="45.96299" lon="4.55421">
        <ele>483.804</ele>
        <time>2012-10-10T11:53:52Z</time>
      </trkpt>
      <trkpt lat="45.96302" lon="4.55425">
        <ele>484.153</ele>
        <time>2012-10-10T11:53:54Z</time>
      </trkpt>
      <trkpt lat="45.96308" lon="4.55437">
        <ele>484.921</ele>
        <time>2012-10-10T11:54:01Z</time>
      </trkpt>
      <trkpt lat="45.96319" lon="4.55459">
        <ele>485.511</ele>
        <time>2012-10-10T11:54:13Z</time>
      </trkpt>
      <trkpt lat="45.96328" lon="4.55475">
        <ele>487.071</ele>
        <time>2012-10-10T11:54:25Z</time>
      </trkpt>
      <trkpt lat="45.9634" lon="4.55496">
        <ele>490.017</ele>
        <time>2012-10-10T11:54:37Z</time>
      </trkpt>
      <trkpt lat="45.96355" lon="4.55516">
        <ele>491.545</ele>
        <time>2012-10-10T11:54:49Z</time>
      </trkpt>
      <trkpt lat="45.96367" lon="4.55541">
        <ele>490.639</ele>
        <time>2012-10-10T11:54:58Z</time>
      </trkpt>
      <trkpt lat="45.96369" lon="4.55568">
        <ele>490.908</ele>
        <time>2012-10-10T11:55:09Z</time>
      </trkpt>
      <trkpt lat="45.96369" lon="4.55568">
        <ele>491.344</ele>
        <time>2012-10-10T11:55:11Z</time>
      </trkpt>
      <trkpt lat="45.96385" lon="4.55598">
        <ele>492.955</ele>
        <time>2012-10-10T11:55:22Z</time>
      </trkpt>
      <trkpt lat="45.96395" lon="4.55626">
        <ele>494.791</ele>
        <time>2012-10-10T11:55:34Z</time>
      </trkpt>
      <trkpt lat="45.96403" lon="4.55652">
        <ele>497.564</ele>
        <time>2012-10-10T11:55:47Z</time>
      </trkpt>
      <trkpt lat="45.96407" lon="4.55661">
        <ele>499.128</ele>
        <time>2012-10-10T11:55:57Z</time>
      </trkpt>
      <trkpt lat="45.96407" lon="4.55661">
        <ele>500.355</ele>
        <time>2012-10-10T11:56:08Z</time>
      </trkpt>
      <trkpt lat="45.96407" lon="4.55661">
        <ele>502.451</ele>
        <time>2012-10-10T11:56:20Z</time>
      </trkpt>
      <trkpt lat="45.96407" lon="4.55661">
        <ele>503.63</ele>
        <time>2012-10-10T11:56:33Z</time>
      </trkpt>
      <trkpt lat="45.96407" lon="4.55661">
        <ele>504.947</ele>
        <time>2012-10-10T11:56:46Z</time>
      </trkpt>
      <trkpt lat="45.96407" lon="4.55661">
        <ele>506.034</ele>
        <time>2012-10-10T11:57:16Z</time>
      </trkpt>
      <trkpt lat="45.96407" lon="4.55661">
        <ele>507.72</ele>
        <time>2012-10-10T11:57:25Z</time>
      </trkpt>
      <trkpt lat="45.96407" lon="4.55661">
        <ele>508.66</ele>
        <time>2012-10-10T11:57:30Z</time>
      </trkpt>
      <trkpt lat="45.96407" lon="4.55661">
        <ele>509.092</ele>
        <time>2012-10-10T11:57:33Z</time>
      </trkpt>
      <trkpt lat="45.96407" lon="4.55661">
        <ele>510.857</ele>
        <time>2012-10-10T11:57:46Z</time>
      </trkpt>
      <trkpt lat="45.96407" lon="4.55661">
        <ele>513.082</ele>
        <time>2012-10-10T11:57:58Z</time>
      </trkpt>
      <trkpt lat="45.96407" lon="4.55661">
        <ele>515.123</ele>
        <time>2012-10-10T11:58:10Z</time>
      </trkpt>
      <trkpt lat="45.96466" lon="4.55759">
        <ele>516.412</ele>
        <time>2012-10-10T11:58:25Z</time>
      </trkpt>
      <trkpt lat="45.96466" lon="4.55759">
        <ele>517.166</ele>
        <time>2012-10-10T11:58:28Z</time>
      </trkpt>
      <trkpt lat="45.96466" lon="4.55759">
        <ele>519.994</ele>
        <time>2012-10-10T11:58:39Z</time>
      </trkpt>
      <trkpt lat="45.96466" lon="4.55759">
        <ele>521.306</ele>
        <time>2012-10-10T11:58:50Z</time>
      </trkpt>
      <trkpt lat="45.96466" lon="4.55759">
        <ele>523.176</ele>
        <time>2012-10-10T11:59:01Z</time>
      </trkpt>
      <trkpt lat="45.96493" lon="4.5579">
        <ele>525.666</ele>
        <time>2012-10-10T11:59:12Z</time>
      </trkpt>
      <trkpt lat="45.96493" lon="4.5579">
        <ele>527.919</ele>
        <time>2012-10-10T11:59:25Z</time>
      </trkpt>
      <trkpt lat="45.96493" lon="4.5579">
        <ele>527.983</ele>
        <time>2012-10-10T11:59:26Z</time>
      </trkpt>
      <trkpt lat="45.96493" lon="4.5579">
        <ele>531.034</ele>
        <time>2012-10-10T11:59:38Z</time>
      </trkpt>
      <trkpt lat="45.96493" lon="4.5579">
        <ele>530.979</ele>
        <time>2012-10-10T11:59:49Z</time>
      </trkpt>
      <trkpt lat="45.96493" lon="4.5579">
        <ele>531.433</ele>
        <time>2012-10-10T11:59:55Z</time>
      </trkpt>
      <trkpt lat="45.96493" lon="4.5579">
        <ele>532.367</ele>
        <time>2012-10-10T12:00:04Z</time>
      </trkpt>
      <trkpt lat="45.96493" lon="4.5579">
        <ele>533.442</ele>
        <time>2012-10-10T12:00:17Z</time>
      </trkpt>
      <trkpt lat="45.96493" lon="4.5579">
        <ele>535.106</ele>
        <time>2012-10-10T12:00:33Z</time>
      </trkpt>
      <trkpt lat="45.96493" lon="4.5579">
        <ele>536.668</ele>
        <time>2012-10-10T12:00:43Z</time>
      </trkpt>
      <trkpt lat="45.96493" lon="4.5579">
        <ele>538.923</ele>
        <time>2012-10-10T12:00:54Z</time>
      </trkpt>
      <trkpt lat="45.9652" lon="4.55873">
        <ele>540.292</ele>
        <time>2012-10-10T12:01:24Z</time>
      </trkpt>
      <trkpt lat="45.9652" lon="4.55873">
        <ele>541.194</ele>
        <time>2012-10-10T12:01:36Z</time>
      </trkpt>
      <trkpt lat="45.9652" lon="4.55873">
        <ele>544.015</ele>
        <time>2012-10-10T12:01:50Z</time>
      </trkpt>
      <trkpt lat="45.9652" lon="4.55873">
        <ele>545.797</ele>
        <time>2012-10-10T12:02:06Z</time>
      </trkpt>
      <trkpt lat="45.9652" lon="4.55873">
        <ele>547.087</ele>
        <time>2012-10-10T12:02:17Z</time>
      </trkpt>
      <trkpt lat="45.96539" lon="4.55926">
        <ele>549.433</ele>
        <time>2012-10-10T12:02:31Z</time>
      </trkpt>
      <trkpt lat="45.96539" lon="4.55926">
        <ele>549.725</ele>
        <time>2012-10-10T12:02:51Z</time>
      </trkpt>
      <trkpt lat="45.96548" lon="4.55948">
        <ele>549.904</ele>
        <time>2012-10-10T12:03:02Z</time>
      </trkpt>
      <trkpt lat="45.9655" lon="4.55952">
        <ele>549.957</ele>
        <time>2012-10-10T12:03:14Z</time>
      </trkpt>
      <trkpt lat="45.9655" lon="4.55952">
        <ele>550.139</ele>
        <time>2012-10-10T12:03:47Z</time>
      </trkpt>
      <trkpt lat="45.96557" lon="4.55965">
        <ele>551.062</ele>
        <time>2012-10-10T12:03:52Z</time>
      </trkpt>
      <trkpt lat="45.9656" lon="4.55971">
        <ele>551.519</ele>
        <time>2012-10-10T12:03:57Z</time>
      </trkpt>
      <trkpt lat="45.96563" lon="4.55975">
        <ele>551.929</ele>
        <time>2012-10-10T12:03:59Z</time>
      </trkpt>
      <trkpt lat="45.96565" lon="4.5598">
        <ele>552.26</ele>
        <time>2012-10-10T12:04:04Z</time>
      </trkpt>
      <trkpt lat="45.96565" lon="4.5598">
        <ele>552.571</ele>
        <time>2012-10-10T12:04:06Z</time>
      </trkpt>
      <trkpt lat="45.96575" lon="4.55998">
        <ele>553.689</ele>
        <time>2012-10-10T12:04:18Z</time>
      </trkpt>
      <trkpt lat="45.96578" lon="4.56004">
        <ele>554.534</ele>
        <time>2012-10-10T12:04:20Z</time>
      </trkpt>
      <trkpt lat="45.96588" lon="4.56027">
        <ele>555.443</ele>
        <time>2012-10-10T12:04:34Z</time>
      </trkpt>
      <trkpt lat="45.96599" lon="4.56043">
        <ele>556.251</ele>
        <time>2012-10-10T12:04:46Z</time>
      </trkpt>
      <trkpt lat="45.966" lon="4.56044">
        <ele>558.423</ele>
        <time>2012-10-10T12:04:56Z</time>
      </trkpt>
      <trkpt lat="45.966" lon="4.56044">
        <ele>558.853</ele>
        <time>2012-10-10T12:05:11Z</time>
      </trkpt>
      <trkpt lat="45.966" lon="4.56044">
        <ele>560.418</ele>
        <time>2012-10-10T12:05:20Z</time>
      </trkpt>
      <trkpt lat="45.966" lon="4.56044">
        <ele>560.919</ele>
        <time>2012-10-10T12:05:29Z</time>
      </trkpt>
      <trkpt lat="45.966" lon="4.56044">
        <ele>560.626</ele>
        <time>2012-10-10T12:05:34Z</time>
      </trkpt>
      <trkpt lat="45.96632" lon="4.56071">
        <ele>561.851</ele>
        <time>2012-10-10T12:05:46Z</time>
      </trkpt>
      <trkpt lat="45.96632" lon="4.56071">
        <ele>561.291</ele>
        <time>2012-10-10T12:05:51Z</time>
      </trkpt>
      <trkpt lat="45.96632" lon="4.56071">
        <ele>561.901</ele>
        <time>2012-10-10T12:06:02Z</time>
      </trkpt>
      <trkpt lat="45.96632" lon="4.56071">
        <ele>561.964</ele>
        <time>2012-10-10T12:06:10Z</time>
      </trkpt>
      <trkpt lat="45.96644" lon="4.56096">
        <ele>562.08</ele>
        <time>2012-10-10T12:06:22Z</time>
      </trkpt>
      <trkpt lat="45.96656" lon="4.56117">
        <ele>562.667</ele>
        <time>2012-10-10T12:06:33Z</time>
      </trkpt>
      <trkpt lat="45.96667" lon="4.56146">
        <ele>563.627</ele>
        <time>2012-10-10T12:06:44Z</time>
      </trkpt>
      <trkpt lat="45.96678" lon="4.56177">
        <ele>563.482</ele>
        <time>2012-10-10T12:06:55Z</time>
      </trkpt>
      <trkpt lat="45.96688" lon="4.56207">
        <ele>563.814</ele>
        <time>2012-10-10T12:07:06Z</time>
      </trkpt>
      <trkpt lat="45.96688" lon="4.56207">
        <ele>563.011</ele>
        <time>2012-10-10T12:07:13Z</time>
      </trkpt>
      <trkpt lat="45.96688" lon="4.56207">
        <ele>562.718</ele>
        <time>2012-10-10T12:07:18Z</time>
      </trkpt>
      <trkpt lat="45.96715" lon="4.5623">
        <ele>562.896</ele>
        <time>2012-10-10T12:07:27Z</time>
      </trkpt>
      <trkpt lat="45.96721" lon="4.56236">
        <ele>562.301</ele>
        <time>2012-10-10T12:07:29Z</time>
      </trkpt>
      <trkpt lat="45.96754" lon="4.56265">
        <ele>559.411</ele>
        <time>2012-10-10T12:07:39Z</time>
      </trkpt>
      <trkpt lat="45.96781" lon="4.5629">
        <ele>557.887</ele>
        <time>2012-10-10T12:07:46Z</time>
      </trkpt>
      <trkpt lat="45.96814" lon="4.56329">
        <ele>555.531</ele>
        <time>2012-10-10T12:07:57Z</time>
      </trkpt>
      <trkpt lat="45.96838" lon="4.56352">
        <ele>553.107</ele>
        <time>2012-10-10T12:08:07Z</time>
      </trkpt>
      <trkpt lat="45.96882" lon="4.56367">
        <ele>551.134</ele>
        <time>2012-10-10T12:08:18Z</time>
      </trkpt>
      <trkpt lat="45.96938" lon="4.56399">
        <ele>551.586</ele>
        <time>2012-10-10T12:08:31Z</time>
      </trkpt>
      <trkpt lat="45.96974" lon="4.56433">
        <ele>553.003</ele>
        <time>2012-10-10T12:08:41Z</time>
      </trkpt>
      <trkpt lat="45.97012" lon="4.56458">
        <ele>556.049</ele>
        <time>2012-10-10T12:08:53Z</time>
      </trkpt>
      <trkpt lat="45.97042" lon="4.56467">
        <ele>556.527</ele>
        <time>2012-10-10T12:09:05Z</time>
      </trkpt>
      <trkpt lat="45.97098" lon="4.56462">
        <ele>556.563</ele>
        <time>2012-10-10T12:09:17Z</time>
      </trkpt>
      <trkpt lat="45.97155" lon="4.56449">
        <ele>557.193</ele>
        <time>2012-10-10T12:09:32Z</time>
      </trkpt>
      <trkpt lat="45.97196" lon="4.56435">
        <ele>558.318</ele>
        <time>2012-10-10T12:09:45Z</time>
      </trkpt>
      <trkpt lat="45.97237" lon="4.56417">
        <ele>561.779</ele>
        <time>2012-10-10T12:10:00Z</time>
      </trkpt>
      <trkpt lat="45.97257" lon="4.56407">
        <ele>564.889</ele>
        <time>2012-10-10T12:10:09Z</time>
      </trkpt>
      <trkpt lat="45.97284" lon="4.5639">
        <ele>566.303</ele>
        <time>2012-10-10T12:10:21Z</time>
      </trkpt>
      <trkpt lat="45.97307" lon="4.56377">
        <ele>568.944</ele>
        <time>2012-10-10T12:10:32Z</time>
      </trkpt>
      <trkpt lat="45.97328" lon="4.56366">
        <ele>571.266</ele>
        <time>2012-10-10T12:10:43Z</time>
      </trkpt>
      <trkpt lat="45.97357" lon="4.56353">
        <ele>573.122</ele>
        <time>2012-10-10T12:10:58Z</time>
      </trkpt>
      <trkpt lat="45.97378" lon="4.56346">
        <ele>575.609</ele>
        <time>2012-10-10T12:11:09Z</time>
      </trkpt>
      <trkpt lat="45.97405" lon="4.56342">
        <ele>577.121</ele>
        <time>2012-10-10T12:11:22Z</time>
      </trkpt>
      <trkpt lat="45.9743" lon="4.5634">
        <ele>575.693</ele>
        <time>2012-10-10T12:11:34Z</time>
      </trkpt>
      <trkpt lat="45.97442" lon="4.56341">
        <ele>576.169</ele>
        <time>2012-10-10T12:11:44Z</time>
      </trkpt>
      <trkpt lat="45.97463" lon="4.56342">
        <ele>579.495</ele>
        <time>2012-10-10T12:11:54Z</time>
      </trkpt>
      <trkpt lat="45.97492" lon="4.56345">
        <ele>582.776</ele>
        <time>2012-10-10T12:12:07Z</time>
      </trkpt>
      <trkpt lat="45.97511" lon="4.56344">
        <ele>583.486</ele>
        <time>2012-10-10T12:12:17Z</time>
      </trkpt>
      <trkpt lat="45.97532" lon="4.56336">
        <ele>587.084</ele>
        <time>2012-10-10T12:12:29Z</time>
      </trkpt>
      <trkpt lat="45.97532" lon="4.56336">
        <ele>587.459</ele>
        <time>2012-10-10T12:12:30Z</time>
      </trkpt>
      <trkpt lat="45.97537" lon="4.56336">
        <ele>591.437</ele>
        <time>2012-10-10T12:12:36Z</time>
      </trkpt>
      <trkpt lat="45.97508" lon="4.56345">
        <ele>586.594</ele>
        <time>2012-10-10T12:12:47Z</time>
      </trkpt>
      <trkpt lat="45.97507" lon="4.56345">
        <ele>586.289</ele>
        <time>2012-10-10T12:12:48Z</time>
      </trkpt>
      <trkpt lat="45.97516" lon="4.56343">
        <ele>583.892</ele>
        <time>2012-10-10T12:12:55Z</time>
      </trkpt>
      <trkpt lat="45.97527" lon="4.56337">
        <ele>582.803</ele>
        <time>2012-10-10T12:12:58Z</time>
      </trkpt>
      <trkpt lat="45.97542" lon="4.56295">
        <ele>580.339</ele>
        <time>2012-10-10T12:13:08Z</time>
      </trkpt>
      <trkpt lat="45.9758" lon="4.56279">
        <ele>577.848</ele>
        <time>2012-10-10T12:13:16Z</time>
      </trkpt>
      <trkpt lat="45.97611" lon="4.56265">
        <ele>578.898</ele>
        <time>2012-10-10T12:13:26Z</time>
      </trkpt>
      <trkpt lat="45.9764" lon="4.5626">
        <ele>578.054</ele>
        <time>2012-10-10T12:13:35Z</time>
      </trkpt>
      <trkpt lat="45.97676" lon="4.56277">
        <ele>579.645</ele>
        <time>2012-10-10T12:13:46Z</time>
      </trkpt>
      <trkpt lat="45.97704" lon="4.56296">
        <ele>581.452</ele>
        <time>2012-10-10T12:13:55Z</time>
      </trkpt>
      <trkpt lat="45.97739" lon="4.56316">
        <ele>580.655</ele>
        <time>2012-10-10T12:14:05Z</time>
      </trkpt>
      <trkpt lat="45.97772" lon="4.56325">
        <ele>579.524</ele>
        <time>2012-10-10T12:14:17Z</time>
      </trkpt>
      <trkpt lat="45.97802" lon="4.56322">
        <ele>582.814</ele>
        <time>2012-10-10T12:14:28Z</time>
      </trkpt>
      <trkpt lat="45.97834" lon="4.56304">
        <ele>584.472</ele>
        <time>2012-10-10T12:14:40Z</time>
      </trkpt>
      <trkpt lat="45.97856" lon="4.56279">
        <ele>582.058</ele>
        <time>2012-10-10T12:14:48Z</time>
      </trkpt>
      <trkpt lat="45.97876" lon="4.56253">
        <ele>581.909</ele>
        <time>2012-10-10T12:14:54Z</time>
      </trkpt>
      <trkpt lat="45.97883" lon="4.56245">
        <ele>582.211</ele>
        <time>2012-10-10T12:14:56Z</time>
      </trkpt>
      <trkpt lat="45.97916" lon="4.56215">
        <ele>578.33</ele>
        <time>2012-10-10T12:15:04Z</time>
      </trkpt>
      <trkpt lat="45.97964" lon="4.56197">
        <ele>575.503</ele>
        <time>2012-10-10T12:15:13Z</time>
      </trkpt>
      <trkpt lat="45.97987" lon="4.56185">
        <ele>576.863</ele>
        <time>2012-10-10T12:15:20Z</time>
      </trkpt>
      <trkpt lat="45.97995" lon="4.56177">
        <ele>574.158</ele>
        <time>2012-10-10T12:15:25Z</time>
      </trkpt>
      <trkpt lat="45.98002" lon="4.5617">
        <ele>573.9</ele>
        <time>2012-10-10T12:15:32Z</time>
      </trkpt>
      <trkpt lat="45.98008" lon="4.56163">
        <ele>574.626</ele>
        <time>2012-10-10T12:15:36Z</time>
      </trkpt>
      <trkpt lat="45.98013" lon="4.56158">
        <ele>575.285</ele>
        <time>2012-10-10T12:15:40Z</time>
      </trkpt>
      <trkpt lat="45.98019" lon="4.56148">
        <ele>578.702</ele>
        <time>2012-10-10T12:15:49Z</time>
      </trkpt>
      <trkpt lat="45.98032" lon="4.56123">
        <ele>582.962</ele>
        <time>2012-10-10T12:16:04Z</time>
      </trkpt>
      <trkpt lat="45.98032" lon="4.56123">
        <ele>583.879</ele>
        <time>2012-10-10T12:16:08Z</time>
      </trkpt>
      <trkpt lat="45.98034" lon="4.56091">
        <ele>585.286</ele>
        <time>2012-10-10T12:16:19Z</time>
      </trkpt>
      <trkpt lat="45.98034" lon="4.56088">
        <ele>585.49</ele>
        <time>2012-10-10T12:16:23Z</time>
      </trkpt>
      <trkpt lat="45.98035" lon="4.56066">
        <ele>586.245</ele>
        <time>2012-10-10T12:16:32Z</time>
      </trkpt>
      <trkpt lat="45.98035" lon="4.56061">
        <ele>585.565</ele>
        <time>2012-10-10T12:16:34Z</time>
      </trkpt>
      <trkpt lat="45.98045" lon="4.56028">
        <ele>586.927</ele>
        <time>2012-10-10T12:16:48Z</time>
      </trkpt>
      <trkpt lat="45.9806" lon="4.56004">
        <ele>588.495</ele>
        <time>2012-10-10T12:16:58Z</time>
      </trkpt>
      <trkpt lat="45.98069" lon="4.55993">
        <ele>589.096</ele>
        <time>2012-10-10T12:17:07Z</time>
      </trkpt>
      <trkpt lat="45.98069" lon="4.55993">
        <ele>588.985</ele>
        <time>2012-10-10T12:17:30Z</time>
      </trkpt>
      <trkpt lat="45.98088" lon="4.55971">
        <ele>590.809</ele>
        <time>2012-10-10T12:17:42Z</time>
      </trkpt>
      <trkpt lat="45.98119" lon="4.55949">
        <ele>590.645</ele>
        <time>2012-10-10T12:17:58Z</time>
      </trkpt>
      <trkpt lat="45.98151" lon="4.55937">
        <ele>591.398</ele>
        <time>2012-10-10T12:18:08Z</time>
      </trkpt>
      <trkpt lat="45.98181" lon="4.55937">
        <ele>588.794</ele>
        <time>2012-10-10T12:18:18Z</time>
      </trkpt>
      <trkpt lat="45.98207" lon="4.55941">
        <ele>588.267</ele>
        <time>2012-10-10T12:18:27Z</time>
      </trkpt>
      <trkpt lat="45.98233" lon="4.55948">
        <ele>587.749</ele>
        <time>2012-10-10T12:18:36Z</time>
      </trkpt>
      <trkpt lat="45.9826" lon="4.55958">
        <ele>586.434</ele>
        <time>2012-10-10T12:18:46Z</time>
      </trkpt>
      <trkpt lat="45.98281" lon="4.55965">
        <ele>584.729</ele>
        <time>2012-10-10T12:19:00Z</time>
      </trkpt>
      <trkpt lat="45.98314" lon="4.55976">
        <ele>584.921</ele>
        <time>2012-10-10T12:19:08Z</time>
      </trkpt>
      <trkpt lat="45.98345" lon="4.5599">
        <ele>587.098</ele>
        <time>2012-10-10T12:19:15Z</time>
      </trkpt>
      <trkpt lat="45.98363" lon="4.5597">
        <ele>593.862</ele>
        <time>2012-10-10T12:19:23Z</time>
      </trkpt>
      <trkpt lat="45.98365" lon="4.55967">
        <ele>594.822</ele>
        <time>2012-10-10T12:19:26Z</time>
      </trkpt>
      <trkpt lat="45.98386" lon="4.55937">
        <ele>595.411</ele>
        <time>2012-10-10T12:19:38Z</time>
      </trkpt>
      <trkpt lat="45.98391" lon="4.55932">
        <ele>596.008</ele>
        <time>2012-10-10T12:19:41Z</time>
      </trkpt>
      <trkpt lat="45.98396" lon="4.5593">
        <ele>595.613</ele>
        <time>2012-10-10T12:19:44Z</time>
      </trkpt>
      <trkpt lat="45.98398" lon="4.55929">
        <ele>593.609</ele>
        <time>2012-10-10T12:19:50Z</time>
      </trkpt>
      <trkpt lat="45.9841" lon="4.55924">
        <ele>593.049</ele>
        <time>2012-10-10T12:20:00Z</time>
      </trkpt>
      <trkpt lat="45.9843" lon="4.55927">
        <ele>594.454</ele>
        <time>2012-10-10T12:20:11Z</time>
      </trkpt>
      <trkpt lat="45.98447" lon="4.55939">
        <ele>593.445</ele>
        <time>2012-10-10T12:20:23Z</time>
      </trkpt>
      <trkpt lat="45.98448" lon="4.55939">
        <ele>592.471</ele>
        <time>2012-10-10T12:20:28Z</time>
      </trkpt>
      <trkpt lat="45.98459" lon="4.5595">
        <ele>593.852</ele>
        <time>2012-10-10T12:20:34Z</time>
      </trkpt>
      <trkpt lat="45.9847" lon="4.55964">
        <ele>595.356</ele>
        <time>2012-10-10T12:20:44Z</time>
      </trkpt>
      <trkpt lat="45.98486" lon="4.55982">
        <ele>598.412</ele>
        <time>2012-10-10T12:20:55Z</time>
      </trkpt>
      <trkpt lat="45.98496" lon="4.55992">
        <ele>599.792</ele>
        <time>2012-10-10T12:21:06Z</time>
      </trkpt>
      <trkpt lat="45.98514" lon="4.56012">
        <ele>602.675</ele>
        <time>2012-10-10T12:21:16Z</time>
      </trkpt>
      <trkpt lat="45.9852" lon="4.56015">
        <ele>603.154</ele>
        <time>2012-10-10T12:21:18Z</time>
      </trkpt>
      <trkpt lat="45.98535" lon="4.56007">
        <ele>607.125</ele>
        <time>2012-10-10T12:21:28Z</time>
      </trkpt>
      <trkpt lat="45.98537" lon="4.56005">
        <ele>607.53</ele>
        <time>2012-10-10T12:21:29Z</time>
      </trkpt>
      <trkpt lat="45.98542" lon="4.55992">
        <ele>608.036</ele>
        <time>2012-10-10T12:21:34Z</time>
      </trkpt>
      <trkpt lat="45.98546" lon="4.55978">
        <ele>608.754</ele>
        <time>2012-10-10T12:21:40Z</time>
      </trkpt>
      <trkpt lat="45.9855" lon="4.55967">
        <ele>609.179</ele>
        <time>2012-10-10T12:21:46Z</time>
      </trkpt>
      <trkpt lat="45.9855" lon="4.55967">
        <ele>608.907</ele>
        <time>2012-10-10T12:21:56Z</time>
      </trkpt>
      <trkpt lat="45.9855" lon="4.55967">
        <ele>607.189</ele>
        <time>2012-10-10T12:22:09Z</time>
      </trkpt>
      <trkpt lat="45.9855" lon="4.55967">
        <ele>608.027</ele>
        <time>2012-10-10T12:22:30Z</time>
      </trkpt>
      <trkpt lat="45.9855" lon="4.55967">
        <ele>606.868</ele>
        <time>2012-10-10T12:22:43Z</time>
      </trkpt>
      <trkpt lat="45.9855" lon="4.55967">
        <ele>607.401</ele>
        <time>2012-10-10T12:22:50Z</time>
      </trkpt>
      <trkpt lat="45.9855" lon="4.55967">
        <ele>608.323</ele>
        <time>2012-10-10T12:23:03Z</time>
      </trkpt>
      <trkpt lat="45.9855" lon="4.55967">
        <ele>608.251</ele>
        <time>2012-10-10T12:23:09Z</time>
      </trkpt>
      <trkpt lat="45.98582" lon="4.55923">
        <ele>608.567</ele>
        <time>2012-10-10T12:23:21Z</time>
      </trkpt>
      <trkpt lat="45.9859" lon="4.55915">
        <ele>607.896</ele>
        <time>2012-10-10T12:23:29Z</time>
      </trkpt>
      <trkpt lat="45.98601" lon="4.55905">
        <ele>609.157</ele>
        <time>2012-10-10T12:23:39Z</time>
      </trkpt>
      <trkpt lat="45.98601" lon="4.55905">
        <ele>609.844</ele>
        <time>2012-10-10T12:23:51Z</time>
      </trkpt>
      <trkpt lat="45.98621" lon="4.55892">
        <ele>611.966</ele>
        <time>2012-10-10T12:24:02Z</time>
      </trkpt>
      <trkpt lat="45.98637" lon="4.5589">
        <ele>615.058</ele>
        <time>2012-10-10T12:24:12Z</time>
      </trkpt>
      <trkpt lat="45.98649" lon="4.55892">
        <ele>615.154</ele>
        <time>2012-10-10T12:24:20Z</time>
      </trkpt>
      <trkpt lat="45.9866" lon="4.55895">
        <ele>618.465</ele>
        <time>2012-10-10T12:24:28Z</time>
      </trkpt>
      <trkpt lat="45.98679" lon="4.559">
        <ele>621.816</ele>
        <time>2012-10-10T12:24:39Z</time>
      </trkpt>
      <trkpt lat="45.98697" lon="4.55914">
        <ele>622.76</ele>
        <time>2012-10-10T12:24:51Z</time>
      </trkpt>
      <trkpt lat="45.9871" lon="4.55928">
        <ele>623.874</ele>
        <time>2012-10-10T12:25:00Z</time>
      </trkpt>
      <trkpt lat="45.98727" lon="4.55948">
        <ele>625.126</ele>
        <time>2012-10-10T12:25:11Z</time>
      </trkpt>
      <trkpt lat="45.98744" lon="4.55968">
        <ele>625.404</ele>
        <time>2012-10-10T12:25:21Z</time>
      </trkpt>
      <trkpt lat="45.98751" lon="4.55978">
        <ele>626.469</ele>
        <time>2012-10-10T12:25:28Z</time>
      </trkpt>
      <trkpt lat="45.98765" lon="4.56">
        <ele>627.181</ele>
        <time>2012-10-10T12:25:39Z</time>
      </trkpt>
      <trkpt lat="45.98776" lon="4.56014">
        <ele>628.45</ele>
        <time>2012-10-10T12:25:47Z</time>
      </trkpt>
      <trkpt lat="45.98788" lon="4.56028">
        <ele>630.193</ele>
        <time>2012-10-10T12:25:55Z</time>
      </trkpt>
      <trkpt lat="45.98806" lon="4.5605">
        <ele>630.194</ele>
        <time>2012-10-10T12:26:07Z</time>
      </trkpt>
      <trkpt lat="45.98816" lon="4.56065">
        <ele>631.281</ele>
        <time>2012-10-10T12:26:15Z</time>
      </trkpt>
      <trkpt lat="45.9883" lon="4.56086">
        <ele>632.212</ele>
        <time>2012-10-10T12:26:26Z</time>
      </trkpt>
      <trkpt lat="45.98842" lon="4.56101">
        <ele>632.031</ele>
        <time>2012-10-10T12:26:36Z</time>
      </trkpt>
      <trkpt lat="45.98856" lon="4.56117">
        <ele>632.396</ele>
        <time>2012-10-10T12:26:46Z</time>
      </trkpt>
      <trkpt lat="45.9887" lon="4.56132">
        <ele>635.255</ele>
        <time>2012-10-10T12:26:55Z</time>
      </trkpt>
      <trkpt lat="45.98879" lon="4.56143">
        <ele>637.852</ele>
        <time>2012-10-10T12:27:04Z</time>
      </trkpt>
      <trkpt lat="45.98887" lon="4.56149">
        <ele>638.464</ele>
        <time>2012-10-10T12:27:09Z</time>
      </trkpt>
      <trkpt lat="45.989" lon="4.56151">
        <ele>643.776</ele>
        <time>2012-10-10T12:27:21Z</time>
      </trkpt>
      <trkpt lat="45.98911" lon="4.56146">
        <ele>646.938</ele>
        <time>2012-10-10T12:27:29Z</time>
      </trkpt>
      <trkpt lat="45.98919" lon="4.56134">
        <ele>649.021</ele>
        <time>2012-10-10T12:27:35Z</time>
      </trkpt>
      <trkpt lat="45.98934" lon="4.56119">
        <ele>649.949</ele>
        <time>2012-10-10T12:27:45Z</time>
      </trkpt>
      <trkpt lat="45.98934" lon="4.56119">
        <ele>650.097</ele>
        <time>2012-10-10T12:27:48Z</time>
      </trkpt>
      <trkpt lat="45.98945" lon="4.56115">
        <ele>648.886</ele>
        <time>2012-10-10T12:27:57Z</time>
      </trkpt>
      <trkpt lat="45.98945" lon="4.56115">
        <ele>646.831</ele>
        <time>2012-10-10T12:28:09Z</time>
      </trkpt>
      <trkpt lat="45.98945" lon="4.56115">
        <ele>645.954</ele>
        <time>2012-10-10T12:28:19Z</time>
      </trkpt>
      <trkpt lat="45.98945" lon="4.56115">
        <ele>646.572</ele>
        <time>2012-10-10T12:28:35Z</time>
      </trkpt>
      <trkpt lat="45.98945" lon="4.56115">
        <ele>647.249</ele>
        <time>2012-10-10T12:28:45Z</time>
      </trkpt>
      <trkpt lat="45.98962" lon="4.56113">
        <ele>650.524</ele>
        <time>2012-10-10T12:28:57Z</time>
      </trkpt>
      <trkpt lat="45.98962" lon="4.56113">
        <ele>655.899</ele>
        <time>2012-10-10T12:29:11Z</time>
      </trkpt>
      <trkpt lat="45.98962" lon="4.56113">
        <ele>657.883</ele>
        <time>2012-10-10T12:29:18Z</time>
      </trkpt>
      <trkpt lat="45.98962" lon="4.56113">
        <ele>657.31</ele>
        <time>2012-10-10T12:29:30Z</time>
      </trkpt>
      <trkpt lat="45.99005" lon="4.56109">
        <ele>657.043</ele>
        <time>2012-10-10T12:29:40Z</time>
      </trkpt>
      <trkpt lat="45.99005" lon="4.56109">
        <ele>656.813</ele>
        <time>2012-10-10T12:29:54Z</time>
      </trkpt>
      <trkpt lat="45.99023" lon="4.56104">
        <ele>656.928</ele>
        <time>2012-10-10T12:30:06Z</time>
      </trkpt>
      <trkpt lat="45.99023" lon="4.56104">
        <ele>656.658</ele>
        <time>2012-10-10T12:30:07Z</time>
      </trkpt>
      <trkpt lat="45.99023" lon="4.56104">
        <ele>658.537</ele>
        <time>2012-10-10T12:30:17Z</time>
      </trkpt>
      <trkpt lat="45.99023" lon="4.56104">
        <ele>659.513</ele>
        <time>2012-10-10T12:30:21Z</time>
      </trkpt>
      <trkpt lat="45.99023" lon="4.56104">
        <ele>661</ele>
        <time>2012-10-10T12:30:31Z</time>
      </trkpt>
      <trkpt lat="45.99023" lon="4.56104">
        <ele>661.001</ele>
        <time>2012-10-10T12:30:32Z</time>
      </trkpt>
      <trkpt lat="45.99023" lon="4.56104">
        <ele>661.335</ele>
        <time>2012-10-10T12:30:34Z</time>
      </trkpt>
      <trkpt lat="45.9904" lon="4.56104">
        <ele>662.644</ele>
        <time>2012-10-10T12:30:40Z</time>
      </trkpt>
      <trkpt lat="45.99058" lon="4.56089">
        <ele>664.291</ele>
        <time>2012-10-10T12:30:48Z</time>
      </trkpt>
      <trkpt lat="45.99073" lon="4.56068">
        <ele>666.603</ele>
        <time>2012-10-10T12:31:01Z</time>
      </trkpt>
      <trkpt lat="45.99084" lon="4.56055">
        <ele>667.392</ele>
        <time>2012-10-10T12:31:11Z</time>
      </trkpt>
      <trkpt lat="45.99096" lon="4.56039">
        <ele>670.798</ele>
        <time>2012-10-10T12:31:22Z</time>
      </trkpt>
      <trkpt lat="45.99102" lon="4.56014">
        <ele>671.21</ele>
        <time>2012-10-10T12:31:33Z</time>
      </trkpt>
      <trkpt lat="45.99102" lon="4.55989">
        <ele>673.752</ele>
        <time>2012-10-10T12:31:45Z</time>
      </trkpt>
      <trkpt lat="45.99101" lon="4.55965">
        <ele>675.991</ele>
        <time>2012-10-10T12:31:55Z</time>
      </trkpt>
      <trkpt lat="45.99104" lon="4.55935">
        <ele>674.41</ele>
        <time>2012-10-10T12:32:06Z</time>
      </trkpt>
      <trkpt lat="45.99104" lon="4.55933">
        <ele>674.797</ele>
        <time>2012-10-10T12:32:07Z</time>
      </trkpt>
      <trkpt lat="45.99106" lon="4.55929">
        <ele>674.825</ele>
        <time>2012-10-10T12:32:11Z</time>
      </trkpt>
      <trkpt lat="45.99104" lon="4.55936">
        <ele>675.896</ele>
        <time>2012-10-10T12:32:15Z</time>
      </trkpt>
      <trkpt lat="45.99121" lon="4.55939">
        <ele>675.819</ele>
        <time>2012-10-10T12:32:23Z</time>
      </trkpt>
      <trkpt lat="45.99121" lon="4.55939">
        <ele>680.161</ele>
        <time>2012-10-10T12:32:37Z</time>
      </trkpt>
      <trkpt lat="45.99121" lon="4.55939">
        <ele>681.521</ele>
        <time>2012-10-10T12:32:47Z</time>
      </trkpt>
      <trkpt lat="45.99121" lon="4.55939">
        <ele>682.074</ele>
        <time>2012-10-10T12:32:57Z</time>
      </trkpt>
      <trkpt lat="45.99121" lon="4.55939">
        <ele>683.658</ele>
        <time>2012-10-10T12:33:16Z</time>
      </trkpt>
      <trkpt lat="45.99121" lon="4.55939">
        <ele>685.358</ele>
        <time>2012-10-10T12:33:34Z</time>
      </trkpt>
      <trkpt lat="45.99121" lon="4.55939">
        <ele>685.908</ele>
        <time>2012-10-10T12:33:51Z</time>
      </trkpt>
      <trkpt lat="45.99121" lon="4.55939">
        <ele>688.808</ele>
        <time>2012-10-10T12:34:05Z</time>
      </trkpt>
      <trkpt lat="45.99121" lon="4.55939">
        <ele>689.42</ele>
        <time>2012-10-10T12:34:14Z</time>
      </trkpt>
      <trkpt lat="45.99121" lon="4.55939">
        <ele>691.93</ele>
        <time>2012-10-10T12:34:24Z</time>
      </trkpt>
      <trkpt lat="45.99121" lon="4.55939">
        <ele>692.673</ele>
        <time>2012-10-10T12:34:33Z</time>
      </trkpt>
      <trkpt lat="45.99121" lon="4.55939">
        <ele>694.714</ele>
        <time>2012-10-10T12:34:54Z</time>
      </trkpt>
      <trkpt lat="45.99121" lon="4.55939">
        <ele>695.955</ele>
        <time>2012-10-10T12:35:06Z</time>
      </trkpt>
      <trkpt lat="45.99121" lon="4.55939">
        <ele>697.01</ele>
        <time>2012-10-10T12:35:43Z</time>
      </trkpt>
      <trkpt lat="45.99121" lon="4.55939">
        <ele>699.044</ele>
        <time>2012-10-10T12:36:02Z</time>
      </trkpt>
      <trkpt lat="45.99182" lon="4.56036">
        <ele>701.048</ele>
        <time>2012-10-10T12:36:14Z</time>
      </trkpt>
      <trkpt lat="45.99182" lon="4.56036">
        <ele>704.061</ele>
        <time>2012-10-10T12:36:23Z</time>
      </trkpt>
      <trkpt lat="45.99182" lon="4.56036">
        <ele>706.275</ele>
        <time>2012-10-10T12:36:34Z</time>
      </trkpt>
      <trkpt lat="45.99182" lon="4.56036">
        <ele>706.536</ele>
        <time>2012-10-10T12:36:47Z</time>
      </trkpt>
      <trkpt lat="45.99182" lon="4.56036">
        <ele>707.836</ele>
        <time>2012-10-10T12:36:58Z</time>
      </trkpt>
      <trkpt lat="45.99182" lon="4.56036">
        <ele>708.007</ele>
        <time>2012-10-10T12:37:19Z</time>
      </trkpt>
      <trkpt lat="45.99182" lon="4.56036">
        <ele>708.027</ele>
        <time>2012-10-10T12:37:28Z</time>
      </trkpt>
      <trkpt lat="45.99182" lon="4.56036">
        <ele>709.835</ele>
        <time>2012-10-10T12:37:38Z</time>
      </trkpt>
      <trkpt lat="45.99182" lon="4.56036">
        <ele>711.171</ele>
        <time>2012-10-10T12:37:49Z</time>
      </trkpt>
      <trkpt lat="45.99182" lon="4.56036">
        <ele>711.964</ele>
        <time>2012-10-10T12:37:59Z</time>
      </trkpt>
      <trkpt lat="45.99232" lon="4.56097">
        <ele>713.645</ele>
        <time>2012-10-10T12:38:34Z</time>
      </trkpt>
      <trkpt lat="45.99232" lon="4.56097">
        <ele>715.389</ele>
        <time>2012-10-10T12:38:43Z</time>
      </trkpt>
      <trkpt lat="45.99232" lon="4.56097">
        <ele>717.655</ele>
        <time>2012-10-10T12:38:54Z</time>
      </trkpt>
      <trkpt lat="45.99247" lon="4.56116">
        <ele>719.181</ele>
        <time>2012-10-10T12:39:06Z</time>
      </trkpt>
      <trkpt lat="45.99247" lon="4.56116">
        <ele>721.755</ele>
        <time>2012-10-10T12:39:17Z</time>
      </trkpt>
      <trkpt lat="45.99247" lon="4.56116">
        <ele>723.111</ele>
        <time>2012-10-10T12:39:31Z</time>
      </trkpt>
      <trkpt lat="45.99247" lon="4.56116">
        <ele>725.087</ele>
        <time>2012-10-10T12:39:53Z</time>
      </trkpt>
      <trkpt lat="45.99247" lon="4.56116">
        <ele>727.244</ele>
        <time>2012-10-10T12:40:03Z</time>
      </trkpt>
      <trkpt lat="45.99247" lon="4.56116">
        <ele>728.234</ele>
        <time>2012-10-10T12:40:19Z</time>
      </trkpt>
      <trkpt lat="45.99247" lon="4.56116">
        <ele>729.801</ele>
        <time>2012-10-10T12:40:31Z</time>
      </trkpt>
      <trkpt lat="45.99247" lon="4.56116">
        <ele>730.762</ele>
        <time>2012-10-10T12:40:41Z</time>
      </trkpt>
      <trkpt lat="45.99247" lon="4.56116">
        <ele>731.539</ele>
        <time>2012-10-10T12:40:56Z</time>
      </trkpt>
      <trkpt lat="45.99247" lon="4.56116">
        <ele>732.103</ele>
        <time>2012-10-10T12:41:00Z</time>
      </trkpt>
      <trkpt lat="45.99247" lon="4.56116">
        <ele>732.832</ele>
        <time>2012-10-10T12:41:12Z</time>
      </trkpt>
      <trkpt lat="45.99312" lon="4.56191">
        <ele>734.302</ele>
        <time>2012-10-10T12:41:23Z</time>
      </trkpt>
      <trkpt lat="45.99312" lon="4.56191">
        <ele>738.133</ele>
        <time>2012-10-10T12:41:35Z</time>
      </trkpt>
      <trkpt lat="45.99312" lon="4.56191">
        <ele>741.31</ele>
        <time>2012-10-10T12:41:49Z</time>
      </trkpt>
      <trkpt lat="45.99312" lon="4.56191">
        <ele>742.616</ele>
        <time>2012-10-10T12:41:55Z</time>
      </trkpt>
      <trkpt lat="45.99341" lon="4.56205">
        <ele>744.203</ele>
        <time>2012-10-10T12:42:06Z</time>
      </trkpt>
      <trkpt lat="45.99359" lon="4.56202">
        <ele>746.128</ele>
        <time>2012-10-10T12:42:15Z</time>
      </trkpt>
      <trkpt lat="45.99363" lon="4.56202">
        <ele>744.403</ele>
        <time>2012-10-10T12:42:22Z</time>
      </trkpt>
      <trkpt lat="45.99377" lon="4.56201">
        <ele>745.41</ele>
        <time>2012-10-10T12:42:31Z</time>
      </trkpt>
      <trkpt lat="45.99386" lon="4.56201">
        <ele>745.895</ele>
        <time>2012-10-10T12:42:35Z</time>
      </trkpt>
      <trkpt lat="45.99409" lon="4.56204">
        <ele>745.678</ele>
        <time>2012-10-10T12:42:47Z</time>
      </trkpt>
      <trkpt lat="45.99432" lon="4.56208">
        <ele>744.348</ele>
        <time>2012-10-10T12:42:59Z</time>
      </trkpt>
      <trkpt lat="45.99452" lon="4.56212">
        <ele>745.715</ele>
        <time>2012-10-10T12:43:09Z</time>
      </trkpt>
      <trkpt lat="45.99484" lon="4.5622">
        <ele>746.299</ele>
        <time>2012-10-10T12:43:21Z</time>
      </trkpt>
      <trkpt lat="45.99504" lon="4.56216">
        <ele>746.668</ele>
        <time>2012-10-10T12:43:31Z</time>
      </trkpt>
      <trkpt lat="45.99508" lon="4.56212">
        <ele>747.421</ele>
        <time>2012-10-10T12:43:36Z</time>
      </trkpt>
      <trkpt lat="45.99508" lon="4.56212">
        <ele>748.02</ele>
        <time>2012-10-10T12:43:46Z</time>
      </trkpt>
      <trkpt lat="45.99508" lon="4.56212">
        <ele>746.861</ele>
        <time>2012-10-10T12:48:13Z</time>
      </trkpt>
      <trkpt lat="45.99508" lon="4.56212">
        <ele>747.315</ele>
        <time>2012-10-10T12:48:18Z</time>
      </trkpt>
      <trkpt lat="45.99504" lon="4.56216">
        <ele>748.426</ele>
        <time>2012-10-10T12:48:25Z</time>
      </trkpt>
      <trkpt lat="45.99504" lon="4.56216">
        <ele>748.563</ele>
        <time>2012-10-10T12:48:28Z</time>
      </trkpt>
      <trkpt lat="45.99504" lon="4.56216">
        <ele>749.351</ele>
        <time>2012-10-10T12:48:39Z</time>
      </trkpt>
      <trkpt lat="45.9949" lon="4.5622">
        <ele>752.15</ele>
        <time>2012-10-10T12:49:31Z</time>
      </trkpt>
      <trkpt lat="45.9949" lon="4.5622">
        <ele>751.065</ele>
        <time>2012-10-10T12:49:35Z</time>
      </trkpt>
      <trkpt lat="45.9949" lon="4.5622">
        <ele>750.305</ele>
        <time>2012-10-10T12:49:40Z</time>
      </trkpt>
      <trkpt lat="45.9949" lon="4.5622">
        <ele>750.908</ele>
        <time>2012-10-10T12:49:47Z</time>
      </trkpt>
      <trkpt lat="45.99469" lon="4.56262">
        <ele>753.838</ele>
        <time>2012-10-10T12:49:59Z</time>
      </trkpt>
      <trkpt lat="45.99461" lon="4.56268">
        <ele>755.172</ele>
        <time>2012-10-10T12:50:11Z</time>
      </trkpt>
      <trkpt lat="45.99461" lon="4.56268">
        <ele>755.105</ele>
        <time>2012-10-10T12:50:22Z</time>
      </trkpt>
      <trkpt lat="45.99461" lon="4.56268">
        <ele>757.084</ele>
        <time>2012-10-10T12:50:35Z</time>
      </trkpt>
      <trkpt lat="45.99461" lon="4.56268">
        <ele>757.841</ele>
        <time>2012-10-10T12:50:47Z</time>
      </trkpt>
      <trkpt lat="45.99461" lon="4.56268">
        <ele>758.453</ele>
        <time>2012-10-10T12:51:00Z</time>
      </trkpt>
      <trkpt lat="45.99461" lon="4.56268">
        <ele>761.012</ele>
        <time>2012-10-10T12:51:15Z</time>
      </trkpt>
      <trkpt lat="45.99461" lon="4.56268">
        <ele>762.964</ele>
        <time>2012-10-10T12:51:26Z</time>
      </trkpt>
      <trkpt lat="45.99404" lon="4.56321">
        <ele>764.322</ele>
        <time>2012-10-10T12:51:37Z</time>
      </trkpt>
      <trkpt lat="45.9939" lon="4.56336">
        <ele>765.375</ele>
        <time>2012-10-10T12:51:49Z</time>
      </trkpt>
      <trkpt lat="45.9938" lon="4.56346">
        <ele>766.271</ele>
        <time>2012-10-10T12:51:59Z</time>
      </trkpt>
      <trkpt lat="45.99366" lon="4.56363">
        <ele>769.774</ele>
        <time>2012-10-10T12:52:12Z</time>
      </trkpt>
      <trkpt lat="45.99364" lon="4.56366">
        <ele>770.963</ele>
        <time>2012-10-10T12:52:19Z</time>
      </trkpt>
      <trkpt lat="45.99359" lon="4.56375">
        <ele>770.923</ele>
        <time>2012-10-10T12:52:22Z</time>
      </trkpt>
      <trkpt lat="45.99359" lon="4.56375">
        <ele>770.754</ele>
        <time>2012-10-10T12:52:33Z</time>
      </trkpt>
      <trkpt lat="45.99344" lon="4.56403">
        <ele>770.943</ele>
        <time>2012-10-10T12:52:40Z</time>
      </trkpt>
      <trkpt lat="45.9934" lon="4.56416">
        <ele>772.429</ele>
        <time>2012-10-10T12:52:48Z</time>
      </trkpt>
      <trkpt lat="45.99334" lon="4.56436">
        <ele>773.09</ele>
        <time>2012-10-10T12:52:58Z</time>
      </trkpt>
      <trkpt lat="45.99331" lon="4.56446">
        <ele>774.012</ele>
        <time>2012-10-10T12:53:02Z</time>
      </trkpt>
      <trkpt lat="45.99326" lon="4.56474">
        <ele>772.146</ele>
        <time>2012-10-10T12:53:13Z</time>
      </trkpt>
      <trkpt lat="45.99329" lon="4.56504">
        <ele>772.829</ele>
        <time>2012-10-10T12:53:25Z</time>
      </trkpt>
      <trkpt lat="45.99337" lon="4.56533">
        <ele>770.814</ele>
        <time>2012-10-10T12:53:34Z</time>
      </trkpt>
      <trkpt lat="45.99337" lon="4.56536">
        <ele>773.583</ele>
        <time>2012-10-10T12:53:42Z</time>
      </trkpt>
      <trkpt lat="45.99341" lon="4.56562">
        <ele>772.422</ele>
        <time>2012-10-10T12:53:55Z</time>
      </trkpt>
      <trkpt lat="45.99342" lon="4.56606">
        <ele>768.742</ele>
        <time>2012-10-10T12:54:02Z</time>
      </trkpt>
      <trkpt lat="45.99347" lon="4.56646">
        <ele>767.679</ele>
        <time>2012-10-10T12:54:08Z</time>
      </trkpt>
      <trkpt lat="45.99357" lon="4.56679">
        <ele>765.972</ele>
        <time>2012-10-10T12:54:14Z</time>
      </trkpt>
      <trkpt lat="45.99374" lon="4.56738">
        <ele>763.111</ele>
        <time>2012-10-10T12:54:23Z</time>
      </trkpt>
      <trkpt lat="45.9938" lon="4.56821">
        <ele>757.941</ele>
        <time>2012-10-10T12:54:32Z</time>
      </trkpt>
      <trkpt lat="45.99381" lon="4.56837">
        <ele>757.061</ele>
        <time>2012-10-10T12:54:34Z</time>
      </trkpt>
      <trkpt lat="45.99378" lon="4.56863">
        <ele>755.556</ele>
        <time>2012-10-10T12:54:38Z</time>
      </trkpt>
      <trkpt lat="45.99375" lon="4.56916">
        <ele>753.763</ele>
        <time>2012-10-10T12:54:46Z</time>
      </trkpt>
      <trkpt lat="45.99375" lon="4.5695">
        <ele>748.933</ele>
        <time>2012-10-10T12:54:53Z</time>
      </trkpt>
      <trkpt lat="45.99382" lon="4.56986">
        <ele>737.536</ele>
        <time>2012-10-10T12:55:01Z</time>
      </trkpt>
      <trkpt lat="45.99386" lon="4.56999">
        <ele>734.142</ele>
        <time>2012-10-10T12:55:05Z</time>
      </trkpt>
      <trkpt lat="45.99395" lon="4.57028">
        <ele>728.196</ele>
        <time>2012-10-10T12:55:13Z</time>
      </trkpt>
      <trkpt lat="45.99408" lon="4.57064">
        <ele>721.173</ele>
        <time>2012-10-10T12:55:21Z</time>
      </trkpt>
      <trkpt lat="45.99417" lon="4.57107">
        <ele>718.579</ele>
        <time>2012-10-10T12:55:30Z</time>
      </trkpt>
      <trkpt lat="45.99419" lon="4.57119">
        <ele>719.394</ele>
        <time>2012-10-10T12:55:32Z</time>
      </trkpt>
      <trkpt lat="45.99435" lon="4.57158">
        <ele>714.14</ele>
        <time>2012-10-10T12:55:39Z</time>
      </trkpt>
      <trkpt lat="45.99442" lon="4.57165">
        <ele>713.165</ele>
        <time>2012-10-10T12:55:41Z</time>
      </trkpt>
      <trkpt lat="45.99471" lon="4.57159">
        <ele>707.405</ele>
        <time>2012-10-10T12:55:49Z</time>
      </trkpt>
      <trkpt lat="45.99483" lon="4.57149">
        <ele>705.838</ele>
        <time>2012-10-10T12:55:52Z</time>
      </trkpt>
      <trkpt lat="45.99501" lon="4.57136">
        <ele>703.116</ele>
        <time>2012-10-10T12:55:57Z</time>
      </trkpt>
      <trkpt lat="45.99515" lon="4.57152">
        <ele>700.887</ele>
        <time>2012-10-10T12:56:01Z</time>
      </trkpt>
      <trkpt lat="45.99528" lon="4.57165">
        <ele>699.023</ele>
        <time>2012-10-10T12:56:04Z</time>
      </trkpt>
      <trkpt lat="45.99544" lon="4.57177">
        <ele>695.814</ele>
        <time>2012-10-10T12:56:09Z</time>
      </trkpt>
      <trkpt lat="45.99572" lon="4.57205">
        <ele>691.386</ele>
        <time>2012-10-10T12:56:17Z</time>
      </trkpt>
      <trkpt lat="45.99593" lon="4.57226">
        <ele>688.493</ele>
        <time>2012-10-10T12:56:23Z</time>
      </trkpt>
      <trkpt lat="45.99594" lon="4.57231">
        <ele>686.736</ele>
        <time>2012-10-10T12:56:29Z</time>
      </trkpt>
      <trkpt lat="45.99594" lon="4.57231">
        <ele>681.324</ele>
        <time>2012-10-10T12:56:50Z</time>
      </trkpt>
      <trkpt lat="45.99592" lon="4.57261">
        <ele>680.838</ele>
        <time>2012-10-10T12:56:58Z</time>
      </trkpt>
      <trkpt lat="45.99592" lon="4.57261">
        <ele>679.93</ele>
        <time>2012-10-10T12:57:02Z</time>
      </trkpt>
      <trkpt lat="45.99538" lon="4.57339">
        <ele>678.352</ele>
        <time>2012-10-10T12:57:06Z</time>
      </trkpt>
      <trkpt lat="45.99538" lon="4.57349">
        <ele>676.681</ele>
        <time>2012-10-10T12:57:11Z</time>
      </trkpt>
      <trkpt lat="45.99525" lon="4.57381">
        <ele>673.548</ele>
        <time>2012-10-10T12:57:18Z</time>
      </trkpt>
      <trkpt lat="45.99516" lon="4.574">
        <ele>668.881</ele>
        <time>2012-10-10T12:57:27Z</time>
      </trkpt>
      <trkpt lat="45.99511" lon="4.57409">
        <ele>668.744</ele>
        <time>2012-10-10T12:57:30Z</time>
      </trkpt>
      <trkpt lat="45.99505" lon="4.57443">
        <ele>666.127</ele>
        <time>2012-10-10T12:57:36Z</time>
      </trkpt>
      <trkpt lat="45.99504" lon="4.57449">
        <ele>665.734</ele>
        <time>2012-10-10T12:57:38Z</time>
      </trkpt>
      <trkpt lat="45.99499" lon="4.57486">
        <ele>662.11</ele>
        <time>2012-10-10T12:57:48Z</time>
      </trkpt>
      <trkpt lat="45.99497" lon="4.57498">
        <ele>658.724</ele>
        <time>2012-10-10T12:57:54Z</time>
      </trkpt>
      <trkpt lat="45.99496" lon="4.575">
        <ele>655.5</ele>
        <time>2012-10-10T12:58:00Z</time>
      </trkpt>
      <trkpt lat="45.99495" lon="4.57517">
        <ele>652.976</ele>
        <time>2012-10-10T12:58:09Z</time>
      </trkpt>
      <trkpt lat="45.99475" lon="4.5754">
        <ele>647.11</ele>
        <time>2012-10-10T12:58:17Z</time>
      </trkpt>
      <trkpt lat="45.99461" lon="4.57572">
        <ele>640.476</ele>
        <time>2012-10-10T12:58:26Z</time>
      </trkpt>
      <trkpt lat="45.99442" lon="4.57595">
        <ele>636.399</ele>
        <time>2012-10-10T12:58:33Z</time>
      </trkpt>
      <trkpt lat="45.9944" lon="4.57597">
        <ele>632.012</ele>
        <time>2012-10-10T12:58:35Z</time>
      </trkpt>
      <trkpt lat="45.99431" lon="4.5761">
        <ele>626.516</ele>
        <time>2012-10-10T12:58:42Z</time>
      </trkpt>
      <trkpt lat="45.99419" lon="4.57633">
        <ele>622.544</ele>
        <time>2012-10-10T12:58:50Z</time>
      </trkpt>
      <trkpt lat="45.99402" lon="4.57672">
        <ele>616.389</ele>
        <time>2012-10-10T12:58:59Z</time>
      </trkpt>
      <trkpt lat="45.9939" lon="4.57698">
        <ele>610.938</ele>
        <time>2012-10-10T12:59:06Z</time>
      </trkpt>
      <trkpt lat="45.99378" lon="4.57721">
        <ele>605.2</ele>
        <time>2012-10-10T12:59:13Z</time>
      </trkpt>
      <trkpt lat="45.99359" lon="4.57762">
        <ele>598.671</ele>
        <time>2012-10-10T12:59:21Z</time>
      </trkpt>
      <trkpt lat="45.99353" lon="4.57769">
        <ele>597.071</ele>
        <time>2012-10-10T12:59:23Z</time>
      </trkpt>
      <trkpt lat="45.99336" lon="4.57801">
        <ele>592.93</ele>
        <time>2012-10-10T12:59:27Z</time>
      </trkpt>
      <trkpt lat="45.99321" lon="4.5783">
        <ele>589.336</ele>
        <time>2012-10-10T12:59:32Z</time>
      </trkpt>
      <trkpt lat="45.99298" lon="4.57858">
        <ele>588.402</ele>
        <time>2012-10-10T12:59:38Z</time>
      </trkpt>
      <trkpt lat="45.99258" lon="4.57921">
        <ele>583.4</ele>
        <time>2012-10-10T12:59:49Z</time>
      </trkpt>
      <trkpt lat="45.99233" lon="4.5795">
        <ele>576.337</ele>
        <time>2012-10-10T12:59:55Z</time>
      </trkpt>
      <trkpt lat="45.99215" lon="4.57974">
        <ele>571.242</ele>
        <time>2012-10-10T13:00:01Z</time>
      </trkpt>
      <trkpt lat="45.99196" lon="4.58">
        <ele>570.939</ele>
        <time>2012-10-10T13:00:06Z</time>
      </trkpt>
      <trkpt lat="45.99148" lon="4.58088">
        <ele>568.947</ele>
        <time>2012-10-10T13:00:18Z</time>
      </trkpt>
      <trkpt lat="45.99138" lon="4.58109">
        <ele>567.099</ele>
        <time>2012-10-10T13:00:21Z</time>
      </trkpt>
      <trkpt lat="45.99131" lon="4.58121">
        <ele>565.729</ele>
        <time>2012-10-10T13:00:23Z</time>
      </trkpt>
      <trkpt lat="45.99128" lon="4.58167">
        <ele>559.422</ele>
        <time>2012-10-10T13:00:30Z</time>
      </trkpt>
      <trkpt lat="45.99133" lon="4.58191">
        <ele>557.391</ele>
        <time>2012-10-10T13:00:33Z</time>
      </trkpt>
      <trkpt lat="45.9915" lon="4.58224">
        <ele>553.023</ele>
        <time>2012-10-10T13:00:38Z</time>
      </trkpt>
      <trkpt lat="45.99208" lon="4.58294">
        <ele>546.416</ele>
        <time>2012-10-10T13:00:48Z</time>
      </trkpt>
      <trkpt lat="45.99233" lon="4.58324">
        <ele>544.854</ele>
        <time>2012-10-10T13:00:53Z</time>
      </trkpt>
      <trkpt lat="45.99257" lon="4.58387">
        <ele>536.488</ele>
        <time>2012-10-10T13:01:00Z</time>
      </trkpt>
      <trkpt lat="45.99267" lon="4.58504">
        <ele>533.626</ele>
        <time>2012-10-10T13:01:11Z</time>
      </trkpt>
      <trkpt lat="45.99269" lon="4.58537">
        <ele>531.026</ele>
        <time>2012-10-10T13:01:14Z</time>
      </trkpt>
      <trkpt lat="45.99287" lon="4.58597">
        <ele>531.751</ele>
        <time>2012-10-10T13:01:20Z</time>
      </trkpt>
      <trkpt lat="45.99293" lon="4.58625">
        <ele>530.425</ele>
        <time>2012-10-10T13:01:23Z</time>
      </trkpt>
      <trkpt lat="45.99291" lon="4.58706">
        <ele>532.734</ele>
        <time>2012-10-10T13:01:33Z</time>
      </trkpt>
      <trkpt lat="45.99294" lon="4.58743">
        <ele>531.695</ele>
        <time>2012-10-10T13:01:38Z</time>
      </trkpt>
      <trkpt lat="45.99289" lon="4.58791">
        <ele>531.011</ele>
        <time>2012-10-10T13:01:44Z</time>
      </trkpt>
      <trkpt lat="45.99255" lon="4.58868">
        <ele>532.603</ele>
        <time>2012-10-10T13:01:56Z</time>
      </trkpt>
      <trkpt lat="45.99226" lon="4.58951">
        <ele>527.387</ele>
        <time>2012-10-10T13:02:06Z</time>
      </trkpt>
      <trkpt lat="45.99197" lon="4.59051">
        <ele>524.124</ele>
        <time>2012-10-10T13:02:15Z</time>
      </trkpt>
      <trkpt lat="45.99192" lon="4.59073">
        <ele>522.409</ele>
        <time>2012-10-10T13:02:17Z</time>
      </trkpt>
      <trkpt lat="45.99187" lon="4.59177">
        <ele>517.398</ele>
        <time>2012-10-10T13:02:27Z</time>
      </trkpt>
      <trkpt lat="45.9917" lon="4.59287">
        <ele>514.076</ele>
        <time>2012-10-10T13:02:38Z</time>
      </trkpt>
      <trkpt lat="45.99167" lon="4.59295">
        <ele>514.181</ele>
        <time>2012-10-10T13:02:39Z</time>
      </trkpt>
      <trkpt lat="45.99148" lon="4.59329">
        <ele>514.302</ele>
        <time>2012-10-10T13:02:44Z</time>
      </trkpt>
      <trkpt lat="45.99152" lon="4.59339">
        <ele>516.785</ele>
        <time>2012-10-10T13:02:50Z</time>
      </trkpt>
      <trkpt lat="45.99162" lon="4.59341">
        <ele>516.326</ele>
        <time>2012-10-10T13:02:54Z</time>
      </trkpt>
      <trkpt lat="45.99192" lon="4.59349">
        <ele>517.316</ele>
        <time>2012-10-10T13:03:04Z</time>
      </trkpt>
      <trkpt lat="45.9921" lon="4.59354">
        <ele>517.786</ele>
        <time>2012-10-10T13:03:13Z</time>
      </trkpt>
      <trkpt lat="45.99228" lon="4.59359">
        <ele>519.839</ele>
        <time>2012-10-10T13:03:23Z</time>
      </trkpt>
      <trkpt lat="45.9924" lon="4.59362">
        <ele>519.082</ele>
        <time>2012-10-10T13:03:32Z</time>
      </trkpt>
      <trkpt lat="45.99259" lon="4.59367">
        <ele>518.872</ele>
        <time>2012-10-10T13:03:41Z</time>
      </trkpt>
      <trkpt lat="45.99282" lon="4.59374">
        <ele>516.507</ele>
        <time>2012-10-10T13:03:50Z</time>
      </trkpt>
      <trkpt lat="45.9932" lon="4.59386">
        <ele>513.775</ele>
        <time>2012-10-10T13:04:01Z</time>
      </trkpt>
      <trkpt lat="45.9935" lon="4.59395">
        <ele>512.455</ele>
        <time>2012-10-10T13:04:09Z</time>
      </trkpt>
      <trkpt lat="45.99376" lon="4.59413">
        <ele>508.183</ele>
        <time>2012-10-10T13:04:17Z</time>
      </trkpt>
      <trkpt lat="45.99379" lon="4.59416">
        <ele>507.82</ele>
        <time>2012-10-10T13:04:18Z</time>
      </trkpt>
      <trkpt lat="45.99425" lon="4.59459">
        <ele>498.776</ele>
        <time>2012-10-10T13:04:29Z</time>
      </trkpt>
      <trkpt lat="45.99429" lon="4.59492">
        <ele>494.725</ele>
        <time>2012-10-10T13:04:35Z</time>
      </trkpt>
      <trkpt lat="45.99431" lon="4.5952">
        <ele>493.623</ele>
        <time>2012-10-10T13:04:39Z</time>
      </trkpt>
      <trkpt lat="45.99432" lon="4.59543">
        <ele>493.062</ele>
        <time>2012-10-10T13:04:42Z</time>
      </trkpt>
      <trkpt lat="45.99435" lon="4.59626">
        <ele>494.119</ele>
        <time>2012-10-10T13:04:52Z</time>
      </trkpt>
      <trkpt lat="45.9944" lon="4.59726">
        <ele>492.369</ele>
        <time>2012-10-10T13:05:05Z</time>
      </trkpt>
      <trkpt lat="45.99445" lon="4.59798">
        <ele>491.561</ele>
        <time>2012-10-10T13:05:17Z</time>
      </trkpt>
      <trkpt lat="45.99457" lon="4.59852">
        <ele>492.294</ele>
        <time>2012-10-10T13:05:28Z</time>
      </trkpt>
      <trkpt lat="45.99467" lon="4.59937">
        <ele>486.702</ele>
        <time>2012-10-10T13:05:40Z</time>
      </trkpt>
      <trkpt lat="45.99469" lon="4.59967">
        <ele>484.842</ele>
        <time>2012-10-10T13:05:44Z</time>
      </trkpt>
      <trkpt lat="45.99465" lon="4.60045">
        <ele>481.407</ele>
        <time>2012-10-10T13:05:53Z</time>
      </trkpt>
      <trkpt lat="45.99465" lon="4.60109">
        <ele>478.098</ele>
        <time>2012-10-10T13:06:00Z</time>
      </trkpt>
      <trkpt lat="45.99465" lon="4.60141">
        <ele>477.03</ele>
        <time>2012-10-10T13:06:04Z</time>
      </trkpt>
      <trkpt lat="45.99465" lon="4.60202">
        <ele>475.728</ele>
        <time>2012-10-10T13:06:15Z</time>
      </trkpt>
      <trkpt lat="45.99461" lon="4.60259">
        <ele>473.029</ele>
        <time>2012-10-10T13:06:27Z</time>
      </trkpt>
      <trkpt lat="45.99451" lon="4.60322">
        <ele>471.639</ele>
        <time>2012-10-10T13:06:40Z</time>
      </trkpt>
      <trkpt lat="45.99441" lon="4.60386">
        <ele>468.375</ele>
        <time>2012-10-10T13:06:51Z</time>
      </trkpt>
      <trkpt lat="45.99433" lon="4.60431">
        <ele>466.346</ele>
        <time>2012-10-10T13:06:58Z</time>
      </trkpt>
      <trkpt lat="45.99432" lon="4.6047">
        <ele>462.088</ele>
        <time>2012-10-10T13:07:07Z</time>
      </trkpt>
      <trkpt lat="45.9944" lon="4.60501">
        <ele>460.04</ele>
        <time>2012-10-10T13:07:13Z</time>
      </trkpt>
      <trkpt lat="45.99415" lon="4.60574">
        <ele>458.746</ele>
        <time>2012-10-10T13:07:26Z</time>
      </trkpt>
      <trkpt lat="45.99409" lon="4.60617">
        <ele>461.687</ele>
        <time>2012-10-10T13:07:34Z</time>
      </trkpt>
      <trkpt lat="45.99402" lon="4.6065">
        <ele>465.006</ele>
        <time>2012-10-10T13:07:41Z</time>
      </trkpt>
      <trkpt lat="45.99391" lon="4.6069">
        <ele>471.196</ele>
        <time>2012-10-10T13:07:51Z</time>
      </trkpt>
      <trkpt lat="45.99381" lon="4.60721">
        <ele>468.303</ele>
        <time>2012-10-10T13:08:00Z</time>
      </trkpt>
      <trkpt lat="45.99379" lon="4.60726">
        <ele>468.01</ele>
        <time>2012-10-10T13:08:02Z</time>
      </trkpt>
      <trkpt lat="45.99387" lon="4.60749">
        <ele>465.77</ele>
        <time>2012-10-10T13:08:08Z</time>
      </trkpt>
      <trkpt lat="45.99395" lon="4.6082">
        <ele>460.714</ele>
        <time>2012-10-10T13:08:17Z</time>
      </trkpt>
      <trkpt lat="45.99406" lon="4.60896">
        <ele>457.506</ele>
        <time>2012-10-10T13:08:25Z</time>
      </trkpt>
      <trkpt lat="45.99411" lon="4.60946">
        <ele>460.157</ele>
        <time>2012-10-10T13:08:33Z</time>
      </trkpt>
      <trkpt lat="45.99411" lon="4.60986">
        <ele>458.299</ele>
        <time>2012-10-10T13:08:41Z</time>
      </trkpt>
      <trkpt lat="45.99417" lon="4.61065">
        <ele>452.55</ele>
        <time>2012-10-10T13:08:51Z</time>
      </trkpt>
      <trkpt lat="45.9941" lon="4.61147">
        <ele>448.741</ele>
        <time>2012-10-10T13:08:59Z</time>
      </trkpt>
      <trkpt lat="45.99409" lon="4.6116">
        <ele>446.546</ele>
        <time>2012-10-10T13:09:02Z</time>
      </trkpt>
      <trkpt lat="45.99409" lon="4.6116">
        <ele>445.726</ele>
        <time>2012-10-10T13:09:04Z</time>
      </trkpt>
      <trkpt lat="45.99385" lon="4.61251">
        <ele>442.554</ele>
        <time>2012-10-10T13:09:12Z</time>
      </trkpt>
      <trkpt lat="45.99362" lon="4.61341">
        <ele>434.342</ele>
        <time>2012-10-10T13:09:20Z</time>
      </trkpt>
      <trkpt lat="45.99347" lon="4.61422">
        <ele>427.092</ele>
        <time>2012-10-10T13:09:28Z</time>
      </trkpt>
      <trkpt lat="45.99325" lon="4.61535">
        <ele>420.503</ele>
        <time>2012-10-10T13:09:36Z</time>
      </trkpt>
      <trkpt lat="45.99309" lon="4.6161">
        <ele>420.087</ele>
        <time>2012-10-10T13:09:43Z</time>
      </trkpt>
      <trkpt lat="45.99308" lon="4.61617">
        <ele>419.609</ele>
        <time>2012-10-10T13:09:45Z</time>
      </trkpt>
      <trkpt lat="45.99304" lon="4.61686">
        <ele>419.068</ele>
        <time>2012-10-10T13:09:56Z</time>
      </trkpt>
      <trkpt lat="45.99303" lon="4.61732">
        <ele>419.098</ele>
        <time>2012-10-10T13:10:07Z</time>
      </trkpt>
      <trkpt lat="45.99304" lon="4.6174">
        <ele>418.095</ele>
        <time>2012-10-10T13:10:10Z</time>
      </trkpt>
      <trkpt lat="45.99293" lon="4.61747">
        <ele>416.286</ele>
        <time>2012-10-10T13:10:14Z</time>
      </trkpt>
      <trkpt lat="45.99258" lon="4.61752">
        <ele>416.686</ele>
        <time>2012-10-10T13:10:26Z</time>
      </trkpt>
      <trkpt lat="45.99216" lon="4.61764">
        <ele>416.679</ele>
        <time>2012-10-10T13:10:39Z</time>
      </trkpt>
      <trkpt lat="45.99211" lon="4.61785">
        <ele>415.354</ele>
        <time>2012-10-10T13:10:45Z</time>
      </trkpt>
      <trkpt lat="45.99217" lon="4.61854">
        <ele>413.067</ele>
        <time>2012-10-10T13:10:54Z</time>
      </trkpt>
      <trkpt lat="45.99217" lon="4.61923">
        <ele>408.233</ele>
        <time>2012-10-10T13:11:01Z</time>
      </trkpt>
      <trkpt lat="45.99189" lon="4.61946">
        <ele>406.414</ele>
        <time>2012-10-10T13:11:12Z</time>
      </trkpt>
      <trkpt lat="45.9919" lon="4.61979">
        <ele>399.688</ele>
        <time>2012-10-10T13:11:20Z</time>
      </trkpt>
      <trkpt lat="45.99193" lon="4.61983">
        <ele>399.047</ele>
        <time>2012-10-10T13:11:21Z</time>
      </trkpt>
      <trkpt lat="45.99203" lon="4.62007">
        <ele>394.189</ele>
        <time>2012-10-10T13:11:29Z</time>
      </trkpt>
      <trkpt lat="45.99179" lon="4.62011">
        <ele>393.627</ele>
        <time>2012-10-10T13:11:40Z</time>
      </trkpt>
      <trkpt lat="45.99145" lon="4.62008">
        <ele>393.203</ele>
        <time>2012-10-10T13:11:49Z</time>
      </trkpt>
      <trkpt lat="45.99115" lon="4.62015">
        <ele>389.689</ele>
        <time>2012-10-10T13:11:58Z</time>
      </trkpt>
      <trkpt lat="45.99081" lon="4.62037">
        <ele>389.75</ele>
        <time>2012-10-10T13:12:08Z</time>
      </trkpt>
      <trkpt lat="45.99064" lon="4.62042">
        <ele>390.923</ele>
        <time>2012-10-10T13:12:15Z</time>
      </trkpt>
      <trkpt lat="45.99048" lon="4.62115">
        <ele>383.572</ele>
        <time>2012-10-10T13:12:22Z</time>
      </trkpt>
      <trkpt lat="45.99038" lon="4.62191">
        <ele>377.123</ele>
        <time>2012-10-10T13:12:29Z</time>
      </trkpt>
      <trkpt lat="45.9903" lon="4.62277">
        <ele>371.717</ele>
        <time>2012-10-10T13:12:36Z</time>
      </trkpt>
      <trkpt lat="45.99028" lon="4.62305">
        <ele>370.502</ele>
        <time>2012-10-10T13:12:43Z</time>
      </trkpt>
      <trkpt lat="45.99027" lon="4.62354">
        <ele>368.131</ele>
        <time>2012-10-10T13:12:53Z</time>
      </trkpt>
      <trkpt lat="45.99025" lon="4.62415">
        <ele>366.295</ele>
        <time>2012-10-10T13:13:04Z</time>
      </trkpt>
      <trkpt lat="45.99023" lon="4.62424">
        <ele>365.883</ele>
        <time>2012-10-10T13:13:07Z</time>
      </trkpt>
      <trkpt lat="45.99016" lon="4.62424">
        <ele>365.476</ele>
        <time>2012-10-10T13:13:12Z</time>
      </trkpt>
      <trkpt lat="45.98978" lon="4.62428">
        <ele>363.586</ele>
        <time>2012-10-10T13:13:25Z</time>
      </trkpt>
      <trkpt lat="45.98963" lon="4.6244">
        <ele>361.785</ele>
        <time>2012-10-10T13:13:30Z</time>
      </trkpt>
      <trkpt lat="45.98933" lon="4.62467">
        <ele>355.586</ele>
        <time>2012-10-10T13:13:40Z</time>
      </trkpt>
      <trkpt lat="45.98916" lon="4.62472">
        <ele>354.026</ele>
        <time>2012-10-10T13:13:44Z</time>
      </trkpt>
      <trkpt lat="45.98886" lon="4.62473">
        <ele>350.009</ele>
        <time>2012-10-10T13:13:49Z</time>
      </trkpt>
      <trkpt lat="45.9886" lon="4.62467">
        <ele>348.953</ele>
        <time>2012-10-10T13:13:53Z</time>
      </trkpt>
      <trkpt lat="45.98814" lon="4.62453">
        <ele>347.299</ele>
        <time>2012-10-10T13:14:01Z</time>
      </trkpt>
      <trkpt lat="45.98792" lon="4.62451">
        <ele>346.742</ele>
        <time>2012-10-10T13:14:06Z</time>
      </trkpt>
      <trkpt lat="45.98751" lon="4.62452">
        <ele>345.096</ele>
        <time>2012-10-10T13:14:16Z</time>
      </trkpt>
      <trkpt lat="45.98743" lon="4.62455">
        <ele>344.977</ele>
        <time>2012-10-10T13:14:20Z</time>
      </trkpt>
      <trkpt lat="45.98742" lon="4.62471">
        <ele>343.103</ele>
        <time>2012-10-10T13:14:27Z</time>
      </trkpt>
      <trkpt lat="45.98742" lon="4.62479">
        <ele>341.146</ele>
        <time>2012-10-10T13:14:33Z</time>
      </trkpt>
      <trkpt lat="45.98766" lon="4.62481">
        <ele>343.276</ele>
        <time>2012-10-10T13:14:42Z</time>
      </trkpt>
      <trkpt lat="45.98795" lon="4.62484">
        <ele>348.903</ele>
        <time>2012-10-10T13:14:50Z</time>
      </trkpt>
      <trkpt lat="45.98806" lon="4.62485">
        <ele>346.552</ele>
        <time>2012-10-10T13:14:54Z</time>
      </trkpt>
      <trkpt lat="45.98815" lon="4.62521">
        <ele>347.202</ele>
        <time>2012-10-10T13:15:03Z</time>
      </trkpt>
      <trkpt lat="45.98827" lon="4.62538">
        <ele>343.194</ele>
        <time>2012-10-10T13:15:09Z</time>
      </trkpt>
      <trkpt lat="45.9884" lon="4.62558">
        <ele>342.462</ele>
        <time>2012-10-10T13:15:15Z</time>
      </trkpt>
      <trkpt lat="45.98843" lon="4.62562">
        <ele>342.283</ele>
        <time>2012-10-10T13:15:20Z</time>
      </trkpt>
    </trkseg>
  </trk>
</gpx>